<?xml version="1.0" encoding="UTF-8" standalone="no" ?>
<gpx xmlns="http://www.topografix.com/GPX/1/1" xmlns:xsi="http://www.w3.org/2001/XMLSchema-instance" xsi:schemaLocation="http://www.topografix.com/GPX/1/1 http://www.topografix.com/GPX/1/1/gpx.xsd" version="1.1" creator="VisuGPX - https://www.visugpx.com">
  <metadata>
    <name>Aix-Montaiguet</name>
    <desc><![CDATA[Boucle de 14 km, dénivelé cumulé 300m, au départ du Parking du bord de l'Arc]]></desc>
  </metadata>
  <trk>
    <name><![CDATA[Montaiguet 12 déc. 2018 09:51:49]]></name>
    <trkseg>
      <trkpt lat="43.50889" lon="5.46606">
        <ele>178</ele>
        <time>2018-12-12T08:51:49Z</time>
      </trkpt>
      <trkpt lat="43.50887" lon="5.46615">
        <ele>188</ele>
        <time>2018-12-12T08:52:51Z</time>
      </trkpt>
      <trkpt lat="43.50883" lon="5.46633">
        <ele>199</ele>
        <time>2018-12-12T08:52:56Z</time>
      </trkpt>
      <trkpt lat="43.50884" lon="5.46622">
        <ele>193</ele>
        <time>2018-12-12T08:56:19Z</time>
      </trkpt>
      <trkpt lat="43.50879" lon="5.46626">
        <ele>196</ele>
        <time>2018-12-12T08:56:50Z</time>
      </trkpt>
      <trkpt lat="43.50877" lon="5.46639">
        <ele>197</ele>
        <time>2018-12-12T08:56:55Z</time>
      </trkpt>
      <trkpt lat="43.50875" lon="5.46651">
        <ele>194</ele>
        <time>2018-12-12T08:57:03Z</time>
      </trkpt>
      <trkpt lat="43.50871" lon="5.4664">
        <ele>194</ele>
        <time>2018-12-12T08:58:30Z</time>
      </trkpt>
      <trkpt lat="43.50875" lon="5.4663">
        <ele>192</ele>
        <time>2018-12-12T08:58:47Z</time>
      </trkpt>
      <trkpt lat="43.50881" lon="5.46621">
        <ele>194</ele>
        <time>2018-12-12T08:59:04Z</time>
      </trkpt>
      <trkpt lat="43.50884" lon="5.46609">
        <ele>194</ele>
        <time>2018-12-12T09:01:24Z</time>
      </trkpt>
      <trkpt lat="43.50889" lon="5.46599">
        <ele>192</ele>
        <time>2018-12-12T09:02:01Z</time>
      </trkpt>
      <trkpt lat="43.50888" lon="5.46611">
        <ele>193</ele>
        <time>2018-12-12T09:03:14Z</time>
      </trkpt>
      <trkpt lat="43.50886" lon="5.46623">
        <ele>194</ele>
        <time>2018-12-12T09:03:25Z</time>
      </trkpt>
      <trkpt lat="43.5088" lon="5.46631">
        <ele>195</ele>
        <time>2018-12-12T09:03:34Z</time>
      </trkpt>
      <trkpt lat="43.50877" lon="5.46643">
        <ele>194</ele>
        <time>2018-12-12T09:03:53Z</time>
      </trkpt>
      <trkpt lat="43.50871" lon="5.46651">
        <ele>193</ele>
        <time>2018-12-12T09:05:17Z</time>
      </trkpt>
      <trkpt lat="43.50871" lon="5.46663">
        <ele>195</ele>
        <time>2018-12-12T09:05:28Z</time>
      </trkpt>
      <trkpt lat="43.50874" lon="5.46674">
        <ele>194</ele>
        <time>2018-12-12T09:05:39Z</time>
      </trkpt>
      <trkpt lat="43.50877" lon="5.46683">
        <ele>194</ele>
        <time>2018-12-12T09:05:46Z</time>
      </trkpt>
      <trkpt lat="43.5088" lon="5.46694">
        <ele>196</ele>
        <time>2018-12-12T09:05:54Z</time>
      </trkpt>
      <trkpt lat="43.50883" lon="5.46705">
        <ele>195</ele>
        <time>2018-12-12T09:06:02Z</time>
      </trkpt>
      <trkpt lat="43.50887" lon="5.46716">
        <ele>196</ele>
        <time>2018-12-12T09:06:10Z</time>
      </trkpt>
      <trkpt lat="43.50885" lon="5.46726">
        <ele>193</ele>
        <time>2018-12-12T09:06:16Z</time>
      </trkpt>
      <trkpt lat="43.50881" lon="5.46737">
        <ele>196</ele>
        <time>2018-12-12T09:06:27Z</time>
      </trkpt>
      <trkpt lat="43.50883" lon="5.46748">
        <ele>198</ele>
        <time>2018-12-12T09:06:37Z</time>
      </trkpt>
      <trkpt lat="43.50881" lon="5.46758">
        <ele>197</ele>
        <time>2018-12-12T09:06:44Z</time>
      </trkpt>
      <trkpt lat="43.50875" lon="5.46764">
        <ele>195</ele>
        <time>2018-12-12T09:06:51Z</time>
      </trkpt>
      <trkpt lat="43.50868" lon="5.46767">
        <ele>195</ele>
        <time>2018-12-12T09:06:57Z</time>
      </trkpt>
      <trkpt lat="43.5086" lon="5.46771">
        <ele>193</ele>
        <time>2018-12-12T09:07:04Z</time>
      </trkpt>
      <trkpt lat="43.50852" lon="5.46775">
        <ele>192</ele>
        <time>2018-12-12T09:07:20Z</time>
      </trkpt>
      <trkpt lat="43.50849" lon="5.46786">
        <ele>191</ele>
        <time>2018-12-12T09:07:36Z</time>
      </trkpt>
      <trkpt lat="43.50849" lon="5.46798">
        <ele>192</ele>
        <time>2018-12-12T09:07:45Z</time>
      </trkpt>
      <trkpt lat="43.50844" lon="5.46809">
        <ele>194</ele>
        <time>2018-12-12T09:07:55Z</time>
      </trkpt>
      <trkpt lat="43.50838" lon="5.46814">
        <ele>193</ele>
        <time>2018-12-12T09:08:03Z</time>
      </trkpt>
      <trkpt lat="43.5083" lon="5.4682">
        <ele>193</ele>
        <time>2018-12-12T09:08:13Z</time>
      </trkpt>
      <trkpt lat="43.50823" lon="5.46827">
        <ele>194</ele>
        <time>2018-12-12T09:08:22Z</time>
      </trkpt>
      <trkpt lat="43.50818" lon="5.46834">
        <ele>194</ele>
        <time>2018-12-12T09:08:29Z</time>
      </trkpt>
      <trkpt lat="43.5081" lon="5.4684">
        <ele>195</ele>
        <time>2018-12-12T09:08:39Z</time>
      </trkpt>
      <trkpt lat="43.50803" lon="5.46847">
        <ele>196</ele>
        <time>2018-12-12T09:08:50Z</time>
      </trkpt>
      <trkpt lat="43.50799" lon="5.46858">
        <ele>195</ele>
        <time>2018-12-12T09:09:15Z</time>
      </trkpt>
      <trkpt lat="43.50791" lon="5.46858">
        <ele>193</ele>
        <time>2018-12-12T09:09:23Z</time>
      </trkpt>
      <trkpt lat="43.50782" lon="5.46858">
        <ele>192</ele>
        <time>2018-12-12T09:09:30Z</time>
      </trkpt>
      <trkpt lat="43.50775" lon="5.46855">
        <ele>192</ele>
        <time>2018-12-12T09:09:36Z</time>
      </trkpt>
      <trkpt lat="43.50768" lon="5.46847">
        <ele>193</ele>
        <time>2018-12-12T09:09:45Z</time>
      </trkpt>
      <trkpt lat="43.50762" lon="5.46841">
        <ele>193</ele>
        <time>2018-12-12T09:09:52Z</time>
      </trkpt>
      <trkpt lat="43.50756" lon="5.46834">
        <ele>193</ele>
        <time>2018-12-12T09:10:00Z</time>
      </trkpt>
      <trkpt lat="43.50749" lon="5.46829">
        <ele>191</ele>
        <time>2018-12-12T09:10:07Z</time>
      </trkpt>
      <trkpt lat="43.50743" lon="5.46822">
        <ele>191</ele>
        <time>2018-12-12T09:10:15Z</time>
      </trkpt>
      <trkpt lat="43.50736" lon="5.46814">
        <ele>194</ele>
        <time>2018-12-12T09:10:26Z</time>
      </trkpt>
      <trkpt lat="43.50728" lon="5.46807">
        <ele>197</ele>
        <time>2018-12-12T09:10:41Z</time>
      </trkpt>
      <trkpt lat="43.50725" lon="5.46797">
        <ele>198</ele>
        <time>2018-12-12T09:10:48Z</time>
      </trkpt>
      <trkpt lat="43.50721" lon="5.46786">
        <ele>199</ele>
        <time>2018-12-12T09:10:55Z</time>
      </trkpt>
      <trkpt lat="43.50716" lon="5.46778">
        <ele>199</ele>
        <time>2018-12-12T09:11:01Z</time>
      </trkpt>
      <trkpt lat="43.50712" lon="5.46769">
        <ele>196</ele>
        <time>2018-12-12T09:11:07Z</time>
      </trkpt>
      <trkpt lat="43.50709" lon="5.4676">
        <ele>194</ele>
        <time>2018-12-12T09:11:14Z</time>
      </trkpt>
      <trkpt lat="43.50704" lon="5.4675">
        <ele>196</ele>
        <time>2018-12-12T09:11:22Z</time>
      </trkpt>
      <trkpt lat="43.507" lon="5.4674">
        <ele>196</ele>
        <time>2018-12-12T09:11:30Z</time>
      </trkpt>
      <trkpt lat="43.50697" lon="5.46729">
        <ele>197</ele>
        <time>2018-12-12T09:11:38Z</time>
      </trkpt>
      <trkpt lat="43.50693" lon="5.4672">
        <ele>198</ele>
        <time>2018-12-12T09:11:45Z</time>
      </trkpt>
      <trkpt lat="43.5069" lon="5.46712">
        <ele>199</ele>
        <time>2018-12-12T09:11:52Z</time>
      </trkpt>
      <trkpt lat="43.50688" lon="5.46701">
        <ele>199</ele>
        <time>2018-12-12T09:11:59Z</time>
      </trkpt>
      <trkpt lat="43.50686" lon="5.46692">
        <ele>199</ele>
        <time>2018-12-12T09:12:04Z</time>
      </trkpt>
      <trkpt lat="43.50684" lon="5.46681">
        <ele>199</ele>
        <time>2018-12-12T09:12:10Z</time>
      </trkpt>
      <trkpt lat="43.50684" lon="5.46669">
        <ele>199</ele>
        <time>2018-12-12T09:12:18Z</time>
      </trkpt>
      <trkpt lat="43.50684" lon="5.46657">
        <ele>199</ele>
        <time>2018-12-12T09:12:27Z</time>
      </trkpt>
      <trkpt lat="43.50685" lon="5.46646">
        <ele>199</ele>
        <time>2018-12-12T09:12:34Z</time>
      </trkpt>
      <trkpt lat="43.50687" lon="5.46636">
        <ele>199</ele>
        <time>2018-12-12T09:12:46Z</time>
      </trkpt>
      <trkpt lat="43.50689" lon="5.46625">
        <ele>200</ele>
        <time>2018-12-12T09:12:54Z</time>
      </trkpt>
      <trkpt lat="43.50689" lon="5.46614">
        <ele>199</ele>
        <time>2018-12-12T09:13:01Z</time>
      </trkpt>
      <trkpt lat="43.50689" lon="5.46605">
        <ele>199</ele>
        <time>2018-12-12T09:13:07Z</time>
      </trkpt>
      <trkpt lat="43.50689" lon="5.46593">
        <ele>199</ele>
        <time>2018-12-12T09:13:15Z</time>
      </trkpt>
      <trkpt lat="43.50689" lon="5.46582">
        <ele>200</ele>
        <time>2018-12-12T09:13:25Z</time>
      </trkpt>
      <trkpt lat="43.50685" lon="5.46572">
        <ele>198</ele>
        <time>2018-12-12T09:13:34Z</time>
      </trkpt>
      <trkpt lat="43.50682" lon="5.46562">
        <ele>198</ele>
        <time>2018-12-12T09:13:42Z</time>
      </trkpt>
      <trkpt lat="43.50675" lon="5.46557">
        <ele>195</ele>
        <time>2018-12-12T09:14:06Z</time>
      </trkpt>
      <trkpt lat="43.50668" lon="5.4655">
        <ele>194</ele>
        <time>2018-12-12T09:14:15Z</time>
      </trkpt>
      <trkpt lat="43.50664" lon="5.4654">
        <ele>195</ele>
        <time>2018-12-12T09:14:26Z</time>
      </trkpt>
      <trkpt lat="43.50659" lon="5.46532">
        <ele>196</ele>
        <time>2018-12-12T09:14:34Z</time>
      </trkpt>
      <trkpt lat="43.50656" lon="5.46522">
        <ele>196</ele>
        <time>2018-12-12T09:14:40Z</time>
      </trkpt>
      <trkpt lat="43.50654" lon="5.4651">
        <ele>195</ele>
        <time>2018-12-12T09:14:47Z</time>
      </trkpt>
      <trkpt lat="43.50654" lon="5.46498">
        <ele>195</ele>
        <time>2018-12-12T09:14:55Z</time>
      </trkpt>
      <trkpt lat="43.50653" lon="5.46486">
        <ele>196</ele>
        <time>2018-12-12T09:15:04Z</time>
      </trkpt>
      <trkpt lat="43.50653" lon="5.46477">
        <ele>196</ele>
        <time>2018-12-12T09:15:10Z</time>
      </trkpt>
      <trkpt lat="43.50654" lon="5.46468">
        <ele>194</ele>
        <time>2018-12-12T09:15:16Z</time>
      </trkpt>
      <trkpt lat="43.50655" lon="5.46456">
        <ele>193</ele>
        <time>2018-12-12T09:15:24Z</time>
      </trkpt>
      <trkpt lat="43.50656" lon="5.46444">
        <ele>192</ele>
        <time>2018-12-12T09:15:33Z</time>
      </trkpt>
      <trkpt lat="43.50658" lon="5.46433">
        <ele>191</ele>
        <time>2018-12-12T09:15:41Z</time>
      </trkpt>
      <trkpt lat="43.50658" lon="5.46421">
        <ele>191</ele>
        <time>2018-12-12T09:15:49Z</time>
      </trkpt>
      <trkpt lat="43.50659" lon="5.4641">
        <ele>191</ele>
        <time>2018-12-12T09:15:57Z</time>
      </trkpt>
      <trkpt lat="43.50662" lon="5.46398">
        <ele>192</ele>
        <time>2018-12-12T09:16:04Z</time>
      </trkpt>
      <trkpt lat="43.50664" lon="5.46388">
        <ele>192</ele>
        <time>2018-12-12T09:16:11Z</time>
      </trkpt>
      <trkpt lat="43.50667" lon="5.46378">
        <ele>192</ele>
        <time>2018-12-12T09:16:20Z</time>
      </trkpt>
      <trkpt lat="43.5067" lon="5.46366">
        <ele>191</ele>
        <time>2018-12-12T09:16:27Z</time>
      </trkpt>
      <trkpt lat="43.50671" lon="5.46356">
        <ele>192</ele>
        <time>2018-12-12T09:16:33Z</time>
      </trkpt>
      <trkpt lat="43.50673" lon="5.46345">
        <ele>189</ele>
        <time>2018-12-12T09:16:41Z</time>
      </trkpt>
      <trkpt lat="43.50676" lon="5.46335">
        <ele>191</ele>
        <time>2018-12-12T09:16:48Z</time>
      </trkpt>
      <trkpt lat="43.50677" lon="5.46324">
        <ele>190</ele>
        <time>2018-12-12T09:16:55Z</time>
      </trkpt>
      <trkpt lat="43.5068" lon="5.46313">
        <ele>190</ele>
        <time>2018-12-12T09:17:02Z</time>
      </trkpt>
      <trkpt lat="43.50681" lon="5.46304">
        <ele>191</ele>
        <time>2018-12-12T09:17:08Z</time>
      </trkpt>
      <trkpt lat="43.50686" lon="5.46293">
        <ele>191</ele>
        <time>2018-12-12T09:17:16Z</time>
      </trkpt>
      <trkpt lat="43.50691" lon="5.46284">
        <ele>192</ele>
        <time>2018-12-12T09:17:24Z</time>
      </trkpt>
      <trkpt lat="43.50696" lon="5.46274">
        <ele>191</ele>
        <time>2018-12-12T09:17:31Z</time>
      </trkpt>
      <trkpt lat="43.50701" lon="5.46264">
        <ele>189</ele>
        <time>2018-12-12T09:17:40Z</time>
      </trkpt>
      <trkpt lat="43.50706" lon="5.46254">
        <ele>190</ele>
        <time>2018-12-12T09:17:48Z</time>
      </trkpt>
      <trkpt lat="43.5071" lon="5.46245">
        <ele>190</ele>
        <time>2018-12-12T09:17:55Z</time>
      </trkpt>
      <trkpt lat="43.50716" lon="5.46235">
        <ele>190</ele>
        <time>2018-12-12T09:18:04Z</time>
      </trkpt>
      <trkpt lat="43.50722" lon="5.46226">
        <ele>190</ele>
        <time>2018-12-12T09:18:12Z</time>
      </trkpt>
      <trkpt lat="43.50728" lon="5.46219">
        <ele>189</ele>
        <time>2018-12-12T09:18:20Z</time>
      </trkpt>
      <trkpt lat="43.50732" lon="5.46209">
        <ele>191</ele>
        <time>2018-12-12T09:18:29Z</time>
      </trkpt>
      <trkpt lat="43.50738" lon="5.462">
        <ele>192</ele>
        <time>2018-12-12T09:18:38Z</time>
      </trkpt>
      <trkpt lat="43.50744" lon="5.46191">
        <ele>192</ele>
        <time>2018-12-12T09:18:46Z</time>
      </trkpt>
      <trkpt lat="43.50749" lon="5.46183">
        <ele>192</ele>
        <time>2018-12-12T09:18:52Z</time>
      </trkpt>
      <trkpt lat="43.50755" lon="5.46174">
        <ele>191</ele>
        <time>2018-12-12T09:19:00Z</time>
      </trkpt>
      <trkpt lat="43.50759" lon="5.46165">
        <ele>192</ele>
        <time>2018-12-12T09:19:09Z</time>
      </trkpt>
      <trkpt lat="43.50764" lon="5.46156">
        <ele>193</ele>
        <time>2018-12-12T09:19:17Z</time>
      </trkpt>
      <trkpt lat="43.5077" lon="5.46148">
        <ele>193</ele>
        <time>2018-12-12T09:19:24Z</time>
      </trkpt>
      <trkpt lat="43.50776" lon="5.4614">
        <ele>192</ele>
        <time>2018-12-12T09:19:30Z</time>
      </trkpt>
      <trkpt lat="43.50782" lon="5.46133">
        <ele>192</ele>
        <time>2018-12-12T09:19:37Z</time>
      </trkpt>
      <trkpt lat="43.50788" lon="5.46124">
        <ele>192</ele>
        <time>2018-12-12T09:19:45Z</time>
      </trkpt>
      <trkpt lat="43.50794" lon="5.46118">
        <ele>192</ele>
        <time>2018-12-12T09:19:51Z</time>
      </trkpt>
      <trkpt lat="43.508" lon="5.46111">
        <ele>191</ele>
        <time>2018-12-12T09:19:57Z</time>
      </trkpt>
      <trkpt lat="43.50805" lon="5.46104">
        <ele>192</ele>
        <time>2018-12-12T09:20:03Z</time>
      </trkpt>
      <trkpt lat="43.50812" lon="5.46097">
        <ele>191</ele>
        <time>2018-12-12T09:20:11Z</time>
      </trkpt>
      <trkpt lat="43.50816" lon="5.4609">
        <ele>188</ele>
        <time>2018-12-12T09:20:19Z</time>
      </trkpt>
      <trkpt lat="43.50823" lon="5.46082">
        <ele>188</ele>
        <time>2018-12-12T09:20:27Z</time>
      </trkpt>
      <trkpt lat="43.50828" lon="5.46076">
        <ele>189</ele>
        <time>2018-12-12T09:20:33Z</time>
      </trkpt>
      <trkpt lat="43.50835" lon="5.4607">
        <ele>190</ele>
        <time>2018-12-12T09:20:39Z</time>
      </trkpt>
      <trkpt lat="43.50841" lon="5.46063">
        <ele>191</ele>
        <time>2018-12-12T09:20:48Z</time>
      </trkpt>
      <trkpt lat="43.50849" lon="5.46061">
        <ele>192</ele>
        <time>2018-12-12T09:20:56Z</time>
      </trkpt>
      <trkpt lat="43.50856" lon="5.46062">
        <ele>192</ele>
        <time>2018-12-12T09:21:02Z</time>
      </trkpt>
      <trkpt lat="43.50865" lon="5.4606">
        <ele>193</ele>
        <time>2018-12-12T09:21:10Z</time>
      </trkpt>
      <trkpt lat="43.50872" lon="5.46058">
        <ele>194</ele>
        <time>2018-12-12T09:21:17Z</time>
      </trkpt>
      <trkpt lat="43.50881" lon="5.46058">
        <ele>194</ele>
        <time>2018-12-12T09:21:23Z</time>
      </trkpt>
      <trkpt lat="43.50889" lon="5.46057">
        <ele>193</ele>
        <time>2018-12-12T09:21:31Z</time>
      </trkpt>
      <trkpt lat="43.50896" lon="5.46051">
        <ele>191</ele>
        <time>2018-12-12T09:21:39Z</time>
      </trkpt>
      <trkpt lat="43.50902" lon="5.46045">
        <ele>190</ele>
        <time>2018-12-12T09:21:48Z</time>
      </trkpt>
      <trkpt lat="43.50908" lon="5.46037">
        <ele>189</ele>
        <time>2018-12-12T09:21:55Z</time>
      </trkpt>
      <trkpt lat="43.50913" lon="5.46028">
        <ele>190</ele>
        <time>2018-12-12T09:22:02Z</time>
      </trkpt>
      <trkpt lat="43.50918" lon="5.46022">
        <ele>188</ele>
        <time>2018-12-12T09:22:09Z</time>
      </trkpt>
      <trkpt lat="43.50922" lon="5.46014">
        <ele>188</ele>
        <time>2018-12-12T09:22:16Z</time>
      </trkpt>
      <trkpt lat="43.50928" lon="5.46009">
        <ele>187</ele>
        <time>2018-12-12T09:22:21Z</time>
      </trkpt>
      <trkpt lat="43.50934" lon="5.46001">
        <ele>189</ele>
        <time>2018-12-12T09:22:28Z</time>
      </trkpt>
      <trkpt lat="43.50939" lon="5.45993">
        <ele>188</ele>
        <time>2018-12-12T09:22:36Z</time>
      </trkpt>
      <trkpt lat="43.50945" lon="5.45985">
        <ele>189</ele>
        <time>2018-12-12T09:22:43Z</time>
      </trkpt>
      <trkpt lat="43.5095" lon="5.45975">
        <ele>186</ele>
        <time>2018-12-12T09:22:50Z</time>
      </trkpt>
      <trkpt lat="43.50955" lon="5.45965">
        <ele>187</ele>
        <time>2018-12-12T09:22:59Z</time>
      </trkpt>
      <trkpt lat="43.5096" lon="5.45956">
        <ele>186</ele>
        <time>2018-12-12T09:23:07Z</time>
      </trkpt>
      <trkpt lat="43.50964" lon="5.45945">
        <ele>187</ele>
        <time>2018-12-12T09:23:15Z</time>
      </trkpt>
      <trkpt lat="43.50967" lon="5.45935">
        <ele>187</ele>
        <time>2018-12-12T09:23:23Z</time>
      </trkpt>
      <trkpt lat="43.50972" lon="5.45926">
        <ele>188</ele>
        <time>2018-12-12T09:23:30Z</time>
      </trkpt>
      <trkpt lat="43.50976" lon="5.45917">
        <ele>189</ele>
        <time>2018-12-12T09:23:37Z</time>
      </trkpt>
      <trkpt lat="43.5098" lon="5.45909">
        <ele>188</ele>
        <time>2018-12-12T09:23:43Z</time>
      </trkpt>
      <trkpt lat="43.50983" lon="5.45901">
        <ele>188</ele>
        <time>2018-12-12T09:23:49Z</time>
      </trkpt>
      <trkpt lat="43.50988" lon="5.45892">
        <ele>186</ele>
        <time>2018-12-12T09:23:56Z</time>
      </trkpt>
      <trkpt lat="43.50992" lon="5.45883">
        <ele>186</ele>
        <time>2018-12-12T09:24:02Z</time>
      </trkpt>
      <trkpt lat="43.50996" lon="5.45873">
        <ele>186</ele>
        <time>2018-12-12T09:24:11Z</time>
      </trkpt>
      <trkpt lat="43.50998" lon="5.45864">
        <ele>185</ele>
        <time>2018-12-12T09:24:16Z</time>
      </trkpt>
      <trkpt lat="43.51" lon="5.45852">
        <ele>184</ele>
        <time>2018-12-12T09:24:24Z</time>
      </trkpt>
      <trkpt lat="43.51001" lon="5.4584">
        <ele>186</ele>
        <time>2018-12-12T09:24:32Z</time>
      </trkpt>
      <trkpt lat="43.51002" lon="5.45831">
        <ele>185</ele>
        <time>2018-12-12T09:24:38Z</time>
      </trkpt>
      <trkpt lat="43.51005" lon="5.4582">
        <ele>185</ele>
        <time>2018-12-12T09:24:46Z</time>
      </trkpt>
      <trkpt lat="43.51008" lon="5.4581">
        <ele>186</ele>
        <time>2018-12-12T09:24:53Z</time>
      </trkpt>
      <trkpt lat="43.5101" lon="5.458">
        <ele>187</ele>
        <time>2018-12-12T09:24:59Z</time>
      </trkpt>
      <trkpt lat="43.51011" lon="5.45788">
        <ele>187</ele>
        <time>2018-12-12T09:25:07Z</time>
      </trkpt>
      <trkpt lat="43.51011" lon="5.45777">
        <ele>189</ele>
        <time>2018-12-12T09:25:14Z</time>
      </trkpt>
      <trkpt lat="43.51014" lon="5.45767">
        <ele>187</ele>
        <time>2018-12-12T09:25:22Z</time>
      </trkpt>
      <trkpt lat="43.51014" lon="5.45756">
        <ele>186</ele>
        <time>2018-12-12T09:25:29Z</time>
      </trkpt>
      <trkpt lat="43.51013" lon="5.45746">
        <ele>187</ele>
        <time>2018-12-12T09:25:34Z</time>
      </trkpt>
      <trkpt lat="43.51012" lon="5.45735">
        <ele>187</ele>
        <time>2018-12-12T09:25:42Z</time>
      </trkpt>
      <trkpt lat="43.51013" lon="5.45723">
        <ele>188</ele>
        <time>2018-12-12T09:25:50Z</time>
      </trkpt>
      <trkpt lat="43.51012" lon="5.45711">
        <ele>188</ele>
        <time>2018-12-12T09:25:58Z</time>
      </trkpt>
      <trkpt lat="43.5101" lon="5.45701">
        <ele>188</ele>
        <time>2018-12-12T09:26:04Z</time>
      </trkpt>
      <trkpt lat="43.51009" lon="5.45691">
        <ele>187</ele>
        <time>2018-12-12T09:26:11Z</time>
      </trkpt>
      <trkpt lat="43.51006" lon="5.4568">
        <ele>187</ele>
        <time>2018-12-12T09:26:18Z</time>
      </trkpt>
      <trkpt lat="43.51004" lon="5.4567">
        <ele>187</ele>
        <time>2018-12-12T09:26:25Z</time>
      </trkpt>
      <trkpt lat="43.51001" lon="5.45661">
        <ele>189</ele>
        <time>2018-12-12T09:26:32Z</time>
      </trkpt>
      <trkpt lat="43.50999" lon="5.4565">
        <ele>190</ele>
        <time>2018-12-12T09:26:40Z</time>
      </trkpt>
      <trkpt lat="43.50997" lon="5.45638">
        <ele>188</ele>
        <time>2018-12-12T09:26:49Z</time>
      </trkpt>
      <trkpt lat="43.50997" lon="5.45627">
        <ele>187</ele>
        <time>2018-12-12T09:26:56Z</time>
      </trkpt>
      <trkpt lat="43.50995" lon="5.45616">
        <ele>188</ele>
        <time>2018-12-12T09:27:02Z</time>
      </trkpt>
      <trkpt lat="43.50993" lon="5.45606">
        <ele>186</ele>
        <time>2018-12-12T09:27:07Z</time>
      </trkpt>
      <trkpt lat="43.50993" lon="5.45594">
        <ele>184</ele>
        <time>2018-12-12T09:27:16Z</time>
      </trkpt>
      <trkpt lat="43.50989" lon="5.45584">
        <ele>188</ele>
        <time>2018-12-12T09:27:34Z</time>
      </trkpt>
      <trkpt lat="43.50988" lon="5.45574">
        <ele>189</ele>
        <time>2018-12-12T09:27:41Z</time>
      </trkpt>
      <trkpt lat="43.50989" lon="5.45562">
        <ele>189</ele>
        <time>2018-12-12T09:27:48Z</time>
      </trkpt>
      <trkpt lat="43.50989" lon="5.45552">
        <ele>188</ele>
        <time>2018-12-12T09:27:56Z</time>
      </trkpt>
      <trkpt lat="43.50987" lon="5.45542">
        <ele>189</ele>
        <time>2018-12-12T09:28:03Z</time>
      </trkpt>
      <trkpt lat="43.50988" lon="5.4553">
        <ele>190</ele>
        <time>2018-12-12T09:28:11Z</time>
      </trkpt>
      <trkpt lat="43.50986" lon="5.4552">
        <ele>189</ele>
        <time>2018-12-12T09:28:25Z</time>
      </trkpt>
      <trkpt lat="43.50983" lon="5.45508">
        <ele>190</ele>
        <time>2018-12-12T09:28:34Z</time>
      </trkpt>
      <trkpt lat="43.50983" lon="5.45496">
        <ele>190</ele>
        <time>2018-12-12T09:28:43Z</time>
      </trkpt>
      <trkpt lat="43.50979" lon="5.45486">
        <ele>193</ele>
        <time>2018-12-12T09:28:53Z</time>
      </trkpt>
      <trkpt lat="43.50976" lon="5.45477">
        <ele>194</ele>
        <time>2018-12-12T09:29:00Z</time>
      </trkpt>
      <trkpt lat="43.50978" lon="5.45466">
        <ele>193</ele>
        <time>2018-12-12T09:29:07Z</time>
      </trkpt>
      <trkpt lat="43.50978" lon="5.45455">
        <ele>193</ele>
        <time>2018-12-12T09:29:13Z</time>
      </trkpt>
      <trkpt lat="43.50977" lon="5.45444">
        <ele>193</ele>
        <time>2018-12-12T09:29:21Z</time>
      </trkpt>
      <trkpt lat="43.50975" lon="5.45433">
        <ele>195</ele>
        <time>2018-12-12T09:29:30Z</time>
      </trkpt>
      <trkpt lat="43.50978" lon="5.45422">
        <ele>194</ele>
        <time>2018-12-12T09:29:36Z</time>
      </trkpt>
      <trkpt lat="43.50981" lon="5.45412">
        <ele>192</ele>
        <time>2018-12-12T09:29:42Z</time>
      </trkpt>
      <trkpt lat="43.50984" lon="5.45404">
        <ele>192</ele>
        <time>2018-12-12T09:29:49Z</time>
      </trkpt>
      <trkpt lat="43.50989" lon="5.45395">
        <ele>191</ele>
        <time>2018-12-12T09:29:55Z</time>
      </trkpt>
      <trkpt lat="43.50994" lon="5.45385">
        <ele>191</ele>
        <time>2018-12-12T09:30:02Z</time>
      </trkpt>
      <trkpt lat="43.50998" lon="5.45377">
        <ele>191</ele>
        <time>2018-12-12T09:30:09Z</time>
      </trkpt>
      <trkpt lat="43.51003" lon="5.45367">
        <ele>191</ele>
        <time>2018-12-12T09:30:17Z</time>
      </trkpt>
      <trkpt lat="43.51007" lon="5.45359">
        <ele>190</ele>
        <time>2018-12-12T09:30:23Z</time>
      </trkpt>
      <trkpt lat="43.51013" lon="5.45351">
        <ele>189</ele>
        <time>2018-12-12T09:30:32Z</time>
      </trkpt>
      <trkpt lat="43.5102" lon="5.45345">
        <ele>190</ele>
        <time>2018-12-12T09:30:39Z</time>
      </trkpt>
      <trkpt lat="43.51025" lon="5.45338">
        <ele>190</ele>
        <time>2018-12-12T09:30:46Z</time>
      </trkpt>
      <trkpt lat="43.51032" lon="5.45333">
        <ele>191</ele>
        <time>2018-12-12T09:30:55Z</time>
      </trkpt>
      <trkpt lat="43.5104" lon="5.45325">
        <ele>192</ele>
        <time>2018-12-12T09:31:04Z</time>
      </trkpt>
      <trkpt lat="43.51046" lon="5.45318">
        <ele>190</ele>
        <time>2018-12-12T09:31:11Z</time>
      </trkpt>
      <trkpt lat="43.51052" lon="5.45311">
        <ele>190</ele>
        <time>2018-12-12T09:31:18Z</time>
      </trkpt>
      <trkpt lat="43.51057" lon="5.45306">
        <ele>190</ele>
        <time>2018-12-12T09:31:25Z</time>
      </trkpt>
      <trkpt lat="43.51063" lon="5.45299">
        <ele>188</ele>
        <time>2018-12-12T09:31:32Z</time>
      </trkpt>
      <trkpt lat="43.51069" lon="5.45289">
        <ele>188</ele>
        <time>2018-12-12T09:31:39Z</time>
      </trkpt>
      <trkpt lat="43.51075" lon="5.4528">
        <ele>188</ele>
        <time>2018-12-12T09:31:48Z</time>
      </trkpt>
      <trkpt lat="43.51081" lon="5.45273">
        <ele>187</ele>
        <time>2018-12-12T09:31:56Z</time>
      </trkpt>
      <trkpt lat="43.51088" lon="5.45266">
        <ele>188</ele>
        <time>2018-12-12T09:32:06Z</time>
      </trkpt>
      <trkpt lat="43.51094" lon="5.4526">
        <ele>189</ele>
        <time>2018-12-12T09:32:14Z</time>
      </trkpt>
      <trkpt lat="43.511" lon="5.45251">
        <ele>188</ele>
        <time>2018-12-12T09:32:22Z</time>
      </trkpt>
      <trkpt lat="43.51104" lon="5.45241">
        <ele>188</ele>
        <time>2018-12-12T09:32:31Z</time>
      </trkpt>
      <trkpt lat="43.51108" lon="5.45232">
        <ele>188</ele>
        <time>2018-12-12T09:32:36Z</time>
      </trkpt>
      <trkpt lat="43.51113" lon="5.45224">
        <ele>187</ele>
        <time>2018-12-12T09:32:44Z</time>
      </trkpt>
      <trkpt lat="43.51117" lon="5.45214">
        <ele>188</ele>
        <time>2018-12-12T09:32:53Z</time>
      </trkpt>
      <trkpt lat="43.51122" lon="5.45206">
        <ele>185</ele>
        <time>2018-12-12T09:33:05Z</time>
      </trkpt>
      <trkpt lat="43.51131" lon="5.45202">
        <ele>185</ele>
        <time>2018-12-12T09:34:11Z</time>
      </trkpt>
      <trkpt lat="43.51138" lon="5.45205">
        <ele>188</ele>
        <time>2018-12-12T09:34:19Z</time>
      </trkpt>
      <trkpt lat="43.51146" lon="5.45208">
        <ele>187</ele>
        <time>2018-12-12T09:34:30Z</time>
      </trkpt>
      <trkpt lat="43.51152" lon="5.45214">
        <ele>187</ele>
        <time>2018-12-12T09:34:38Z</time>
      </trkpt>
      <trkpt lat="43.51154" lon="5.45203">
        <ele>189</ele>
        <time>2018-12-12T09:34:56Z</time>
      </trkpt>
      <trkpt lat="43.51153" lon="5.45192">
        <ele>187</ele>
        <time>2018-12-12T09:35:04Z</time>
      </trkpt>
      <trkpt lat="43.51151" lon="5.45182">
        <ele>189</ele>
        <time>2018-12-12T09:35:11Z</time>
      </trkpt>
      <trkpt lat="43.5115" lon="5.45171">
        <ele>190</ele>
        <time>2018-12-12T09:35:19Z</time>
      </trkpt>
      <trkpt lat="43.51148" lon="5.45161">
        <ele>188</ele>
        <time>2018-12-12T09:35:27Z</time>
      </trkpt>
      <trkpt lat="43.51146" lon="5.4515">
        <ele>189</ele>
        <time>2018-12-12T09:35:34Z</time>
      </trkpt>
      <trkpt lat="43.51146" lon="5.45141">
        <ele>190</ele>
        <time>2018-12-12T09:35:40Z</time>
      </trkpt>
      <trkpt lat="43.51145" lon="5.45129">
        <ele>188</ele>
        <time>2018-12-12T09:35:47Z</time>
      </trkpt>
      <trkpt lat="43.51145" lon="5.4512">
        <ele>188</ele>
        <time>2018-12-12T09:35:52Z</time>
      </trkpt>
      <trkpt lat="43.51144" lon="5.45108">
        <ele>188</ele>
        <time>2018-12-12T09:36:01Z</time>
      </trkpt>
      <trkpt lat="43.51143" lon="5.45096">
        <ele>189</ele>
        <time>2018-12-12T09:36:09Z</time>
      </trkpt>
      <trkpt lat="43.51143" lon="5.45085">
        <ele>189</ele>
        <time>2018-12-12T09:36:15Z</time>
      </trkpt>
      <trkpt lat="43.51143" lon="5.45074">
        <ele>189</ele>
        <time>2018-12-12T09:36:22Z</time>
      </trkpt>
      <trkpt lat="43.51141" lon="5.45063">
        <ele>189</ele>
        <time>2018-12-12T09:36:30Z</time>
      </trkpt>
      <trkpt lat="43.51141" lon="5.45053">
        <ele>189</ele>
        <time>2018-12-12T09:36:36Z</time>
      </trkpt>
      <trkpt lat="43.51139" lon="5.45041">
        <ele>190</ele>
        <time>2018-12-12T09:36:46Z</time>
      </trkpt>
      <trkpt lat="43.51137" lon="5.45031">
        <ele>190</ele>
        <time>2018-12-12T09:36:55Z</time>
      </trkpt>
      <trkpt lat="43.51136" lon="5.45019">
        <ele>191</ele>
        <time>2018-12-12T09:37:03Z</time>
      </trkpt>
      <trkpt lat="43.51133" lon="5.45009">
        <ele>191</ele>
        <time>2018-12-12T09:37:10Z</time>
      </trkpt>
      <trkpt lat="43.5113" lon="5.45">
        <ele>191</ele>
        <time>2018-12-12T09:37:17Z</time>
      </trkpt>
      <trkpt lat="43.51126" lon="5.4499">
        <ele>195</ele>
        <time>2018-12-12T09:37:26Z</time>
      </trkpt>
      <trkpt lat="43.51122" lon="5.44981">
        <ele>197</ele>
        <time>2018-12-12T09:37:33Z</time>
      </trkpt>
      <trkpt lat="43.51118" lon="5.44971">
        <ele>195</ele>
        <time>2018-12-12T09:37:42Z</time>
      </trkpt>
      <trkpt lat="43.51113" lon="5.44963">
        <ele>194</ele>
        <time>2018-12-12T09:37:52Z</time>
      </trkpt>
      <trkpt lat="43.5111" lon="5.44952">
        <ele>192</ele>
        <time>2018-12-12T09:37:59Z</time>
      </trkpt>
      <trkpt lat="43.51104" lon="5.44944">
        <ele>189</ele>
        <time>2018-12-12T09:38:10Z</time>
      </trkpt>
      <trkpt lat="43.51096" lon="5.4494">
        <ele>191</ele>
        <time>2018-12-12T09:38:18Z</time>
      </trkpt>
      <trkpt lat="43.51089" lon="5.44935">
        <ele>192</ele>
        <time>2018-12-12T09:38:24Z</time>
      </trkpt>
      <trkpt lat="43.51082" lon="5.44928">
        <ele>191</ele>
        <time>2018-12-12T09:38:30Z</time>
      </trkpt>
      <trkpt lat="43.51077" lon="5.44922">
        <ele>192</ele>
        <time>2018-12-12T09:38:36Z</time>
      </trkpt>
      <trkpt lat="43.51071" lon="5.44915">
        <ele>192</ele>
        <time>2018-12-12T09:38:42Z</time>
      </trkpt>
      <trkpt lat="43.51065" lon="5.44907">
        <ele>190</ele>
        <time>2018-12-12T09:38:50Z</time>
      </trkpt>
      <trkpt lat="43.51059" lon="5.449">
        <ele>189</ele>
        <time>2018-12-12T09:38:57Z</time>
      </trkpt>
      <trkpt lat="43.51051" lon="5.44894">
        <ele>191</ele>
        <time>2018-12-12T09:39:07Z</time>
      </trkpt>
      <trkpt lat="43.51043" lon="5.44889">
        <ele>192</ele>
        <time>2018-12-12T09:39:17Z</time>
      </trkpt>
      <trkpt lat="43.51036" lon="5.44884">
        <ele>191</ele>
        <time>2018-12-12T09:39:24Z</time>
      </trkpt>
      <trkpt lat="43.5103" lon="5.44879">
        <ele>191</ele>
        <time>2018-12-12T09:39:30Z</time>
      </trkpt>
      <trkpt lat="43.51024" lon="5.44872">
        <ele>190</ele>
        <time>2018-12-12T09:39:36Z</time>
      </trkpt>
      <trkpt lat="43.51019" lon="5.44865">
        <ele>191</ele>
        <time>2018-12-12T09:39:44Z</time>
      </trkpt>
      <trkpt lat="43.51012" lon="5.44857">
        <ele>192</ele>
        <time>2018-12-12T09:39:52Z</time>
      </trkpt>
      <trkpt lat="43.51007" lon="5.44849">
        <ele>192</ele>
        <time>2018-12-12T09:39:59Z</time>
      </trkpt>
      <trkpt lat="43.51" lon="5.44841">
        <ele>193</ele>
        <time>2018-12-12T09:40:06Z</time>
      </trkpt>
      <trkpt lat="43.50997" lon="5.44831">
        <ele>193</ele>
        <time>2018-12-12T09:40:13Z</time>
      </trkpt>
      <trkpt lat="43.50995" lon="5.44819">
        <ele>193</ele>
        <time>2018-12-12T09:40:19Z</time>
      </trkpt>
      <trkpt lat="43.50993" lon="5.44808">
        <ele>192</ele>
        <time>2018-12-12T09:40:25Z</time>
      </trkpt>
      <trkpt lat="43.50993" lon="5.44799">
        <ele>193</ele>
        <time>2018-12-12T09:40:30Z</time>
      </trkpt>
      <trkpt lat="43.50993" lon="5.44787">
        <ele>190</ele>
        <time>2018-12-12T09:40:38Z</time>
      </trkpt>
      <trkpt lat="43.50996" lon="5.44778">
        <ele>189</ele>
        <time>2018-12-12T09:40:43Z</time>
      </trkpt>
      <trkpt lat="43.50998" lon="5.44767">
        <ele>188</ele>
        <time>2018-12-12T09:40:50Z</time>
      </trkpt>
      <trkpt lat="43.51" lon="5.44758">
        <ele>186</ele>
        <time>2018-12-12T09:40:56Z</time>
      </trkpt>
      <trkpt lat="43.51003" lon="5.44747">
        <ele>186</ele>
        <time>2018-12-12T09:41:03Z</time>
      </trkpt>
      <trkpt lat="43.51008" lon="5.44737">
        <ele>186</ele>
        <time>2018-12-12T09:41:10Z</time>
      </trkpt>
      <trkpt lat="43.51013" lon="5.44727">
        <ele>184</ele>
        <time>2018-12-12T09:41:18Z</time>
      </trkpt>
      <trkpt lat="43.51014" lon="5.44717">
        <ele>186</ele>
        <time>2018-12-12T09:41:27Z</time>
      </trkpt>
      <trkpt lat="43.51019" lon="5.44706">
        <ele>185</ele>
        <time>2018-12-12T09:41:36Z</time>
      </trkpt>
      <trkpt lat="43.51022" lon="5.44696">
        <ele>186</ele>
        <time>2018-12-12T09:41:45Z</time>
      </trkpt>
      <trkpt lat="43.51023" lon="5.44684">
        <ele>186</ele>
        <time>2018-12-12T09:41:56Z</time>
      </trkpt>
      <trkpt lat="43.51025" lon="5.44674">
        <ele>187</ele>
        <time>2018-12-12T09:42:07Z</time>
      </trkpt>
      <trkpt lat="43.51025" lon="5.44664">
        <ele>186</ele>
        <time>2018-12-12T09:42:12Z</time>
      </trkpt>
      <trkpt lat="43.51028" lon="5.44652">
        <ele>188</ele>
        <time>2018-12-12T09:42:21Z</time>
      </trkpt>
      <trkpt lat="43.5103" lon="5.4464">
        <ele>188</ele>
        <time>2018-12-12T09:42:34Z</time>
      </trkpt>
      <trkpt lat="43.51033" lon="5.4463">
        <ele>189</ele>
        <time>2018-12-12T09:42:42Z</time>
      </trkpt>
      <trkpt lat="43.51038" lon="5.44621">
        <ele>189</ele>
        <time>2018-12-12T09:42:49Z</time>
      </trkpt>
      <trkpt lat="43.51042" lon="5.44611">
        <ele>186</ele>
        <time>2018-12-12T09:42:55Z</time>
      </trkpt>
      <trkpt lat="43.51046" lon="5.44601">
        <ele>186</ele>
        <time>2018-12-12T09:43:02Z</time>
      </trkpt>
      <trkpt lat="43.51048" lon="5.4459">
        <ele>186</ele>
        <time>2018-12-12T09:43:13Z</time>
      </trkpt>
      <trkpt lat="43.51052" lon="5.44582">
        <ele>185</ele>
        <time>2018-12-12T09:43:20Z</time>
      </trkpt>
      <trkpt lat="43.51056" lon="5.44572">
        <ele>185</ele>
        <time>2018-12-12T09:43:28Z</time>
      </trkpt>
      <trkpt lat="43.51058" lon="5.44561">
        <ele>185</ele>
        <time>2018-12-12T09:43:36Z</time>
      </trkpt>
      <trkpt lat="43.5106" lon="5.44551">
        <ele>183</ele>
        <time>2018-12-12T09:43:44Z</time>
      </trkpt>
      <trkpt lat="43.5106" lon="5.44539">
        <ele>187</ele>
        <time>2018-12-12T09:43:54Z</time>
      </trkpt>
      <trkpt lat="43.51061" lon="5.44528">
        <ele>186</ele>
        <time>2018-12-12T09:44:02Z</time>
      </trkpt>
      <trkpt lat="43.51065" lon="5.44518">
        <ele>186</ele>
        <time>2018-12-12T09:44:09Z</time>
      </trkpt>
      <trkpt lat="43.51068" lon="5.44507">
        <ele>185</ele>
        <time>2018-12-12T09:44:18Z</time>
      </trkpt>
      <trkpt lat="43.5107" lon="5.44496">
        <ele>183</ele>
        <time>2018-12-12T09:44:27Z</time>
      </trkpt>
      <trkpt lat="43.51073" lon="5.44487">
        <ele>185</ele>
        <time>2018-12-12T09:44:35Z</time>
      </trkpt>
      <trkpt lat="43.51076" lon="5.44477">
        <ele>187</ele>
        <time>2018-12-12T09:44:47Z</time>
      </trkpt>
      <trkpt lat="43.51079" lon="5.44466">
        <ele>186</ele>
        <time>2018-12-12T09:44:57Z</time>
      </trkpt>
      <trkpt lat="43.51083" lon="5.44455">
        <ele>186</ele>
        <time>2018-12-12T09:45:18Z</time>
      </trkpt>
      <trkpt lat="43.51088" lon="5.44445">
        <ele>187</ele>
        <time>2018-12-12T09:45:27Z</time>
      </trkpt>
      <trkpt lat="43.5109" lon="5.44434">
        <ele>188</ele>
        <time>2018-12-12T09:45:34Z</time>
      </trkpt>
      <trkpt lat="43.5109" lon="5.44423">
        <ele>187</ele>
        <time>2018-12-12T09:45:42Z</time>
      </trkpt>
      <trkpt lat="43.5109" lon="5.44412">
        <ele>189</ele>
        <time>2018-12-12T09:45:48Z</time>
      </trkpt>
      <trkpt lat="43.51093" lon="5.44401">
        <ele>188</ele>
        <time>2018-12-12T09:45:55Z</time>
      </trkpt>
      <trkpt lat="43.51094" lon="5.44389">
        <ele>190</ele>
        <time>2018-12-12T09:46:02Z</time>
      </trkpt>
      <trkpt lat="43.51096" lon="5.44378">
        <ele>191</ele>
        <time>2018-12-12T09:46:09Z</time>
      </trkpt>
      <trkpt lat="43.51099" lon="5.44369">
        <ele>192</ele>
        <time>2018-12-12T09:46:18Z</time>
      </trkpt>
      <trkpt lat="43.51101" lon="5.44358">
        <ele>192</ele>
        <time>2018-12-12T09:46:25Z</time>
      </trkpt>
      <trkpt lat="43.51103" lon="5.44347">
        <ele>191</ele>
        <time>2018-12-12T09:46:32Z</time>
      </trkpt>
      <trkpt lat="43.51106" lon="5.44336">
        <ele>192</ele>
        <time>2018-12-12T09:46:39Z</time>
      </trkpt>
      <trkpt lat="43.51109" lon="5.44325">
        <ele>194</ele>
        <time>2018-12-12T09:46:47Z</time>
      </trkpt>
      <trkpt lat="43.51112" lon="5.44317">
        <ele>193</ele>
        <time>2018-12-12T09:46:53Z</time>
      </trkpt>
      <trkpt lat="43.51113" lon="5.44308">
        <ele>193</ele>
        <time>2018-12-12T09:46:59Z</time>
      </trkpt>
      <trkpt lat="43.51114" lon="5.44296">
        <ele>193</ele>
        <time>2018-12-12T09:47:05Z</time>
      </trkpt>
      <trkpt lat="43.51117" lon="5.44286">
        <ele>192</ele>
        <time>2018-12-12T09:47:13Z</time>
      </trkpt>
      <trkpt lat="43.51119" lon="5.44276">
        <ele>191</ele>
        <time>2018-12-12T09:47:20Z</time>
      </trkpt>
      <trkpt lat="43.51119" lon="5.44265">
        <ele>192</ele>
        <time>2018-12-12T09:47:28Z</time>
      </trkpt>
      <trkpt lat="43.51117" lon="5.44254">
        <ele>189</ele>
        <time>2018-12-12T09:47:38Z</time>
      </trkpt>
      <trkpt lat="43.51114" lon="5.44244">
        <ele>189</ele>
        <time>2018-12-12T09:47:48Z</time>
      </trkpt>
      <trkpt lat="43.51108" lon="5.44238">
        <ele>189</ele>
        <time>2018-12-12T09:47:56Z</time>
      </trkpt>
      <trkpt lat="43.51099" lon="5.44236">
        <ele>188</ele>
        <time>2018-12-12T09:48:05Z</time>
      </trkpt>
      <trkpt lat="43.51091" lon="5.44234">
        <ele>187</ele>
        <time>2018-12-12T09:48:14Z</time>
      </trkpt>
      <trkpt lat="43.51082" lon="5.44233">
        <ele>188</ele>
        <time>2018-12-12T09:48:22Z</time>
      </trkpt>
      <trkpt lat="43.51074" lon="5.44233">
        <ele>189</ele>
        <time>2018-12-12T09:48:29Z</time>
      </trkpt>
      <trkpt lat="43.51066" lon="5.44234">
        <ele>188</ele>
        <time>2018-12-12T09:48:39Z</time>
      </trkpt>
      <trkpt lat="43.51061" lon="5.4424">
        <ele>189</ele>
        <time>2018-12-12T09:48:46Z</time>
      </trkpt>
      <trkpt lat="43.51055" lon="5.44247">
        <ele>189</ele>
        <time>2018-12-12T09:48:53Z</time>
      </trkpt>
      <trkpt lat="43.51049" lon="5.44256">
        <ele>186</ele>
        <time>2018-12-12T09:49:02Z</time>
      </trkpt>
      <trkpt lat="43.51042" lon="5.44262">
        <ele>187</ele>
        <time>2018-12-12T09:49:10Z</time>
      </trkpt>
      <trkpt lat="43.51043" lon="5.44274">
        <ele>188</ele>
        <time>2018-12-12T09:49:18Z</time>
      </trkpt>
      <trkpt lat="43.51041" lon="5.44281">
        <ele>186</ele>
        <time>2018-12-12T09:49:24Z</time>
      </trkpt>
      <trkpt lat="43.51037" lon="5.4429">
        <ele>186</ele>
        <time>2018-12-12T09:49:30Z</time>
      </trkpt>
      <trkpt lat="43.51031" lon="5.44298">
        <ele>187</ele>
        <time>2018-12-12T09:49:40Z</time>
      </trkpt>
      <trkpt lat="43.51022" lon="5.443">
        <ele>186</ele>
        <time>2018-12-12T09:50:32Z</time>
      </trkpt>
      <trkpt lat="43.51016" lon="5.44304">
        <ele>185</ele>
        <time>2018-12-12T09:50:42Z</time>
      </trkpt>
      <trkpt lat="43.51008" lon="5.4431">
        <ele>187</ele>
        <time>2018-12-12T09:50:51Z</time>
      </trkpt>
      <trkpt lat="43.51001" lon="5.44317">
        <ele>187</ele>
        <time>2018-12-12T09:50:58Z</time>
      </trkpt>
      <trkpt lat="43.50994" lon="5.44325">
        <ele>187</ele>
        <time>2018-12-12T09:51:05Z</time>
      </trkpt>
      <trkpt lat="43.50987" lon="5.44326">
        <ele>187</ele>
        <time>2018-12-12T09:51:10Z</time>
      </trkpt>
      <trkpt lat="43.50979" lon="5.44326">
        <ele>185</ele>
        <time>2018-12-12T09:51:17Z</time>
      </trkpt>
      <trkpt lat="43.50971" lon="5.44326">
        <ele>185</ele>
        <time>2018-12-12T09:51:24Z</time>
      </trkpt>
      <trkpt lat="43.50962" lon="5.44327">
        <ele>186</ele>
        <time>2018-12-12T09:51:32Z</time>
      </trkpt>
      <trkpt lat="43.50954" lon="5.44328">
        <ele>187</ele>
        <time>2018-12-12T09:51:39Z</time>
      </trkpt>
      <trkpt lat="43.50946" lon="5.44329">
        <ele>188</ele>
        <time>2018-12-12T09:51:46Z</time>
      </trkpt>
      <trkpt lat="43.50938" lon="5.4433">
        <ele>188</ele>
        <time>2018-12-12T09:51:53Z</time>
      </trkpt>
      <trkpt lat="43.50929" lon="5.44332">
        <ele>189</ele>
        <time>2018-12-12T09:52:00Z</time>
      </trkpt>
      <trkpt lat="43.50921" lon="5.4433">
        <ele>191</ele>
        <time>2018-12-12T09:52:08Z</time>
      </trkpt>
      <trkpt lat="43.50913" lon="5.44325">
        <ele>190</ele>
        <time>2018-12-12T09:52:15Z</time>
      </trkpt>
      <trkpt lat="43.50905" lon="5.4432">
        <ele>192</ele>
        <time>2018-12-12T09:52:23Z</time>
      </trkpt>
      <trkpt lat="43.50899" lon="5.44314">
        <ele>190</ele>
        <time>2018-12-12T09:52:29Z</time>
      </trkpt>
      <trkpt lat="43.50893" lon="5.44308">
        <ele>192</ele>
        <time>2018-12-12T09:52:37Z</time>
      </trkpt>
      <trkpt lat="43.50886" lon="5.44303">
        <ele>190</ele>
        <time>2018-12-12T09:52:43Z</time>
      </trkpt>
      <trkpt lat="43.50881" lon="5.44295">
        <ele>190</ele>
        <time>2018-12-12T09:52:50Z</time>
      </trkpt>
      <trkpt lat="43.50876" lon="5.44287">
        <ele>191</ele>
        <time>2018-12-12T09:52:57Z</time>
      </trkpt>
      <trkpt lat="43.5087" lon="5.44278">
        <ele>191</ele>
        <time>2018-12-12T09:53:04Z</time>
      </trkpt>
      <trkpt lat="43.50865" lon="5.44274">
        <ele>191</ele>
        <time>2018-12-12T09:53:09Z</time>
      </trkpt>
      <trkpt lat="43.50858" lon="5.44269">
        <ele>191</ele>
        <time>2018-12-12T09:53:16Z</time>
      </trkpt>
      <trkpt lat="43.5085" lon="5.44264">
        <ele>193</ele>
        <time>2018-12-12T09:53:26Z</time>
      </trkpt>
      <trkpt lat="43.50843" lon="5.44262">
        <ele>193</ele>
        <time>2018-12-12T09:53:33Z</time>
      </trkpt>
      <trkpt lat="43.50835" lon="5.4426">
        <ele>192</ele>
        <time>2018-12-12T09:53:42Z</time>
      </trkpt>
      <trkpt lat="43.50826" lon="5.44261">
        <ele>192</ele>
        <time>2018-12-12T09:53:49Z</time>
      </trkpt>
      <trkpt lat="43.50818" lon="5.44263">
        <ele>192</ele>
        <time>2018-12-12T09:53:58Z</time>
      </trkpt>
      <trkpt lat="43.5081" lon="5.44265">
        <ele>194</ele>
        <time>2018-12-12T09:54:07Z</time>
      </trkpt>
      <trkpt lat="43.50802" lon="5.44269">
        <ele>194</ele>
        <time>2018-12-12T09:54:17Z</time>
      </trkpt>
      <trkpt lat="43.50794" lon="5.44271">
        <ele>195</ele>
        <time>2018-12-12T09:54:24Z</time>
      </trkpt>
      <trkpt lat="43.50786" lon="5.44273">
        <ele>198</ele>
        <time>2018-12-12T09:54:32Z</time>
      </trkpt>
      <trkpt lat="43.50777" lon="5.44276">
        <ele>198</ele>
        <time>2018-12-12T09:54:39Z</time>
      </trkpt>
      <trkpt lat="43.50769" lon="5.44277">
        <ele>197</ele>
        <time>2018-12-12T09:54:47Z</time>
      </trkpt>
      <trkpt lat="43.50761" lon="5.4428">
        <ele>196</ele>
        <time>2018-12-12T09:54:53Z</time>
      </trkpt>
      <trkpt lat="43.50753" lon="5.44283">
        <ele>196</ele>
        <time>2018-12-12T09:55:00Z</time>
      </trkpt>
      <trkpt lat="43.50746" lon="5.44286">
        <ele>196</ele>
        <time>2018-12-12T09:55:07Z</time>
      </trkpt>
      <trkpt lat="43.50738" lon="5.4429">
        <ele>198</ele>
        <time>2018-12-12T09:55:14Z</time>
      </trkpt>
      <trkpt lat="43.50731" lon="5.44298">
        <ele>197</ele>
        <time>2018-12-12T09:55:24Z</time>
      </trkpt>
      <trkpt lat="43.50726" lon="5.44305">
        <ele>198</ele>
        <time>2018-12-12T09:55:32Z</time>
      </trkpt>
      <trkpt lat="43.5072" lon="5.44314">
        <ele>200</ele>
        <time>2018-12-12T09:55:43Z</time>
      </trkpt>
      <trkpt lat="43.50713" lon="5.44321">
        <ele>198</ele>
        <time>2018-12-12T09:55:52Z</time>
      </trkpt>
      <trkpt lat="43.50707" lon="5.44328">
        <ele>198</ele>
        <time>2018-12-12T09:55:58Z</time>
      </trkpt>
      <trkpt lat="43.507" lon="5.44335">
        <ele>198</ele>
        <time>2018-12-12T09:56:05Z</time>
      </trkpt>
      <trkpt lat="43.50694" lon="5.44343">
        <ele>198</ele>
        <time>2018-12-12T09:56:12Z</time>
      </trkpt>
      <trkpt lat="43.50688" lon="5.44348">
        <ele>198</ele>
        <time>2018-12-12T09:56:18Z</time>
      </trkpt>
      <trkpt lat="43.5068" lon="5.44354">
        <ele>199</ele>
        <time>2018-12-12T09:56:26Z</time>
      </trkpt>
      <trkpt lat="43.50672" lon="5.44359">
        <ele>200</ele>
        <time>2018-12-12T09:56:33Z</time>
      </trkpt>
      <trkpt lat="43.50666" lon="5.44363">
        <ele>201</ele>
        <time>2018-12-12T09:56:40Z</time>
      </trkpt>
      <trkpt lat="43.50659" lon="5.44368">
        <ele>202</ele>
        <time>2018-12-12T09:56:49Z</time>
      </trkpt>
      <trkpt lat="43.50651" lon="5.44374">
        <ele>201</ele>
        <time>2018-12-12T09:56:56Z</time>
      </trkpt>
      <trkpt lat="43.50645" lon="5.44378">
        <ele>200</ele>
        <time>2018-12-12T09:57:04Z</time>
      </trkpt>
      <trkpt lat="43.50636" lon="5.44382">
        <ele>201</ele>
        <time>2018-12-12T09:57:12Z</time>
      </trkpt>
      <trkpt lat="43.50629" lon="5.44385">
        <ele>202</ele>
        <time>2018-12-12T09:57:20Z</time>
      </trkpt>
      <trkpt lat="43.50621" lon="5.44391">
        <ele>202</ele>
        <time>2018-12-12T09:57:28Z</time>
      </trkpt>
      <trkpt lat="43.50615" lon="5.44397">
        <ele>203</ele>
        <time>2018-12-12T09:57:35Z</time>
      </trkpt>
      <trkpt lat="43.50609" lon="5.44403">
        <ele>203</ele>
        <time>2018-12-12T09:57:42Z</time>
      </trkpt>
      <trkpt lat="43.50603" lon="5.4441">
        <ele>205</ele>
        <time>2018-12-12T09:57:49Z</time>
      </trkpt>
      <trkpt lat="43.50596" lon="5.44415">
        <ele>204</ele>
        <time>2018-12-12T09:57:56Z</time>
      </trkpt>
      <trkpt lat="43.50589" lon="5.44418">
        <ele>204</ele>
        <time>2018-12-12T09:58:01Z</time>
      </trkpt>
      <trkpt lat="43.50581" lon="5.44423">
        <ele>203</ele>
        <time>2018-12-12T09:58:08Z</time>
      </trkpt>
      <trkpt lat="43.50574" lon="5.44427">
        <ele>203</ele>
        <time>2018-12-12T09:58:15Z</time>
      </trkpt>
      <trkpt lat="43.50567" lon="5.44432">
        <ele>203</ele>
        <time>2018-12-12T09:58:24Z</time>
      </trkpt>
      <trkpt lat="43.50559" lon="5.44437">
        <ele>203</ele>
        <time>2018-12-12T09:58:32Z</time>
      </trkpt>
      <trkpt lat="43.50551" lon="5.44443">
        <ele>204</ele>
        <time>2018-12-12T09:58:41Z</time>
      </trkpt>
      <trkpt lat="43.50545" lon="5.44451">
        <ele>207</ele>
        <time>2018-12-12T09:58:54Z</time>
      </trkpt>
      <trkpt lat="43.50537" lon="5.44455">
        <ele>211</ele>
        <time>2018-12-12T09:59:02Z</time>
      </trkpt>
      <trkpt lat="43.5053" lon="5.44456">
        <ele>210</ele>
        <time>2018-12-12T09:59:09Z</time>
      </trkpt>
      <trkpt lat="43.50522" lon="5.44458">
        <ele>210</ele>
        <time>2018-12-12T09:59:15Z</time>
      </trkpt>
      <trkpt lat="43.50516" lon="5.44462">
        <ele>211</ele>
        <time>2018-12-12T09:59:22Z</time>
      </trkpt>
      <trkpt lat="43.50508" lon="5.44465">
        <ele>208</ele>
        <time>2018-12-12T09:59:28Z</time>
      </trkpt>
      <trkpt lat="43.50501" lon="5.44469">
        <ele>208</ele>
        <time>2018-12-12T09:59:33Z</time>
      </trkpt>
      <trkpt lat="43.50493" lon="5.44475">
        <ele>207</ele>
        <time>2018-12-12T09:59:39Z</time>
      </trkpt>
      <trkpt lat="43.50487" lon="5.44482">
        <ele>208</ele>
        <time>2018-12-12T09:59:49Z</time>
      </trkpt>
      <trkpt lat="43.50479" lon="5.44488">
        <ele>208</ele>
        <time>2018-12-12T09:59:57Z</time>
      </trkpt>
      <trkpt lat="43.50473" lon="5.44493">
        <ele>208</ele>
        <time>2018-12-12T10:00:03Z</time>
      </trkpt>
      <trkpt lat="43.50467" lon="5.44499">
        <ele>208</ele>
        <time>2018-12-12T10:00:10Z</time>
      </trkpt>
      <trkpt lat="43.50461" lon="5.44508">
        <ele>209</ele>
        <time>2018-12-12T10:00:17Z</time>
      </trkpt>
      <trkpt lat="43.50455" lon="5.44517">
        <ele>210</ele>
        <time>2018-12-12T10:00:26Z</time>
      </trkpt>
      <trkpt lat="43.50448" lon="5.44522">
        <ele>208</ele>
        <time>2018-12-12T10:00:34Z</time>
      </trkpt>
      <trkpt lat="43.5044" lon="5.44527">
        <ele>208</ele>
        <time>2018-12-12T10:00:42Z</time>
      </trkpt>
      <trkpt lat="43.50432" lon="5.44526">
        <ele>210</ele>
        <time>2018-12-12T10:00:50Z</time>
      </trkpt>
      <trkpt lat="43.50423" lon="5.44524">
        <ele>207</ele>
        <time>2018-12-12T10:01:15Z</time>
      </trkpt>
      <trkpt lat="43.50415" lon="5.4452">
        <ele>209</ele>
        <time>2018-12-12T10:03:58Z</time>
      </trkpt>
      <trkpt lat="43.50409" lon="5.44529">
        <ele>210</ele>
        <time>2018-12-12T10:05:13Z</time>
      </trkpt>
      <trkpt lat="43.50401" lon="5.44528">
        <ele>212</ele>
        <time>2018-12-12T10:06:46Z</time>
      </trkpt>
      <trkpt lat="43.50392" lon="5.44531">
        <ele>212</ele>
        <time>2018-12-12T10:06:57Z</time>
      </trkpt>
      <trkpt lat="43.50384" lon="5.44532">
        <ele>213</ele>
        <time>2018-12-12T10:07:07Z</time>
      </trkpt>
      <trkpt lat="43.50376" lon="5.44533">
        <ele>214</ele>
        <time>2018-12-12T10:07:14Z</time>
      </trkpt>
      <trkpt lat="43.50367" lon="5.44533">
        <ele>216</ele>
        <time>2018-12-12T10:07:21Z</time>
      </trkpt>
      <trkpt lat="43.5036" lon="5.44533">
        <ele>216</ele>
        <time>2018-12-12T10:07:27Z</time>
      </trkpt>
      <trkpt lat="43.50352" lon="5.44533">
        <ele>216</ele>
        <time>2018-12-12T10:07:32Z</time>
      </trkpt>
      <trkpt lat="43.50345" lon="5.44532">
        <ele>214</ele>
        <time>2018-12-12T10:07:37Z</time>
      </trkpt>
      <trkpt lat="43.50337" lon="5.44535">
        <ele>213</ele>
        <time>2018-12-12T10:07:43Z</time>
      </trkpt>
      <trkpt lat="43.50329" lon="5.4454">
        <ele>214</ele>
        <time>2018-12-12T10:07:49Z</time>
      </trkpt>
      <trkpt lat="43.5032" lon="5.4454">
        <ele>215</ele>
        <time>2018-12-12T10:07:57Z</time>
      </trkpt>
      <trkpt lat="43.50313" lon="5.44535">
        <ele>217</ele>
        <time>2018-12-12T10:08:02Z</time>
      </trkpt>
      <trkpt lat="43.50307" lon="5.44529">
        <ele>217</ele>
        <time>2018-12-12T10:08:07Z</time>
      </trkpt>
      <trkpt lat="43.50303" lon="5.44526">
        <ele>217</ele>
        <time>2018-12-12T10:08:10Z</time>
      </trkpt>
      <trkpt lat="43.50296" lon="5.44517">
        <ele>218</ele>
        <time>2018-12-12T10:08:15Z</time>
      </trkpt>
      <trkpt lat="43.5029" lon="5.4451">
        <ele>217</ele>
        <time>2018-12-12T10:08:20Z</time>
      </trkpt>
      <trkpt lat="43.50284" lon="5.44502">
        <ele>216</ele>
        <time>2018-12-12T10:08:26Z</time>
      </trkpt>
      <trkpt lat="43.5028" lon="5.44494">
        <ele>219</ele>
        <time>2018-12-12T10:08:33Z</time>
      </trkpt>
      <trkpt lat="43.50274" lon="5.44486">
        <ele>219</ele>
        <time>2018-12-12T10:08:39Z</time>
      </trkpt>
      <trkpt lat="43.50271" lon="5.44475">
        <ele>218</ele>
        <time>2018-12-12T10:08:47Z</time>
      </trkpt>
      <trkpt lat="43.50266" lon="5.44466">
        <ele>219</ele>
        <time>2018-12-12T10:08:54Z</time>
      </trkpt>
      <trkpt lat="43.5026" lon="5.44457">
        <ele>222</ele>
        <time>2018-12-12T10:09:02Z</time>
      </trkpt>
      <trkpt lat="43.50254" lon="5.44448">
        <ele>223</ele>
        <time>2018-12-12T10:09:10Z</time>
      </trkpt>
      <trkpt lat="43.50248" lon="5.4444">
        <ele>221</ele>
        <time>2018-12-12T10:09:18Z</time>
      </trkpt>
      <trkpt lat="43.50242" lon="5.44434">
        <ele>221</ele>
        <time>2018-12-12T10:09:24Z</time>
      </trkpt>
      <trkpt lat="43.50236" lon="5.44428">
        <ele>222</ele>
        <time>2018-12-12T10:09:30Z</time>
      </trkpt>
      <trkpt lat="43.5023" lon="5.44421">
        <ele>224</ele>
        <time>2018-12-12T10:09:39Z</time>
      </trkpt>
      <trkpt lat="43.50223" lon="5.44416">
        <ele>227</ele>
        <time>2018-12-12T10:09:48Z</time>
      </trkpt>
      <trkpt lat="43.50216" lon="5.44409">
        <ele>227</ele>
        <time>2018-12-12T10:09:56Z</time>
      </trkpt>
      <trkpt lat="43.50209" lon="5.44404">
        <ele>229</ele>
        <time>2018-12-12T10:10:04Z</time>
      </trkpt>
      <trkpt lat="43.50203" lon="5.44399">
        <ele>230</ele>
        <time>2018-12-12T10:10:12Z</time>
      </trkpt>
      <trkpt lat="43.50194" lon="5.44394">
        <ele>231</ele>
        <time>2018-12-12T10:10:21Z</time>
      </trkpt>
      <trkpt lat="43.50187" lon="5.44389">
        <ele>232</ele>
        <time>2018-12-12T10:10:28Z</time>
      </trkpt>
      <trkpt lat="43.50181" lon="5.44388">
        <ele>232</ele>
        <time>2018-12-12T10:10:32Z</time>
      </trkpt>
      <trkpt lat="43.50174" lon="5.44386">
        <ele>234</ele>
        <time>2018-12-12T10:10:38Z</time>
      </trkpt>
      <trkpt lat="43.50167" lon="5.44378">
        <ele>234</ele>
        <time>2018-12-12T10:10:48Z</time>
      </trkpt>
      <trkpt lat="43.50161" lon="5.44369">
        <ele>233</ele>
        <time>2018-12-12T10:11:00Z</time>
      </trkpt>
      <trkpt lat="43.50153" lon="5.44364">
        <ele>235</ele>
        <time>2018-12-12T10:11:07Z</time>
      </trkpt>
      <trkpt lat="43.50146" lon="5.44362">
        <ele>237</ele>
        <time>2018-12-12T10:11:15Z</time>
      </trkpt>
      <trkpt lat="43.50138" lon="5.44358">
        <ele>238</ele>
        <time>2018-12-12T10:11:24Z</time>
      </trkpt>
      <trkpt lat="43.5013" lon="5.44356">
        <ele>240</ele>
        <time>2018-12-12T10:11:32Z</time>
      </trkpt>
      <trkpt lat="43.50124" lon="5.44351">
        <ele>239</ele>
        <time>2018-12-12T10:11:42Z</time>
      </trkpt>
      <trkpt lat="43.50117" lon="5.44347">
        <ele>241</ele>
        <time>2018-12-12T10:11:50Z</time>
      </trkpt>
      <trkpt lat="43.50108" lon="5.44345">
        <ele>240</ele>
        <time>2018-12-12T10:11:57Z</time>
      </trkpt>
      <trkpt lat="43.501" lon="5.44342">
        <ele>242</ele>
        <time>2018-12-12T10:12:04Z</time>
      </trkpt>
      <trkpt lat="43.50092" lon="5.44337">
        <ele>241</ele>
        <time>2018-12-12T10:12:12Z</time>
      </trkpt>
      <trkpt lat="43.50086" lon="5.44334">
        <ele>242</ele>
        <time>2018-12-12T10:12:17Z</time>
      </trkpt>
      <trkpt lat="43.50079" lon="5.44331">
        <ele>240</ele>
        <time>2018-12-12T10:12:23Z</time>
      </trkpt>
      <trkpt lat="43.50071" lon="5.44327">
        <ele>241</ele>
        <time>2018-12-12T10:12:33Z</time>
      </trkpt>
      <trkpt lat="43.50065" lon="5.4432">
        <ele>242</ele>
        <time>2018-12-12T10:12:44Z</time>
      </trkpt>
      <trkpt lat="43.50056" lon="5.44317">
        <ele>242</ele>
        <time>2018-12-12T10:12:52Z</time>
      </trkpt>
      <trkpt lat="43.50048" lon="5.44316">
        <ele>242</ele>
        <time>2018-12-12T10:12:59Z</time>
      </trkpt>
      <trkpt lat="43.5004" lon="5.44313">
        <ele>245</ele>
        <time>2018-12-12T10:13:07Z</time>
      </trkpt>
      <trkpt lat="43.50032" lon="5.44311">
        <ele>246</ele>
        <time>2018-12-12T10:13:15Z</time>
      </trkpt>
      <trkpt lat="43.50024" lon="5.44309">
        <ele>247</ele>
        <time>2018-12-12T10:13:22Z</time>
      </trkpt>
      <trkpt lat="43.50015" lon="5.44308">
        <ele>250</ele>
        <time>2018-12-12T10:13:57Z</time>
      </trkpt>
      <trkpt lat="43.50009" lon="5.44315">
        <ele>247</ele>
        <time>2018-12-12T10:14:10Z</time>
      </trkpt>
      <trkpt lat="43.50001" lon="5.44316">
        <ele>248</ele>
        <time>2018-12-12T10:16:23Z</time>
      </trkpt>
      <trkpt lat="43.50002" lon="5.44327">
        <ele>247</ele>
        <time>2018-12-12T10:16:42Z</time>
      </trkpt>
      <trkpt lat="43.5001" lon="5.44332">
        <ele>248</ele>
        <time>2018-12-12T10:16:51Z</time>
      </trkpt>
      <trkpt lat="43.50016" lon="5.44338">
        <ele>249</ele>
        <time>2018-12-12T10:16:58Z</time>
      </trkpt>
      <trkpt lat="43.50023" lon="5.44344">
        <ele>250</ele>
        <time>2018-12-12T10:17:06Z</time>
      </trkpt>
      <trkpt lat="43.5003" lon="5.44351">
        <ele>250</ele>
        <time>2018-12-12T10:17:13Z</time>
      </trkpt>
      <trkpt lat="43.50035" lon="5.4436">
        <ele>250</ele>
        <time>2018-12-12T10:17:27Z</time>
      </trkpt>
      <trkpt lat="43.50038" lon="5.4437">
        <ele>250</ele>
        <time>2018-12-12T10:17:33Z</time>
      </trkpt>
      <trkpt lat="43.50041" lon="5.44381">
        <ele>250</ele>
        <time>2018-12-12T10:17:41Z</time>
      </trkpt>
      <trkpt lat="43.50043" lon="5.44392">
        <ele>252</ele>
        <time>2018-12-12T10:17:50Z</time>
      </trkpt>
      <trkpt lat="43.5005" lon="5.44399">
        <ele>252</ele>
        <time>2018-12-12T10:18:02Z</time>
      </trkpt>
      <trkpt lat="43.50055" lon="5.44407">
        <ele>252</ele>
        <time>2018-12-12T10:18:09Z</time>
      </trkpt>
      <trkpt lat="43.50059" lon="5.44417">
        <ele>252</ele>
        <time>2018-12-12T10:18:15Z</time>
      </trkpt>
      <trkpt lat="43.50061" lon="5.44427">
        <ele>253</ele>
        <time>2018-12-12T10:18:21Z</time>
      </trkpt>
      <trkpt lat="43.50063" lon="5.44439">
        <ele>255</ele>
        <time>2018-12-12T10:18:31Z</time>
      </trkpt>
      <trkpt lat="43.50062" lon="5.44449">
        <ele>257</ele>
        <time>2018-12-12T10:18:41Z</time>
      </trkpt>
      <trkpt lat="43.50061" lon="5.4446">
        <ele>255</ele>
        <time>2018-12-12T10:18:46Z</time>
      </trkpt>
      <trkpt lat="43.5006" lon="5.44472">
        <ele>253</ele>
        <time>2018-12-12T10:18:51Z</time>
      </trkpt>
      <trkpt lat="43.50061" lon="5.44483">
        <ele>251</ele>
        <time>2018-12-12T10:18:57Z</time>
      </trkpt>
      <trkpt lat="43.50056" lon="5.44492">
        <ele>250</ele>
        <time>2018-12-12T10:19:05Z</time>
      </trkpt>
      <trkpt lat="43.50049" lon="5.44498">
        <ele>251</ele>
        <time>2018-12-12T10:19:11Z</time>
      </trkpt>
      <trkpt lat="43.50043" lon="5.44504">
        <ele>251</ele>
        <time>2018-12-12T10:19:17Z</time>
      </trkpt>
      <trkpt lat="43.5004" lon="5.44512">
        <ele>250</ele>
        <time>2018-12-12T10:19:21Z</time>
      </trkpt>
      <trkpt lat="43.50036" lon="5.44521">
        <ele>250</ele>
        <time>2018-12-12T10:19:27Z</time>
      </trkpt>
      <trkpt lat="43.50029" lon="5.44526">
        <ele>249</ele>
        <time>2018-12-12T10:19:34Z</time>
      </trkpt>
      <trkpt lat="43.5002" lon="5.44531">
        <ele>250</ele>
        <time>2018-12-12T10:19:42Z</time>
      </trkpt>
      <trkpt lat="43.50014" lon="5.44537">
        <ele>252</ele>
        <time>2018-12-12T10:19:51Z</time>
      </trkpt>
      <trkpt lat="43.50007" lon="5.44543">
        <ele>252</ele>
        <time>2018-12-12T10:20:00Z</time>
      </trkpt>
      <trkpt lat="43.5" lon="5.44548">
        <ele>250</ele>
        <time>2018-12-12T10:20:07Z</time>
      </trkpt>
      <trkpt lat="43.49995" lon="5.44558">
        <ele>251</ele>
        <time>2018-12-12T10:20:18Z</time>
      </trkpt>
      <trkpt lat="43.49991" lon="5.44568">
        <ele>254</ele>
        <time>2018-12-12T10:20:32Z</time>
      </trkpt>
      <trkpt lat="43.49983" lon="5.44573">
        <ele>257</ele>
        <time>2018-12-12T10:20:42Z</time>
      </trkpt>
      <trkpt lat="43.49976" lon="5.4458">
        <ele>257</ele>
        <time>2018-12-12T10:20:49Z</time>
      </trkpt>
      <trkpt lat="43.4997" lon="5.44589">
        <ele>257</ele>
        <time>2018-12-12T10:20:57Z</time>
      </trkpt>
      <trkpt lat="43.49965" lon="5.44598">
        <ele>259</ele>
        <time>2018-12-12T10:21:07Z</time>
      </trkpt>
      <trkpt lat="43.49959" lon="5.44606">
        <ele>260</ele>
        <time>2018-12-12T10:21:15Z</time>
      </trkpt>
      <trkpt lat="43.49954" lon="5.44616">
        <ele>260</ele>
        <time>2018-12-12T10:21:23Z</time>
      </trkpt>
      <trkpt lat="43.4995" lon="5.44623">
        <ele>261</ele>
        <time>2018-12-12T10:21:31Z</time>
      </trkpt>
      <trkpt lat="43.49946" lon="5.44633">
        <ele>261</ele>
        <time>2018-12-12T10:21:38Z</time>
      </trkpt>
      <trkpt lat="43.49942" lon="5.44643">
        <ele>261</ele>
        <time>2018-12-12T10:21:48Z</time>
      </trkpt>
      <trkpt lat="43.49936" lon="5.44651">
        <ele>262</ele>
        <time>2018-12-12T10:21:57Z</time>
      </trkpt>
      <trkpt lat="43.49932" lon="5.4466">
        <ele>263</ele>
        <time>2018-12-12T10:22:08Z</time>
      </trkpt>
      <trkpt lat="43.49931" lon="5.44673">
        <ele>265</ele>
        <time>2018-12-12T10:22:19Z</time>
      </trkpt>
      <trkpt lat="43.49928" lon="5.44681">
        <ele>267</ele>
        <time>2018-12-12T10:22:30Z</time>
      </trkpt>
      <trkpt lat="43.49924" lon="5.4469">
        <ele>268</ele>
        <time>2018-12-12T10:22:39Z</time>
      </trkpt>
      <trkpt lat="43.49921" lon="5.44702">
        <ele>270</ele>
        <time>2018-12-12T10:22:49Z</time>
      </trkpt>
      <trkpt lat="43.49918" lon="5.44711">
        <ele>269</ele>
        <time>2018-12-12T10:22:56Z</time>
      </trkpt>
      <trkpt lat="43.49914" lon="5.4472">
        <ele>269</ele>
        <time>2018-12-12T10:23:05Z</time>
      </trkpt>
      <trkpt lat="43.49911" lon="5.44732">
        <ele>269</ele>
        <time>2018-12-12T10:23:15Z</time>
      </trkpt>
      <trkpt lat="43.49908" lon="5.44743">
        <ele>273</ele>
        <time>2018-12-12T10:23:27Z</time>
      </trkpt>
      <trkpt lat="43.49907" lon="5.44753">
        <ele>271</ele>
        <time>2018-12-12T10:23:35Z</time>
      </trkpt>
      <trkpt lat="43.49905" lon="5.44764">
        <ele>268</ele>
        <time>2018-12-12T10:23:42Z</time>
      </trkpt>
      <trkpt lat="43.499" lon="5.44774">
        <ele>268</ele>
        <time>2018-12-12T10:23:52Z</time>
      </trkpt>
      <trkpt lat="43.49895" lon="5.44781">
        <ele>267</ele>
        <time>2018-12-12T10:24:02Z</time>
      </trkpt>
      <trkpt lat="43.49889" lon="5.4479">
        <ele>271</ele>
        <time>2018-12-12T10:24:12Z</time>
      </trkpt>
      <trkpt lat="43.49884" lon="5.44799">
        <ele>273</ele>
        <time>2018-12-12T10:24:24Z</time>
      </trkpt>
      <trkpt lat="43.49879" lon="5.44807">
        <ele>276</ele>
        <time>2018-12-12T10:24:35Z</time>
      </trkpt>
      <trkpt lat="43.49873" lon="5.44815">
        <ele>279</ele>
        <time>2018-12-12T10:24:45Z</time>
      </trkpt>
      <trkpt lat="43.49865" lon="5.44821">
        <ele>281</ele>
        <time>2018-12-12T10:24:53Z</time>
      </trkpt>
      <trkpt lat="43.49858" lon="5.44825">
        <ele>283</ele>
        <time>2018-12-12T10:25:03Z</time>
      </trkpt>
      <trkpt lat="43.49852" lon="5.44834">
        <ele>283</ele>
        <time>2018-12-12T10:25:13Z</time>
      </trkpt>
      <trkpt lat="43.49847" lon="5.44842">
        <ele>283</ele>
        <time>2018-12-12T10:25:25Z</time>
      </trkpt>
      <trkpt lat="43.49841" lon="5.4485">
        <ele>283</ele>
        <time>2018-12-12T10:25:35Z</time>
      </trkpt>
      <trkpt lat="43.49836" lon="5.44856">
        <ele>283</ele>
        <time>2018-12-12T10:25:47Z</time>
      </trkpt>
      <trkpt lat="43.49833" lon="5.44867">
        <ele>281</ele>
        <time>2018-12-12T10:25:58Z</time>
      </trkpt>
      <trkpt lat="43.49829" lon="5.44877">
        <ele>281</ele>
        <time>2018-12-12T10:26:20Z</time>
      </trkpt>
      <trkpt lat="43.49824" lon="5.44888">
        <ele>283</ele>
        <time>2018-12-12T10:26:32Z</time>
      </trkpt>
      <trkpt lat="43.4982" lon="5.44897">
        <ele>284</ele>
        <time>2018-12-12T10:26:43Z</time>
      </trkpt>
      <trkpt lat="43.49813" lon="5.44903">
        <ele>287</ele>
        <time>2018-12-12T10:26:51Z</time>
      </trkpt>
      <trkpt lat="43.49806" lon="5.4491">
        <ele>286</ele>
        <time>2018-12-12T10:27:00Z</time>
      </trkpt>
      <trkpt lat="43.49799" lon="5.44915">
        <ele>286</ele>
        <time>2018-12-12T10:27:06Z</time>
      </trkpt>
      <trkpt lat="43.49791" lon="5.44916">
        <ele>289</ele>
        <time>2018-12-12T10:27:13Z</time>
      </trkpt>
      <trkpt lat="43.49783" lon="5.4492">
        <ele>289</ele>
        <time>2018-12-12T10:27:21Z</time>
      </trkpt>
      <trkpt lat="43.49774" lon="5.44922">
        <ele>289</ele>
        <time>2018-12-12T10:27:33Z</time>
      </trkpt>
      <trkpt lat="43.49767" lon="5.44927">
        <ele>288</ele>
        <time>2018-12-12T10:27:40Z</time>
      </trkpt>
      <trkpt lat="43.4976" lon="5.44934">
        <ele>291</ele>
        <time>2018-12-12T10:27:49Z</time>
      </trkpt>
      <trkpt lat="43.49754" lon="5.4494">
        <ele>293</ele>
        <time>2018-12-12T10:27:58Z</time>
      </trkpt>
      <trkpt lat="43.49748" lon="5.44947">
        <ele>294</ele>
        <time>2018-12-12T10:28:05Z</time>
      </trkpt>
      <trkpt lat="43.4974" lon="5.44952">
        <ele>294</ele>
        <time>2018-12-12T10:28:15Z</time>
      </trkpt>
      <trkpt lat="43.49732" lon="5.44957">
        <ele>295</ele>
        <time>2018-12-12T10:28:23Z</time>
      </trkpt>
      <trkpt lat="43.49726" lon="5.44964">
        <ele>295</ele>
        <time>2018-12-12T10:28:33Z</time>
      </trkpt>
      <trkpt lat="43.49719" lon="5.44969">
        <ele>297</ele>
        <time>2018-12-12T10:28:39Z</time>
      </trkpt>
      <trkpt lat="43.49712" lon="5.44976">
        <ele>296</ele>
        <time>2018-12-12T10:28:49Z</time>
      </trkpt>
      <trkpt lat="43.49706" lon="5.44985">
        <ele>297</ele>
        <time>2018-12-12T10:29:00Z</time>
      </trkpt>
      <trkpt lat="43.49699" lon="5.44988">
        <ele>297</ele>
        <time>2018-12-12T10:29:06Z</time>
      </trkpt>
      <trkpt lat="43.4969" lon="5.44992">
        <ele>300</ele>
        <time>2018-12-12T10:29:14Z</time>
      </trkpt>
      <trkpt lat="43.49684" lon="5.44999">
        <ele>301</ele>
        <time>2018-12-12T10:29:24Z</time>
      </trkpt>
      <trkpt lat="43.49677" lon="5.45006">
        <ele>301</ele>
        <time>2018-12-12T10:29:34Z</time>
      </trkpt>
      <trkpt lat="43.4967" lon="5.45009">
        <ele>302</ele>
        <time>2018-12-12T10:29:43Z</time>
      </trkpt>
      <trkpt lat="43.49662" lon="5.45013">
        <ele>302</ele>
        <time>2018-12-12T10:29:51Z</time>
      </trkpt>
      <trkpt lat="43.49654" lon="5.45016">
        <ele>304</ele>
        <time>2018-12-12T10:30:00Z</time>
      </trkpt>
      <trkpt lat="43.49647" lon="5.45018">
        <ele>303</ele>
        <time>2018-12-12T10:30:11Z</time>
      </trkpt>
      <trkpt lat="43.49638" lon="5.45022">
        <ele>303</ele>
        <time>2018-12-12T10:30:21Z</time>
      </trkpt>
      <trkpt lat="43.49631" lon="5.45028">
        <ele>304</ele>
        <time>2018-12-12T10:30:31Z</time>
      </trkpt>
      <trkpt lat="43.49623" lon="5.45031">
        <ele>306</ele>
        <time>2018-12-12T10:30:39Z</time>
      </trkpt>
      <trkpt lat="43.49615" lon="5.45035">
        <ele>307</ele>
        <time>2018-12-12T10:30:50Z</time>
      </trkpt>
      <trkpt lat="43.49607" lon="5.45039">
        <ele>308</ele>
        <time>2018-12-12T10:31:01Z</time>
      </trkpt>
      <trkpt lat="43.49598" lon="5.4504">
        <ele>309</ele>
        <time>2018-12-12T10:31:12Z</time>
      </trkpt>
      <trkpt lat="43.49591" lon="5.45042">
        <ele>307</ele>
        <time>2018-12-12T10:31:25Z</time>
      </trkpt>
      <trkpt lat="43.49583" lon="5.45045">
        <ele>307</ele>
        <time>2018-12-12T10:31:36Z</time>
      </trkpt>
      <trkpt lat="43.49574" lon="5.45045">
        <ele>311</ele>
        <time>2018-12-12T10:31:44Z</time>
      </trkpt>
      <trkpt lat="43.49566" lon="5.45047">
        <ele>310</ele>
        <time>2018-12-12T10:31:53Z</time>
      </trkpt>
      <trkpt lat="43.49558" lon="5.45049">
        <ele>313</ele>
        <time>2018-12-12T10:32:05Z</time>
      </trkpt>
      <trkpt lat="43.4955" lon="5.4505">
        <ele>314</ele>
        <time>2018-12-12T10:32:16Z</time>
      </trkpt>
      <trkpt lat="43.49541" lon="5.45048">
        <ele>314</ele>
        <time>2018-12-12T10:32:25Z</time>
      </trkpt>
      <trkpt lat="43.49533" lon="5.45047">
        <ele>315</ele>
        <time>2018-12-12T10:32:36Z</time>
      </trkpt>
      <trkpt lat="43.49525" lon="5.45045">
        <ele>316</ele>
        <time>2018-12-12T10:32:47Z</time>
      </trkpt>
      <trkpt lat="43.49517" lon="5.45045">
        <ele>315</ele>
        <time>2018-12-12T10:33:00Z</time>
      </trkpt>
      <trkpt lat="43.49508" lon="5.45047">
        <ele>316</ele>
        <time>2018-12-12T10:33:12Z</time>
      </trkpt>
      <trkpt lat="43.49501" lon="5.45049">
        <ele>317</ele>
        <time>2018-12-12T10:33:23Z</time>
      </trkpt>
      <trkpt lat="43.49492" lon="5.45052">
        <ele>320</ele>
        <time>2018-12-12T10:33:40Z</time>
      </trkpt>
      <trkpt lat="43.49485" lon="5.45051">
        <ele>320</ele>
        <time>2018-12-12T10:33:50Z</time>
      </trkpt>
      <trkpt lat="43.49476" lon="5.45054">
        <ele>321</ele>
        <time>2018-12-12T10:34:02Z</time>
      </trkpt>
      <trkpt lat="43.49469" lon="5.45053">
        <ele>322</ele>
        <time>2018-12-12T10:34:11Z</time>
      </trkpt>
      <trkpt lat="43.49461" lon="5.45055">
        <ele>322</ele>
        <time>2018-12-12T10:34:19Z</time>
      </trkpt>
      <trkpt lat="43.49453" lon="5.45056">
        <ele>322</ele>
        <time>2018-12-12T10:34:29Z</time>
      </trkpt>
      <trkpt lat="43.49444" lon="5.4506">
        <ele>323</ele>
        <time>2018-12-12T10:34:39Z</time>
      </trkpt>
      <trkpt lat="43.49437" lon="5.45063">
        <ele>321</ele>
        <time>2018-12-12T10:34:50Z</time>
      </trkpt>
      <trkpt lat="43.49428" lon="5.45062">
        <ele>324</ele>
        <time>2018-12-12T10:35:03Z</time>
      </trkpt>
      <trkpt lat="43.49419" lon="5.45061">
        <ele>326</ele>
        <time>2018-12-12T10:35:15Z</time>
      </trkpt>
      <trkpt lat="43.49411" lon="5.4506">
        <ele>327</ele>
        <time>2018-12-12T10:35:25Z</time>
      </trkpt>
      <trkpt lat="43.49403" lon="5.45058">
        <ele>328</ele>
        <time>2018-12-12T10:35:34Z</time>
      </trkpt>
      <trkpt lat="43.49394" lon="5.45059">
        <ele>328</ele>
        <time>2018-12-12T10:35:47Z</time>
      </trkpt>
      <trkpt lat="43.49386" lon="5.4506">
        <ele>331</ele>
        <time>2018-12-12T10:36:00Z</time>
      </trkpt>
      <trkpt lat="43.49378" lon="5.45063">
        <ele>335</ele>
        <time>2018-12-12T10:36:12Z</time>
      </trkpt>
      <trkpt lat="43.4937" lon="5.45065">
        <ele>336</ele>
        <time>2018-12-12T10:36:25Z</time>
      </trkpt>
      <trkpt lat="43.49361" lon="5.45066">
        <ele>337</ele>
        <time>2018-12-12T10:36:38Z</time>
      </trkpt>
      <trkpt lat="43.49354" lon="5.45071">
        <ele>338</ele>
        <time>2018-12-12T10:36:47Z</time>
      </trkpt>
      <trkpt lat="43.49346" lon="5.45076">
        <ele>337</ele>
        <time>2018-12-12T10:36:55Z</time>
      </trkpt>
      <trkpt lat="43.49339" lon="5.45082">
        <ele>338</ele>
        <time>2018-12-12T10:37:04Z</time>
      </trkpt>
      <trkpt lat="43.49332" lon="5.45087">
        <ele>337</ele>
        <time>2018-12-12T10:37:13Z</time>
      </trkpt>
      <trkpt lat="43.49325" lon="5.45092">
        <ele>339</ele>
        <time>2018-12-12T10:37:21Z</time>
      </trkpt>
      <trkpt lat="43.49318" lon="5.45099">
        <ele>339</ele>
        <time>2018-12-12T10:37:31Z</time>
      </trkpt>
      <trkpt lat="43.4931" lon="5.45105">
        <ele>341</ele>
        <time>2018-12-12T10:37:41Z</time>
      </trkpt>
      <trkpt lat="43.49303" lon="5.45109">
        <ele>342</ele>
        <time>2018-12-12T10:37:54Z</time>
      </trkpt>
      <trkpt lat="43.49296" lon="5.45115">
        <ele>343</ele>
        <time>2018-12-12T10:38:03Z</time>
      </trkpt>
      <trkpt lat="43.49288" lon="5.4512">
        <ele>343</ele>
        <time>2018-12-12T10:38:23Z</time>
      </trkpt>
      <trkpt lat="43.4928" lon="5.45122">
        <ele>342</ele>
        <time>2018-12-12T10:39:01Z</time>
      </trkpt>
      <trkpt lat="43.49272" lon="5.45125">
        <ele>343</ele>
        <time>2018-12-12T10:39:10Z</time>
      </trkpt>
      <trkpt lat="43.49264" lon="5.45129">
        <ele>344</ele>
        <time>2018-12-12T10:39:19Z</time>
      </trkpt>
      <trkpt lat="43.49256" lon="5.45134">
        <ele>344</ele>
        <time>2018-12-12T10:39:29Z</time>
      </trkpt>
      <trkpt lat="43.49248" lon="5.45141">
        <ele>343</ele>
        <time>2018-12-12T10:39:37Z</time>
      </trkpt>
      <trkpt lat="43.49241" lon="5.45144">
        <ele>343</ele>
        <time>2018-12-12T10:39:45Z</time>
      </trkpt>
      <trkpt lat="43.49233" lon="5.45146">
        <ele>340</ele>
        <time>2018-12-12T10:41:21Z</time>
      </trkpt>
      <trkpt lat="43.49226" lon="5.45148">
        <ele>343</ele>
        <time>2018-12-12T10:41:30Z</time>
      </trkpt>
      <trkpt lat="43.49218" lon="5.45152">
        <ele>343</ele>
        <time>2018-12-12T10:42:08Z</time>
      </trkpt>
      <trkpt lat="43.49211" lon="5.45157">
        <ele>345</ele>
        <time>2018-12-12T10:46:05Z</time>
      </trkpt>
      <trkpt lat="43.49203" lon="5.45159">
        <ele>345</ele>
        <time>2018-12-12T10:46:15Z</time>
      </trkpt>
      <trkpt lat="43.49195" lon="5.45162">
        <ele>344</ele>
        <time>2018-12-12T10:46:26Z</time>
      </trkpt>
      <trkpt lat="43.49187" lon="5.45168">
        <ele>344</ele>
        <time>2018-12-12T10:46:35Z</time>
      </trkpt>
      <trkpt lat="43.49179" lon="5.45172">
        <ele>344</ele>
        <time>2018-12-12T10:46:43Z</time>
      </trkpt>
      <trkpt lat="43.49173" lon="5.45177">
        <ele>345</ele>
        <time>2018-12-12T10:46:49Z</time>
      </trkpt>
      <trkpt lat="43.49166" lon="5.45181">
        <ele>345</ele>
        <time>2018-12-12T10:46:54Z</time>
      </trkpt>
      <trkpt lat="43.49159" lon="5.45187">
        <ele>345</ele>
        <time>2018-12-12T10:47:04Z</time>
      </trkpt>
      <trkpt lat="43.49151" lon="5.45193">
        <ele>346</ele>
        <time>2018-12-12T10:47:12Z</time>
      </trkpt>
      <trkpt lat="43.49143" lon="5.45198">
        <ele>348</ele>
        <time>2018-12-12T10:47:22Z</time>
      </trkpt>
      <trkpt lat="43.49137" lon="5.45203">
        <ele>348</ele>
        <time>2018-12-12T10:47:29Z</time>
      </trkpt>
      <trkpt lat="43.49129" lon="5.45209">
        <ele>348</ele>
        <time>2018-12-12T10:47:39Z</time>
      </trkpt>
      <trkpt lat="43.49121" lon="5.45212">
        <ele>347</ele>
        <time>2018-12-12T10:47:47Z</time>
      </trkpt>
      <trkpt lat="43.49113" lon="5.45216">
        <ele>347</ele>
        <time>2018-12-12T10:47:57Z</time>
      </trkpt>
      <trkpt lat="43.49106" lon="5.4522">
        <ele>347</ele>
        <time>2018-12-12T10:48:04Z</time>
      </trkpt>
      <trkpt lat="43.49098" lon="5.45225">
        <ele>346</ele>
        <time>2018-12-12T10:48:13Z</time>
      </trkpt>
      <trkpt lat="43.49091" lon="5.45231">
        <ele>347</ele>
        <time>2018-12-12T10:48:22Z</time>
      </trkpt>
      <trkpt lat="43.49085" lon="5.45239">
        <ele>347</ele>
        <time>2018-12-12T10:48:30Z</time>
      </trkpt>
      <trkpt lat="43.49077" lon="5.45245">
        <ele>348</ele>
        <time>2018-12-12T10:48:39Z</time>
      </trkpt>
      <trkpt lat="43.4907" lon="5.45251">
        <ele>348</ele>
        <time>2018-12-12T10:48:48Z</time>
      </trkpt>
      <trkpt lat="43.49066" lon="5.4526">
        <ele>347</ele>
        <time>2018-12-12T10:48:56Z</time>
      </trkpt>
      <trkpt lat="43.49062" lon="5.4527">
        <ele>347</ele>
        <time>2018-12-12T10:49:05Z</time>
      </trkpt>
      <trkpt lat="43.49054" lon="5.45273">
        <ele>346</ele>
        <time>2018-12-12T10:49:55Z</time>
      </trkpt>
      <trkpt lat="43.49047" lon="5.45275">
        <ele>347</ele>
        <time>2018-12-12T10:50:02Z</time>
      </trkpt>
      <trkpt lat="43.4904" lon="5.4528">
        <ele>348</ele>
        <time>2018-12-12T10:50:10Z</time>
      </trkpt>
      <trkpt lat="43.49034" lon="5.45288">
        <ele>349</ele>
        <time>2018-12-12T10:50:18Z</time>
      </trkpt>
      <trkpt lat="43.49027" lon="5.45295">
        <ele>349</ele>
        <time>2018-12-12T10:50:25Z</time>
      </trkpt>
      <trkpt lat="43.49022" lon="5.45303">
        <ele>348</ele>
        <time>2018-12-12T10:50:33Z</time>
      </trkpt>
      <trkpt lat="43.49015" lon="5.45308">
        <ele>349</ele>
        <time>2018-12-12T10:50:39Z</time>
      </trkpt>
      <trkpt lat="43.49009" lon="5.45315">
        <ele>347</ele>
        <time>2018-12-12T10:50:46Z</time>
      </trkpt>
      <trkpt lat="43.49002" lon="5.45321">
        <ele>348</ele>
        <time>2018-12-12T10:50:53Z</time>
      </trkpt>
      <trkpt lat="43.48996" lon="5.45328">
        <ele>349</ele>
        <time>2018-12-12T10:51:00Z</time>
      </trkpt>
      <trkpt lat="43.4899" lon="5.45334">
        <ele>350</ele>
        <time>2018-12-12T10:51:07Z</time>
      </trkpt>
      <trkpt lat="43.48984" lon="5.45342">
        <ele>350</ele>
        <time>2018-12-12T10:51:16Z</time>
      </trkpt>
      <trkpt lat="43.48978" lon="5.45349">
        <ele>349</ele>
        <time>2018-12-12T10:51:23Z</time>
      </trkpt>
      <trkpt lat="43.48973" lon="5.45356">
        <ele>348</ele>
        <time>2018-12-12T10:51:29Z</time>
      </trkpt>
      <trkpt lat="43.48967" lon="5.45364">
        <ele>349</ele>
        <time>2018-12-12T10:51:36Z</time>
      </trkpt>
      <trkpt lat="43.48961" lon="5.45372">
        <ele>349</ele>
        <time>2018-12-12T10:51:44Z</time>
      </trkpt>
      <trkpt lat="43.48956" lon="5.4538">
        <ele>350</ele>
        <time>2018-12-12T10:51:53Z</time>
      </trkpt>
      <trkpt lat="43.4895" lon="5.45388">
        <ele>350</ele>
        <time>2018-12-12T10:52:00Z</time>
      </trkpt>
      <trkpt lat="43.48943" lon="5.45396">
        <ele>351</ele>
        <time>2018-12-12T10:52:08Z</time>
      </trkpt>
      <trkpt lat="43.48939" lon="5.45403">
        <ele>351</ele>
        <time>2018-12-12T10:52:14Z</time>
      </trkpt>
      <trkpt lat="43.48932" lon="5.45411">
        <ele>351</ele>
        <time>2018-12-12T10:52:21Z</time>
      </trkpt>
      <trkpt lat="43.48926" lon="5.45418">
        <ele>351</ele>
        <time>2018-12-12T10:52:28Z</time>
      </trkpt>
      <trkpt lat="43.48919" lon="5.45424">
        <ele>351</ele>
        <time>2018-12-12T10:52:35Z</time>
      </trkpt>
      <trkpt lat="43.48914" lon="5.4543">
        <ele>352</ele>
        <time>2018-12-12T10:52:41Z</time>
      </trkpt>
      <trkpt lat="43.48907" lon="5.45437">
        <ele>353</ele>
        <time>2018-12-12T10:52:49Z</time>
      </trkpt>
      <trkpt lat="43.489" lon="5.45443">
        <ele>352</ele>
        <time>2018-12-12T10:52:55Z</time>
      </trkpt>
      <trkpt lat="43.48893" lon="5.45449">
        <ele>353</ele>
        <time>2018-12-12T10:53:02Z</time>
      </trkpt>
      <trkpt lat="43.48887" lon="5.45455">
        <ele>353</ele>
        <time>2018-12-12T10:53:08Z</time>
      </trkpt>
      <trkpt lat="43.48881" lon="5.45461">
        <ele>352</ele>
        <time>2018-12-12T10:53:15Z</time>
      </trkpt>
      <trkpt lat="43.48873" lon="5.45467">
        <ele>354</ele>
        <time>2018-12-12T10:53:23Z</time>
      </trkpt>
      <trkpt lat="43.48866" lon="5.45471">
        <ele>353</ele>
        <time>2018-12-12T10:53:29Z</time>
      </trkpt>
      <trkpt lat="43.48859" lon="5.45475">
        <ele>354</ele>
        <time>2018-12-12T10:53:36Z</time>
      </trkpt>
      <trkpt lat="43.48852" lon="5.45477">
        <ele>353</ele>
        <time>2018-12-12T10:53:42Z</time>
      </trkpt>
      <trkpt lat="43.48844" lon="5.45481">
        <ele>354</ele>
        <time>2018-12-12T10:53:50Z</time>
      </trkpt>
      <trkpt lat="43.48836" lon="5.45485">
        <ele>354</ele>
        <time>2018-12-12T10:53:58Z</time>
      </trkpt>
      <trkpt lat="43.48828" lon="5.45489">
        <ele>355</ele>
        <time>2018-12-12T10:54:06Z</time>
      </trkpt>
      <trkpt lat="43.4882" lon="5.45495">
        <ele>355</ele>
        <time>2018-12-12T10:54:13Z</time>
      </trkpt>
      <trkpt lat="43.48813" lon="5.45502">
        <ele>354</ele>
        <time>2018-12-12T10:54:21Z</time>
      </trkpt>
      <trkpt lat="43.48808" lon="5.45508">
        <ele>355</ele>
        <time>2018-12-12T10:54:27Z</time>
      </trkpt>
      <trkpt lat="43.48804" lon="5.45516">
        <ele>354</ele>
        <time>2018-12-12T10:54:33Z</time>
      </trkpt>
      <trkpt lat="43.48798" lon="5.45525">
        <ele>355</ele>
        <time>2018-12-12T10:54:41Z</time>
      </trkpt>
      <trkpt lat="43.48792" lon="5.45532">
        <ele>355</ele>
        <time>2018-12-12T10:54:47Z</time>
      </trkpt>
      <trkpt lat="43.48787" lon="5.45538">
        <ele>355</ele>
        <time>2018-12-12T10:54:53Z</time>
      </trkpt>
      <trkpt lat="43.48783" lon="5.45546">
        <ele>355</ele>
        <time>2018-12-12T10:54:59Z</time>
      </trkpt>
      <trkpt lat="43.48777" lon="5.45554">
        <ele>356</ele>
        <time>2018-12-12T10:55:07Z</time>
      </trkpt>
      <trkpt lat="43.48771" lon="5.4556">
        <ele>355</ele>
        <time>2018-12-12T10:55:14Z</time>
      </trkpt>
      <trkpt lat="43.48766" lon="5.45566">
        <ele>355</ele>
        <time>2018-12-12T10:55:20Z</time>
      </trkpt>
      <trkpt lat="43.48758" lon="5.45573">
        <ele>354</ele>
        <time>2018-12-12T10:55:27Z</time>
      </trkpt>
      <trkpt lat="43.48751" lon="5.4558">
        <ele>355</ele>
        <time>2018-12-12T10:55:35Z</time>
      </trkpt>
      <trkpt lat="43.48746" lon="5.45586">
        <ele>355</ele>
        <time>2018-12-12T10:55:43Z</time>
      </trkpt>
      <trkpt lat="43.48739" lon="5.45591">
        <ele>356</ele>
        <time>2018-12-12T10:55:50Z</time>
      </trkpt>
      <trkpt lat="43.48731" lon="5.45594">
        <ele>354</ele>
        <time>2018-12-12T10:55:58Z</time>
      </trkpt>
      <trkpt lat="43.48722" lon="5.45594">
        <ele>355</ele>
        <time>2018-12-12T10:56:07Z</time>
      </trkpt>
      <trkpt lat="43.48715" lon="5.45591">
        <ele>356</ele>
        <time>2018-12-12T10:56:14Z</time>
      </trkpt>
      <trkpt lat="43.48707" lon="5.45588">
        <ele>356</ele>
        <time>2018-12-12T10:56:22Z</time>
      </trkpt>
      <trkpt lat="43.487" lon="5.45584">
        <ele>355</ele>
        <time>2018-12-12T10:56:30Z</time>
      </trkpt>
      <trkpt lat="43.48695" lon="5.45576">
        <ele>356</ele>
        <time>2018-12-12T10:56:37Z</time>
      </trkpt>
      <trkpt lat="43.4869" lon="5.45568">
        <ele>356</ele>
        <time>2018-12-12T10:56:45Z</time>
      </trkpt>
      <trkpt lat="43.48685" lon="5.45558">
        <ele>356</ele>
        <time>2018-12-12T10:56:57Z</time>
      </trkpt>
      <trkpt lat="43.4868" lon="5.45549">
        <ele>356</ele>
        <time>2018-12-12T10:57:06Z</time>
      </trkpt>
      <trkpt lat="43.48676" lon="5.4554">
        <ele>356</ele>
        <time>2018-12-12T10:57:14Z</time>
      </trkpt>
      <trkpt lat="43.48669" lon="5.45532">
        <ele>356</ele>
        <time>2018-12-12T10:57:30Z</time>
      </trkpt>
      <trkpt lat="43.48667" lon="5.45521">
        <ele>354</ele>
        <time>2018-12-12T10:58:27Z</time>
      </trkpt>
      <trkpt lat="43.48666" lon="5.45509">
        <ele>355</ele>
        <time>2018-12-12T10:58:40Z</time>
      </trkpt>
      <trkpt lat="43.48668" lon="5.45497">
        <ele>354</ele>
        <time>2018-12-12T10:58:50Z</time>
      </trkpt>
      <trkpt lat="43.48671" lon="5.45486">
        <ele>353</ele>
        <time>2018-12-12T10:58:59Z</time>
      </trkpt>
      <trkpt lat="43.48673" lon="5.45475">
        <ele>352</ele>
        <time>2018-12-12T10:59:07Z</time>
      </trkpt>
      <trkpt lat="43.48674" lon="5.45466">
        <ele>352</ele>
        <time>2018-12-12T10:59:13Z</time>
      </trkpt>
      <trkpt lat="43.48675" lon="5.45456">
        <ele>350</ele>
        <time>2018-12-12T10:59:19Z</time>
      </trkpt>
      <trkpt lat="43.48675" lon="5.45446">
        <ele>350</ele>
        <time>2018-12-12T10:59:25Z</time>
      </trkpt>
      <trkpt lat="43.48676" lon="5.45434">
        <ele>351</ele>
        <time>2018-12-12T10:59:33Z</time>
      </trkpt>
      <trkpt lat="43.48677" lon="5.45422">
        <ele>351</ele>
        <time>2018-12-12T10:59:42Z</time>
      </trkpt>
      <trkpt lat="43.48678" lon="5.4541">
        <ele>350</ele>
        <time>2018-12-12T10:59:53Z</time>
      </trkpt>
      <trkpt lat="43.4868" lon="5.454">
        <ele>349</ele>
        <time>2018-12-12T11:00:03Z</time>
      </trkpt>
      <trkpt lat="43.48681" lon="5.45388">
        <ele>350</ele>
        <time>2018-12-12T11:00:11Z</time>
      </trkpt>
      <trkpt lat="43.48682" lon="5.45376">
        <ele>349</ele>
        <time>2018-12-12T11:00:18Z</time>
      </trkpt>
      <trkpt lat="43.48683" lon="5.45365">
        <ele>350</ele>
        <time>2018-12-12T11:00:26Z</time>
      </trkpt>
      <trkpt lat="43.48685" lon="5.45355">
        <ele>349</ele>
        <time>2018-12-12T11:00:33Z</time>
      </trkpt>
      <trkpt lat="43.48688" lon="5.45344">
        <ele>348</ele>
        <time>2018-12-12T11:00:40Z</time>
      </trkpt>
      <trkpt lat="43.4869" lon="5.45334">
        <ele>349</ele>
        <time>2018-12-12T11:00:46Z</time>
      </trkpt>
      <trkpt lat="43.48692" lon="5.45324">
        <ele>348</ele>
        <time>2018-12-12T11:00:53Z</time>
      </trkpt>
      <trkpt lat="43.48695" lon="5.45313">
        <ele>346</ele>
        <time>2018-12-12T11:01:01Z</time>
      </trkpt>
      <trkpt lat="43.48697" lon="5.45303">
        <ele>347</ele>
        <time>2018-12-12T11:01:07Z</time>
      </trkpt>
      <trkpt lat="43.48699" lon="5.45292">
        <ele>346</ele>
        <time>2018-12-12T11:01:15Z</time>
      </trkpt>
      <trkpt lat="43.48701" lon="5.45281">
        <ele>347</ele>
        <time>2018-12-12T11:01:22Z</time>
      </trkpt>
      <trkpt lat="43.48704" lon="5.4527">
        <ele>347</ele>
        <time>2018-12-12T11:01:31Z</time>
      </trkpt>
      <trkpt lat="43.48706" lon="5.4526">
        <ele>345</ele>
        <time>2018-12-12T11:01:39Z</time>
      </trkpt>
      <trkpt lat="43.48708" lon="5.45251">
        <ele>345</ele>
        <time>2018-12-12T11:01:46Z</time>
      </trkpt>
      <trkpt lat="43.48711" lon="5.4524">
        <ele>345</ele>
        <time>2018-12-12T11:01:55Z</time>
      </trkpt>
      <trkpt lat="43.48715" lon="5.4523">
        <ele>343</ele>
        <time>2018-12-12T11:02:05Z</time>
      </trkpt>
      <trkpt lat="43.48719" lon="5.45219">
        <ele>344</ele>
        <time>2018-12-12T11:02:13Z</time>
      </trkpt>
      <trkpt lat="43.48721" lon="5.4521">
        <ele>344</ele>
        <time>2018-12-12T11:02:21Z</time>
      </trkpt>
      <trkpt lat="43.48725" lon="5.452">
        <ele>343</ele>
        <time>2018-12-12T11:02:28Z</time>
      </trkpt>
      <trkpt lat="43.48729" lon="5.4519">
        <ele>341</ele>
        <time>2018-12-12T11:02:36Z</time>
      </trkpt>
      <trkpt lat="43.48733" lon="5.45181">
        <ele>340</ele>
        <time>2018-12-12T11:02:44Z</time>
      </trkpt>
      <trkpt lat="43.48738" lon="5.45174">
        <ele>339</ele>
        <time>2018-12-12T11:02:52Z</time>
      </trkpt>
      <trkpt lat="43.48742" lon="5.45166">
        <ele>340</ele>
        <time>2018-12-12T11:02:59Z</time>
      </trkpt>
      <trkpt lat="43.48746" lon="5.45158">
        <ele>340</ele>
        <time>2018-12-12T11:03:06Z</time>
      </trkpt>
      <trkpt lat="43.4875" lon="5.45149">
        <ele>339</ele>
        <time>2018-12-12T11:03:13Z</time>
      </trkpt>
      <trkpt lat="43.48754" lon="5.45139">
        <ele>339</ele>
        <time>2018-12-12T11:03:22Z</time>
      </trkpt>
      <trkpt lat="43.48759" lon="5.45129">
        <ele>337</ele>
        <time>2018-12-12T11:03:32Z</time>
      </trkpt>
      <trkpt lat="43.48764" lon="5.45121">
        <ele>337</ele>
        <time>2018-12-12T11:03:40Z</time>
      </trkpt>
      <trkpt lat="43.4877" lon="5.45112">
        <ele>336</ele>
        <time>2018-12-12T11:03:50Z</time>
      </trkpt>
      <trkpt lat="43.48776" lon="5.45103">
        <ele>334</ele>
        <time>2018-12-12T11:04:02Z</time>
      </trkpt>
      <trkpt lat="43.48782" lon="5.45096">
        <ele>333</ele>
        <time>2018-12-12T11:04:10Z</time>
      </trkpt>
      <trkpt lat="43.48788" lon="5.45089">
        <ele>333</ele>
        <time>2018-12-12T11:04:17Z</time>
      </trkpt>
      <trkpt lat="43.48793" lon="5.45081">
        <ele>333</ele>
        <time>2018-12-12T11:04:26Z</time>
      </trkpt>
      <trkpt lat="43.48798" lon="5.45071">
        <ele>332</ele>
        <time>2018-12-12T11:04:36Z</time>
      </trkpt>
      <trkpt lat="43.48802" lon="5.45062">
        <ele>330</ele>
        <time>2018-12-12T11:04:44Z</time>
      </trkpt>
      <trkpt lat="43.48807" lon="5.45052">
        <ele>328</ele>
        <time>2018-12-12T11:05:03Z</time>
      </trkpt>
      <trkpt lat="43.48799" lon="5.45046">
        <ele>329</ele>
        <time>2018-12-12T11:05:36Z</time>
      </trkpt>
      <trkpt lat="43.48791" lon="5.4505">
        <ele>330</ele>
        <time>2018-12-12T11:05:45Z</time>
      </trkpt>
      <trkpt lat="43.48783" lon="5.45053">
        <ele>329</ele>
        <time>2018-12-12T11:05:57Z</time>
      </trkpt>
      <trkpt lat="43.48775" lon="5.45054">
        <ele>329</ele>
        <time>2018-12-12T11:06:05Z</time>
      </trkpt>
      <trkpt lat="43.48766" lon="5.45054">
        <ele>328</ele>
        <time>2018-12-12T11:06:13Z</time>
      </trkpt>
      <trkpt lat="43.48758" lon="5.45055">
        <ele>328</ele>
        <time>2018-12-12T11:06:23Z</time>
      </trkpt>
      <trkpt lat="43.48749" lon="5.45056">
        <ele>326</ele>
        <time>2018-12-12T11:07:11Z</time>
      </trkpt>
      <trkpt lat="43.4874" lon="5.45052">
        <ele>324</ele>
        <time>2018-12-12T11:07:46Z</time>
      </trkpt>
      <trkpt lat="43.48737" lon="5.45041">
        <ele>321</ele>
        <time>2018-12-12T11:08:06Z</time>
      </trkpt>
      <trkpt lat="43.48738" lon="5.45029">
        <ele>319</ele>
        <time>2018-12-12T11:08:16Z</time>
      </trkpt>
      <trkpt lat="43.4874" lon="5.45019">
        <ele>318</ele>
        <time>2018-12-12T11:08:29Z</time>
      </trkpt>
      <trkpt lat="43.48743" lon="5.45007">
        <ele>316</ele>
        <time>2018-12-12T11:08:44Z</time>
      </trkpt>
      <trkpt lat="43.48748" lon="5.44997">
        <ele>314</ele>
        <time>2018-12-12T11:09:24Z</time>
      </trkpt>
      <trkpt lat="43.48752" lon="5.44986">
        <ele>314</ele>
        <time>2018-12-12T11:09:36Z</time>
      </trkpt>
      <trkpt lat="43.48756" lon="5.44976">
        <ele>313</ele>
        <time>2018-12-12T11:09:46Z</time>
      </trkpt>
      <trkpt lat="43.48759" lon="5.44964">
        <ele>310</ele>
        <time>2018-12-12T11:10:05Z</time>
      </trkpt>
      <trkpt lat="43.48757" lon="5.44953">
        <ele>308</ele>
        <time>2018-12-12T11:10:21Z</time>
      </trkpt>
      <trkpt lat="43.48764" lon="5.44946">
        <ele>306</ele>
        <time>2018-12-12T11:11:16Z</time>
      </trkpt>
      <trkpt lat="43.48766" lon="5.44934">
        <ele>306</ele>
        <time>2018-12-12T11:11:30Z</time>
      </trkpt>
      <trkpt lat="43.48766" lon="5.44922">
        <ele>307</ele>
        <time>2018-12-12T11:11:43Z</time>
      </trkpt>
      <trkpt lat="43.48769" lon="5.4491">
        <ele>306</ele>
        <time>2018-12-12T11:11:52Z</time>
      </trkpt>
      <trkpt lat="43.48774" lon="5.44902">
        <ele>305</ele>
        <time>2018-12-12T11:12:02Z</time>
      </trkpt>
      <trkpt lat="43.48773" lon="5.4489">
        <ele>306</ele>
        <time>2018-12-12T11:12:21Z</time>
      </trkpt>
      <trkpt lat="43.48771" lon="5.4488">
        <ele>306</ele>
        <time>2018-12-12T11:12:31Z</time>
      </trkpt>
      <trkpt lat="43.48768" lon="5.44868">
        <ele>306</ele>
        <time>2018-12-12T11:12:42Z</time>
      </trkpt>
      <trkpt lat="43.48769" lon="5.44856">
        <ele>305</ele>
        <time>2018-12-12T11:13:17Z</time>
      </trkpt>
      <trkpt lat="43.48761" lon="5.44852">
        <ele>307</ele>
        <time>2018-12-12T11:13:28Z</time>
      </trkpt>
      <trkpt lat="43.48754" lon="5.44848">
        <ele>307</ele>
        <time>2018-12-12T11:13:39Z</time>
      </trkpt>
      <trkpt lat="43.48746" lon="5.44847">
        <ele>307</ele>
        <time>2018-12-12T11:13:51Z</time>
      </trkpt>
      <trkpt lat="43.48738" lon="5.44843">
        <ele>306</ele>
        <time>2018-12-12T11:14:02Z</time>
      </trkpt>
      <trkpt lat="43.4873" lon="5.44841">
        <ele>306</ele>
        <time>2018-12-12T11:14:15Z</time>
      </trkpt>
      <trkpt lat="43.48722" lon="5.44837">
        <ele>308</ele>
        <time>2018-12-12T11:14:26Z</time>
      </trkpt>
      <trkpt lat="43.48716" lon="5.4483">
        <ele>309</ele>
        <time>2018-12-12T11:14:34Z</time>
      </trkpt>
      <trkpt lat="43.48709" lon="5.44823">
        <ele>307</ele>
        <time>2018-12-12T11:14:45Z</time>
      </trkpt>
      <trkpt lat="43.48702" lon="5.44816">
        <ele>311</ele>
        <time>2018-12-12T11:15:03Z</time>
      </trkpt>
      <trkpt lat="43.48695" lon="5.44813">
        <ele>312</ele>
        <time>2018-12-12T11:15:11Z</time>
      </trkpt>
      <trkpt lat="43.48686" lon="5.44809">
        <ele>314</ele>
        <time>2018-12-12T11:15:21Z</time>
      </trkpt>
      <trkpt lat="43.48679" lon="5.44803">
        <ele>315</ele>
        <time>2018-12-12T11:15:33Z</time>
      </trkpt>
      <trkpt lat="43.48672" lon="5.44797">
        <ele>317</ele>
        <time>2018-12-12T11:15:44Z</time>
      </trkpt>
      <trkpt lat="43.48666" lon="5.4479">
        <ele>319</ele>
        <time>2018-12-12T11:15:53Z</time>
      </trkpt>
      <trkpt lat="43.48659" lon="5.44783">
        <ele>321</ele>
        <time>2018-12-12T11:16:04Z</time>
      </trkpt>
      <trkpt lat="43.48654" lon="5.44774">
        <ele>320</ele>
        <time>2018-12-12T11:16:19Z</time>
      </trkpt>
      <trkpt lat="43.48646" lon="5.4477">
        <ele>323</ele>
        <time>2018-12-12T11:16:31Z</time>
      </trkpt>
      <trkpt lat="43.48639" lon="5.44766">
        <ele>323</ele>
        <time>2018-12-12T11:16:40Z</time>
      </trkpt>
      <trkpt lat="43.4863" lon="5.44764">
        <ele>323</ele>
        <time>2018-12-12T11:16:49Z</time>
      </trkpt>
      <trkpt lat="43.48623" lon="5.44763">
        <ele>323</ele>
        <time>2018-12-12T11:16:58Z</time>
      </trkpt>
      <trkpt lat="43.48615" lon="5.44762">
        <ele>324</ele>
        <time>2018-12-12T11:17:09Z</time>
      </trkpt>
      <trkpt lat="43.48607" lon="5.44763">
        <ele>325</ele>
        <time>2018-12-12T11:17:20Z</time>
      </trkpt>
      <trkpt lat="43.48599" lon="5.44768">
        <ele>324</ele>
        <time>2018-12-12T11:17:34Z</time>
      </trkpt>
      <trkpt lat="43.48591" lon="5.44773">
        <ele>326</ele>
        <time>2018-12-12T11:17:48Z</time>
      </trkpt>
      <trkpt lat="43.48584" lon="5.44777">
        <ele>326</ele>
        <time>2018-12-12T11:17:58Z</time>
      </trkpt>
      <trkpt lat="43.48576" lon="5.44779">
        <ele>326</ele>
        <time>2018-12-12T11:18:08Z</time>
      </trkpt>
      <trkpt lat="43.48567" lon="5.44783">
        <ele>327</ele>
        <time>2018-12-12T11:18:17Z</time>
      </trkpt>
      <trkpt lat="43.48559" lon="5.44781">
        <ele>327</ele>
        <time>2018-12-12T11:18:35Z</time>
      </trkpt>
      <trkpt lat="43.48553" lon="5.44773">
        <ele>329</ele>
        <time>2018-12-12T11:18:44Z</time>
      </trkpt>
      <trkpt lat="43.48551" lon="5.44763">
        <ele>329</ele>
        <time>2018-12-12T11:18:51Z</time>
      </trkpt>
      <trkpt lat="43.4855" lon="5.44753">
        <ele>331</ele>
        <time>2018-12-12T11:19:05Z</time>
      </trkpt>
      <trkpt lat="43.48544" lon="5.44745">
        <ele>332</ele>
        <time>2018-12-12T11:19:19Z</time>
      </trkpt>
      <trkpt lat="43.48536" lon="5.44739">
        <ele>332</ele>
        <time>2018-12-12T11:19:35Z</time>
      </trkpt>
      <trkpt lat="43.48528" lon="5.44735">
        <ele>333</ele>
        <time>2018-12-12T11:19:46Z</time>
      </trkpt>
      <trkpt lat="43.4852" lon="5.44729">
        <ele>336</ele>
        <time>2018-12-12T11:20:00Z</time>
      </trkpt>
      <trkpt lat="43.48513" lon="5.44721">
        <ele>336</ele>
        <time>2018-12-12T11:20:12Z</time>
      </trkpt>
      <trkpt lat="43.4851" lon="5.4471">
        <ele>337</ele>
        <time>2018-12-12T11:20:21Z</time>
      </trkpt>
      <trkpt lat="43.48505" lon="5.44701">
        <ele>339</ele>
        <time>2018-12-12T11:20:33Z</time>
      </trkpt>
      <trkpt lat="43.48498" lon="5.44692">
        <ele>340</ele>
        <time>2018-12-12T11:20:44Z</time>
      </trkpt>
      <trkpt lat="43.48491" lon="5.44686">
        <ele>340</ele>
        <time>2018-12-12T11:20:54Z</time>
      </trkpt>
      <trkpt lat="43.48483" lon="5.44681">
        <ele>342</ele>
        <time>2018-12-12T11:21:07Z</time>
      </trkpt>
      <trkpt lat="43.48476" lon="5.44679">
        <ele>343</ele>
        <time>2018-12-12T11:21:17Z</time>
      </trkpt>
      <trkpt lat="43.48469" lon="5.44674">
        <ele>343</ele>
        <time>2018-12-12T11:21:29Z</time>
      </trkpt>
      <trkpt lat="43.48462" lon="5.44667">
        <ele>343</ele>
        <time>2018-12-12T11:21:40Z</time>
      </trkpt>
      <trkpt lat="43.48455" lon="5.44662">
        <ele>343</ele>
        <time>2018-12-12T11:21:50Z</time>
      </trkpt>
      <trkpt lat="43.48448" lon="5.44656">
        <ele>344</ele>
        <time>2018-12-12T11:22:03Z</time>
      </trkpt>
      <trkpt lat="43.4844" lon="5.44659">
        <ele>346</ele>
        <time>2018-12-12T11:22:15Z</time>
      </trkpt>
      <trkpt lat="43.48432" lon="5.44659">
        <ele>348</ele>
        <time>2018-12-12T11:22:25Z</time>
      </trkpt>
      <trkpt lat="43.48424" lon="5.44659">
        <ele>349</ele>
        <time>2018-12-12T11:22:35Z</time>
      </trkpt>
      <trkpt lat="43.48415" lon="5.44658">
        <ele>349</ele>
        <time>2018-12-12T11:22:46Z</time>
      </trkpt>
      <trkpt lat="43.48407" lon="5.44659">
        <ele>348</ele>
        <time>2018-12-12T11:22:57Z</time>
      </trkpt>
      <trkpt lat="43.48399" lon="5.44663">
        <ele>345</ele>
        <time>2018-12-12T11:23:09Z</time>
      </trkpt>
      <trkpt lat="43.48393" lon="5.44672">
        <ele>346</ele>
        <time>2018-12-12T11:23:26Z</time>
      </trkpt>
      <trkpt lat="43.4839" lon="5.44684">
        <ele>344</ele>
        <time>2018-12-12T11:23:36Z</time>
      </trkpt>
      <trkpt lat="43.48384" lon="5.44692">
        <ele>345</ele>
        <time>2018-12-12T11:23:46Z</time>
      </trkpt>
      <trkpt lat="43.48378" lon="5.44698">
        <ele>343</ele>
        <time>2018-12-12T11:23:55Z</time>
      </trkpt>
      <trkpt lat="43.4837" lon="5.44703">
        <ele>346</ele>
        <time>2018-12-12T11:24:04Z</time>
      </trkpt>
      <trkpt lat="43.48364" lon="5.44709">
        <ele>348</ele>
        <time>2018-12-12T11:24:13Z</time>
      </trkpt>
      <trkpt lat="43.48358" lon="5.44718">
        <ele>348</ele>
        <time>2018-12-12T11:24:23Z</time>
      </trkpt>
      <trkpt lat="43.48355" lon="5.44728">
        <ele>351</ele>
        <time>2018-12-12T11:24:38Z</time>
      </trkpt>
      <trkpt lat="43.48348" lon="5.44733">
        <ele>352</ele>
        <time>2018-12-12T11:24:46Z</time>
      </trkpt>
      <trkpt lat="43.48342" lon="5.44741">
        <ele>353</ele>
        <time>2018-12-12T11:25:00Z</time>
      </trkpt>
      <trkpt lat="43.48337" lon="5.4475">
        <ele>353</ele>
        <time>2018-12-12T11:25:11Z</time>
      </trkpt>
      <trkpt lat="43.48332" lon="5.44758">
        <ele>356</ele>
        <time>2018-12-12T11:25:26Z</time>
      </trkpt>
      <trkpt lat="43.48325" lon="5.44765">
        <ele>355</ele>
        <time>2018-12-12T11:27:03Z</time>
      </trkpt>
      <trkpt lat="43.48317" lon="5.44769">
        <ele>358</ele>
        <time>2018-12-12T11:28:02Z</time>
      </trkpt>
      <trkpt lat="43.48323" lon="5.44778">
        <ele>355</ele>
        <time>2018-12-12T12:27:26Z</time>
      </trkpt>
      <trkpt lat="43.48314" lon="5.44781">
        <ele>358</ele>
        <time>2018-12-12T12:28:05Z</time>
      </trkpt>
      <trkpt lat="43.48308" lon="5.44791">
        <ele>359</ele>
        <time>2018-12-12T12:28:16Z</time>
      </trkpt>
      <trkpt lat="43.48301" lon="5.44797">
        <ele>360</ele>
        <time>2018-12-12T12:28:24Z</time>
      </trkpt>
      <trkpt lat="43.48295" lon="5.44806">
        <ele>360</ele>
        <time>2018-12-12T12:28:32Z</time>
      </trkpt>
      <trkpt lat="43.48291" lon="5.44815">
        <ele>361</ele>
        <time>2018-12-12T12:28:39Z</time>
      </trkpt>
      <trkpt lat="43.48286" lon="5.44825">
        <ele>363</ele>
        <time>2018-12-12T12:28:46Z</time>
      </trkpt>
      <trkpt lat="43.48281" lon="5.44831">
        <ele>365</ele>
        <time>2018-12-12T12:28:52Z</time>
      </trkpt>
      <trkpt lat="43.48276" lon="5.44837">
        <ele>364</ele>
        <time>2018-12-12T12:28:57Z</time>
      </trkpt>
      <trkpt lat="43.48272" lon="5.44842">
        <ele>364</ele>
        <time>2018-12-12T12:29:01Z</time>
      </trkpt>
      <trkpt lat="43.48266" lon="5.44849">
        <ele>363</ele>
        <time>2018-12-12T12:29:06Z</time>
      </trkpt>
      <trkpt lat="43.4826" lon="5.44857">
        <ele>362</ele>
        <time>2018-12-12T12:29:13Z</time>
      </trkpt>
      <trkpt lat="43.48257" lon="5.44866">
        <ele>362</ele>
        <time>2018-12-12T12:29:19Z</time>
      </trkpt>
      <trkpt lat="43.48255" lon="5.44877">
        <ele>362</ele>
        <time>2018-12-12T12:29:26Z</time>
      </trkpt>
      <trkpt lat="43.48256" lon="5.44888">
        <ele>362</ele>
        <time>2018-12-12T12:29:33Z</time>
      </trkpt>
      <trkpt lat="43.48256" lon="5.44898">
        <ele>362</ele>
        <time>2018-12-12T12:29:39Z</time>
      </trkpt>
      <trkpt lat="43.48257" lon="5.4491">
        <ele>361</ele>
        <time>2018-12-12T12:29:46Z</time>
      </trkpt>
      <trkpt lat="43.48258" lon="5.44921">
        <ele>361</ele>
        <time>2018-12-12T12:29:53Z</time>
      </trkpt>
      <trkpt lat="43.48259" lon="5.44932">
        <ele>361</ele>
        <time>2018-12-12T12:29:59Z</time>
      </trkpt>
      <trkpt lat="43.4826" lon="5.44944">
        <ele>363</ele>
        <time>2018-12-12T12:30:05Z</time>
      </trkpt>
      <trkpt lat="43.48261" lon="5.44957">
        <ele>363</ele>
        <time>2018-12-12T12:30:11Z</time>
      </trkpt>
      <trkpt lat="43.48262" lon="5.44967">
        <ele>365</ele>
        <time>2018-12-12T12:30:17Z</time>
      </trkpt>
      <trkpt lat="43.48263" lon="5.4498">
        <ele>366</ele>
        <time>2018-12-12T12:30:24Z</time>
      </trkpt>
      <trkpt lat="43.48261" lon="5.4499">
        <ele>367</ele>
        <time>2018-12-12T12:30:30Z</time>
      </trkpt>
      <trkpt lat="43.48259" lon="5.45001">
        <ele>367</ele>
        <time>2018-12-12T12:30:36Z</time>
      </trkpt>
      <trkpt lat="43.48258" lon="5.45013">
        <ele>368</ele>
        <time>2018-12-12T12:30:42Z</time>
      </trkpt>
      <trkpt lat="43.48256" lon="5.45024">
        <ele>368</ele>
        <time>2018-12-12T12:30:48Z</time>
      </trkpt>
      <trkpt lat="43.48255" lon="5.45036">
        <ele>369</ele>
        <time>2018-12-12T12:30:55Z</time>
      </trkpt>
      <trkpt lat="43.48253" lon="5.45045">
        <ele>369</ele>
        <time>2018-12-12T12:31:00Z</time>
      </trkpt>
      <trkpt lat="43.48248" lon="5.45055">
        <ele>368</ele>
        <time>2018-12-12T12:31:06Z</time>
      </trkpt>
      <trkpt lat="43.48246" lon="5.45066">
        <ele>369</ele>
        <time>2018-12-12T12:31:12Z</time>
      </trkpt>
      <trkpt lat="43.48246" lon="5.45076">
        <ele>369</ele>
        <time>2018-12-12T12:31:19Z</time>
      </trkpt>
      <trkpt lat="43.48245" lon="5.45087">
        <ele>371</ele>
        <time>2018-12-12T12:31:25Z</time>
      </trkpt>
      <trkpt lat="43.48241" lon="5.45097">
        <ele>372</ele>
        <time>2018-12-12T12:31:32Z</time>
      </trkpt>
      <trkpt lat="43.48236" lon="5.45106">
        <ele>373</ele>
        <time>2018-12-12T12:31:38Z</time>
      </trkpt>
      <trkpt lat="43.48234" lon="5.45117">
        <ele>372</ele>
        <time>2018-12-12T12:31:43Z</time>
      </trkpt>
      <trkpt lat="43.48233" lon="5.45127">
        <ele>370</ele>
        <time>2018-12-12T12:31:48Z</time>
      </trkpt>
      <trkpt lat="43.48232" lon="5.45139">
        <ele>370</ele>
        <time>2018-12-12T12:31:55Z</time>
      </trkpt>
      <trkpt lat="43.48232" lon="5.4515">
        <ele>370</ele>
        <time>2018-12-12T12:32:02Z</time>
      </trkpt>
      <trkpt lat="43.4823" lon="5.45161">
        <ele>372</ele>
        <time>2018-12-12T12:32:10Z</time>
      </trkpt>
      <trkpt lat="43.48227" lon="5.45173">
        <ele>372</ele>
        <time>2018-12-12T12:32:17Z</time>
      </trkpt>
      <trkpt lat="43.48226" lon="5.45184">
        <ele>371</ele>
        <time>2018-12-12T12:32:26Z</time>
      </trkpt>
      <trkpt lat="43.48223" lon="5.45194">
        <ele>370</ele>
        <time>2018-12-12T12:32:32Z</time>
      </trkpt>
      <trkpt lat="43.48219" lon="5.45204">
        <ele>370</ele>
        <time>2018-12-12T12:32:40Z</time>
      </trkpt>
      <trkpt lat="43.48218" lon="5.45215">
        <ele>370</ele>
        <time>2018-12-12T12:32:45Z</time>
      </trkpt>
      <trkpt lat="43.48215" lon="5.45222">
        <ele>373</ele>
        <time>2018-12-12T12:32:51Z</time>
      </trkpt>
      <trkpt lat="43.48211" lon="5.45231">
        <ele>372</ele>
        <time>2018-12-12T12:32:56Z</time>
      </trkpt>
      <trkpt lat="43.48206" lon="5.4524">
        <ele>373</ele>
        <time>2018-12-12T12:33:02Z</time>
      </trkpt>
      <trkpt lat="43.48201" lon="5.45245">
        <ele>374</ele>
        <time>2018-12-12T12:33:06Z</time>
      </trkpt>
      <trkpt lat="43.48194" lon="5.45251">
        <ele>373</ele>
        <time>2018-12-12T12:33:12Z</time>
      </trkpt>
      <trkpt lat="43.48189" lon="5.45258">
        <ele>372</ele>
        <time>2018-12-12T12:33:19Z</time>
      </trkpt>
      <trkpt lat="43.48183" lon="5.45266">
        <ele>372</ele>
        <time>2018-12-12T12:33:26Z</time>
      </trkpt>
      <trkpt lat="43.48178" lon="5.45273">
        <ele>372</ele>
        <time>2018-12-12T12:33:32Z</time>
      </trkpt>
      <trkpt lat="43.48172" lon="5.45279">
        <ele>371</ele>
        <time>2018-12-12T12:33:38Z</time>
      </trkpt>
      <trkpt lat="43.48165" lon="5.45288">
        <ele>371</ele>
        <time>2018-12-12T12:33:45Z</time>
      </trkpt>
      <trkpt lat="43.48159" lon="5.45295">
        <ele>369</ele>
        <time>2018-12-12T12:33:51Z</time>
      </trkpt>
      <trkpt lat="43.48153" lon="5.45303">
        <ele>369</ele>
        <time>2018-12-12T12:34:01Z</time>
      </trkpt>
      <trkpt lat="43.48147" lon="5.45309">
        <ele>369</ele>
        <time>2018-12-12T12:34:08Z</time>
      </trkpt>
      <trkpt lat="43.48139" lon="5.45311">
        <ele>371</ele>
        <time>2018-12-12T12:34:17Z</time>
      </trkpt>
      <trkpt lat="43.48133" lon="5.45319">
        <ele>374</ele>
        <time>2018-12-12T12:34:38Z</time>
      </trkpt>
      <trkpt lat="43.48125" lon="5.4532">
        <ele>372</ele>
        <time>2018-12-12T12:34:57Z</time>
      </trkpt>
      <trkpt lat="43.48116" lon="5.45318">
        <ele>371</ele>
        <time>2018-12-12T12:35:06Z</time>
      </trkpt>
      <trkpt lat="43.4811" lon="5.45312">
        <ele>369</ele>
        <time>2018-12-12T12:35:14Z</time>
      </trkpt>
      <trkpt lat="43.48104" lon="5.45308">
        <ele>368</ele>
        <time>2018-12-12T12:35:20Z</time>
      </trkpt>
      <trkpt lat="43.48096" lon="5.45303">
        <ele>369</ele>
        <time>2018-12-12T12:35:27Z</time>
      </trkpt>
      <trkpt lat="43.48089" lon="5.45296">
        <ele>366</ele>
        <time>2018-12-12T12:35:37Z</time>
      </trkpt>
      <trkpt lat="43.4808" lon="5.45291">
        <ele>365</ele>
        <time>2018-12-12T12:35:45Z</time>
      </trkpt>
      <trkpt lat="43.48072" lon="5.45289">
        <ele>364</ele>
        <time>2018-12-12T12:35:54Z</time>
      </trkpt>
      <trkpt lat="43.48066" lon="5.45284">
        <ele>365</ele>
        <time>2018-12-12T12:36:00Z</time>
      </trkpt>
      <trkpt lat="43.48059" lon="5.45281">
        <ele>365</ele>
        <time>2018-12-12T12:36:06Z</time>
      </trkpt>
      <trkpt lat="43.48052" lon="5.4528">
        <ele>364</ele>
        <time>2018-12-12T12:36:13Z</time>
      </trkpt>
      <trkpt lat="43.48045" lon="5.45278">
        <ele>364</ele>
        <time>2018-12-12T12:36:20Z</time>
      </trkpt>
      <trkpt lat="43.48038" lon="5.45277">
        <ele>364</ele>
        <time>2018-12-12T12:36:26Z</time>
      </trkpt>
      <trkpt lat="43.48031" lon="5.45275">
        <ele>364</ele>
        <time>2018-12-12T12:36:33Z</time>
      </trkpt>
      <trkpt lat="43.48024" lon="5.4527">
        <ele>364</ele>
        <time>2018-12-12T12:36:41Z</time>
      </trkpt>
      <trkpt lat="43.48018" lon="5.45262">
        <ele>367</ele>
        <time>2018-12-12T12:36:51Z</time>
      </trkpt>
      <trkpt lat="43.48012" lon="5.45254">
        <ele>367</ele>
        <time>2018-12-12T12:37:00Z</time>
      </trkpt>
      <trkpt lat="43.48005" lon="5.45247">
        <ele>366</ele>
        <time>2018-12-12T12:37:09Z</time>
      </trkpt>
      <trkpt lat="43.47997" lon="5.45241">
        <ele>367</ele>
        <time>2018-12-12T12:37:16Z</time>
      </trkpt>
      <trkpt lat="43.4799" lon="5.45234">
        <ele>366</ele>
        <time>2018-12-12T12:37:24Z</time>
      </trkpt>
      <trkpt lat="43.47984" lon="5.45226">
        <ele>364</ele>
        <time>2018-12-12T12:37:33Z</time>
      </trkpt>
      <trkpt lat="43.47977" lon="5.45219">
        <ele>363</ele>
        <time>2018-12-12T12:37:42Z</time>
      </trkpt>
      <trkpt lat="43.47969" lon="5.45213">
        <ele>363</ele>
        <time>2018-12-12T12:37:50Z</time>
      </trkpt>
      <trkpt lat="43.47962" lon="5.45207">
        <ele>365</ele>
        <time>2018-12-12T12:37:59Z</time>
      </trkpt>
      <trkpt lat="43.47954" lon="5.45202">
        <ele>363</ele>
        <time>2018-12-12T12:38:07Z</time>
      </trkpt>
      <trkpt lat="43.47948" lon="5.45196">
        <ele>364</ele>
        <time>2018-12-12T12:38:13Z</time>
      </trkpt>
      <trkpt lat="43.47942" lon="5.4519">
        <ele>364</ele>
        <time>2018-12-12T12:38:21Z</time>
      </trkpt>
      <trkpt lat="43.47935" lon="5.45182">
        <ele>367</ele>
        <time>2018-12-12T12:38:29Z</time>
      </trkpt>
      <trkpt lat="43.47931" lon="5.45173">
        <ele>366</ele>
        <time>2018-12-12T12:38:36Z</time>
      </trkpt>
      <trkpt lat="43.47924" lon="5.45166">
        <ele>365</ele>
        <time>2018-12-12T12:38:43Z</time>
      </trkpt>
      <trkpt lat="43.47917" lon="5.45162">
        <ele>365</ele>
        <time>2018-12-12T12:38:51Z</time>
      </trkpt>
      <trkpt lat="43.47911" lon="5.45154">
        <ele>363</ele>
        <time>2018-12-12T12:39:00Z</time>
      </trkpt>
      <trkpt lat="43.47905" lon="5.45148">
        <ele>362</ele>
        <time>2018-12-12T12:39:07Z</time>
      </trkpt>
      <trkpt lat="43.47899" lon="5.45143">
        <ele>361</ele>
        <time>2018-12-12T12:39:13Z</time>
      </trkpt>
      <trkpt lat="43.47893" lon="5.45135">
        <ele>360</ele>
        <time>2018-12-12T12:39:21Z</time>
      </trkpt>
      <trkpt lat="43.47888" lon="5.45127">
        <ele>358</ele>
        <time>2018-12-12T12:39:31Z</time>
      </trkpt>
      <trkpt lat="43.47882" lon="5.45119">
        <ele>356</ele>
        <time>2018-12-12T12:39:39Z</time>
      </trkpt>
      <trkpt lat="43.47876" lon="5.45112">
        <ele>353</ele>
        <time>2018-12-12T12:39:45Z</time>
      </trkpt>
      <trkpt lat="43.47869" lon="5.45108">
        <ele>353</ele>
        <time>2018-12-12T12:39:52Z</time>
      </trkpt>
      <trkpt lat="43.47863" lon="5.45102">
        <ele>352</ele>
        <time>2018-12-12T12:39:59Z</time>
      </trkpt>
      <trkpt lat="43.47856" lon="5.45098">
        <ele>350</ele>
        <time>2018-12-12T12:40:07Z</time>
      </trkpt>
      <trkpt lat="43.4785" lon="5.45091">
        <ele>351</ele>
        <time>2018-12-12T12:40:15Z</time>
      </trkpt>
      <trkpt lat="43.47845" lon="5.45081">
        <ele>350</ele>
        <time>2018-12-12T12:40:25Z</time>
      </trkpt>
      <trkpt lat="43.47841" lon="5.45071">
        <ele>350</ele>
        <time>2018-12-12T12:40:35Z</time>
      </trkpt>
      <trkpt lat="43.47836" lon="5.45061">
        <ele>347</ele>
        <time>2018-12-12T12:40:44Z</time>
      </trkpt>
      <trkpt lat="43.47831" lon="5.4505">
        <ele>345</ele>
        <time>2018-12-12T12:40:54Z</time>
      </trkpt>
      <trkpt lat="43.47827" lon="5.4504">
        <ele>342</ele>
        <time>2018-12-12T12:41:03Z</time>
      </trkpt>
      <trkpt lat="43.47821" lon="5.45034">
        <ele>342</ele>
        <time>2018-12-12T12:41:12Z</time>
      </trkpt>
      <trkpt lat="43.47816" lon="5.45024">
        <ele>341</ele>
        <time>2018-12-12T12:41:23Z</time>
      </trkpt>
      <trkpt lat="43.47807" lon="5.45027">
        <ele>340</ele>
        <time>2018-12-12T12:42:05Z</time>
      </trkpt>
      <trkpt lat="43.47811" lon="5.45036">
        <ele>339</ele>
        <time>2018-12-12T12:42:29Z</time>
      </trkpt>
      <trkpt lat="43.47813" lon="5.45048">
        <ele>339</ele>
        <time>2018-12-12T12:42:39Z</time>
      </trkpt>
      <trkpt lat="43.47812" lon="5.4506">
        <ele>337</ele>
        <time>2018-12-12T12:42:50Z</time>
      </trkpt>
      <trkpt lat="43.4781" lon="5.45072">
        <ele>336</ele>
        <time>2018-12-12T12:43:01Z</time>
      </trkpt>
      <trkpt lat="43.47808" lon="5.45083">
        <ele>336</ele>
        <time>2018-12-12T12:43:11Z</time>
      </trkpt>
      <trkpt lat="43.47805" lon="5.45092">
        <ele>335</ele>
        <time>2018-12-12T12:43:18Z</time>
      </trkpt>
      <trkpt lat="43.47799" lon="5.45101">
        <ele>332</ele>
        <time>2018-12-12T12:43:28Z</time>
      </trkpt>
      <trkpt lat="43.47794" lon="5.4511">
        <ele>331</ele>
        <time>2018-12-12T12:43:37Z</time>
      </trkpt>
      <trkpt lat="43.47791" lon="5.4512">
        <ele>330</ele>
        <time>2018-12-12T12:43:49Z</time>
      </trkpt>
      <trkpt lat="43.47786" lon="5.45128">
        <ele>330</ele>
        <time>2018-12-12T12:43:57Z</time>
      </trkpt>
      <trkpt lat="43.47782" lon="5.45137">
        <ele>328</ele>
        <time>2018-12-12T12:44:06Z</time>
      </trkpt>
      <trkpt lat="43.47777" lon="5.45147">
        <ele>327</ele>
        <time>2018-12-12T12:44:16Z</time>
      </trkpt>
      <trkpt lat="43.47772" lon="5.45157">
        <ele>329</ele>
        <time>2018-12-12T12:44:26Z</time>
      </trkpt>
      <trkpt lat="43.47767" lon="5.45166">
        <ele>330</ele>
        <time>2018-12-12T12:44:34Z</time>
      </trkpt>
      <trkpt lat="43.4776" lon="5.45174">
        <ele>329</ele>
        <time>2018-12-12T12:44:43Z</time>
      </trkpt>
      <trkpt lat="43.47756" lon="5.45185">
        <ele>327</ele>
        <time>2018-12-12T12:44:53Z</time>
      </trkpt>
      <trkpt lat="43.47759" lon="5.45196">
        <ele>324</ele>
        <time>2018-12-12T12:45:05Z</time>
      </trkpt>
      <trkpt lat="43.47759" lon="5.45208">
        <ele>323</ele>
        <time>2018-12-12T12:45:17Z</time>
      </trkpt>
      <trkpt lat="43.47763" lon="5.45218">
        <ele>321</ele>
        <time>2018-12-12T12:45:29Z</time>
      </trkpt>
      <trkpt lat="43.47765" lon="5.45229">
        <ele>324</ele>
        <time>2018-12-12T12:45:38Z</time>
      </trkpt>
      <trkpt lat="43.47759" lon="5.45238">
        <ele>323</ele>
        <time>2018-12-12T12:45:55Z</time>
      </trkpt>
      <trkpt lat="43.47766" lon="5.45246">
        <ele>319</ele>
        <time>2018-12-12T12:48:34Z</time>
      </trkpt>
      <trkpt lat="43.47772" lon="5.45254">
        <ele>320</ele>
        <time>2018-12-12T12:48:41Z</time>
      </trkpt>
      <trkpt lat="43.47777" lon="5.45264">
        <ele>321</ele>
        <time>2018-12-12T12:48:49Z</time>
      </trkpt>
      <trkpt lat="43.47783" lon="5.45273">
        <ele>321</ele>
        <time>2018-12-12T12:48:58Z</time>
      </trkpt>
      <trkpt lat="43.47787" lon="5.4528">
        <ele>320</ele>
        <time>2018-12-12T12:49:05Z</time>
      </trkpt>
      <trkpt lat="43.47794" lon="5.45287">
        <ele>318</ele>
        <time>2018-12-12T12:49:16Z</time>
      </trkpt>
      <trkpt lat="43.47801" lon="5.45295">
        <ele>322</ele>
        <time>2018-12-12T12:49:23Z</time>
      </trkpt>
      <trkpt lat="43.47808" lon="5.45302">
        <ele>323</ele>
        <time>2018-12-12T12:49:33Z</time>
      </trkpt>
      <trkpt lat="43.47814" lon="5.45308">
        <ele>323</ele>
        <time>2018-12-12T12:49:40Z</time>
      </trkpt>
      <trkpt lat="43.47823" lon="5.45312">
        <ele>323</ele>
        <time>2018-12-12T12:49:51Z</time>
      </trkpt>
      <trkpt lat="43.47829" lon="5.45319">
        <ele>322</ele>
        <time>2018-12-12T12:49:58Z</time>
      </trkpt>
      <trkpt lat="43.47835" lon="5.45325">
        <ele>323</ele>
        <time>2018-12-12T12:50:05Z</time>
      </trkpt>
      <trkpt lat="43.47841" lon="5.45331">
        <ele>321</ele>
        <time>2018-12-12T12:50:11Z</time>
      </trkpt>
      <trkpt lat="43.47848" lon="5.45336">
        <ele>320</ele>
        <time>2018-12-12T12:50:21Z</time>
      </trkpt>
      <trkpt lat="43.47855" lon="5.4534">
        <ele>319</ele>
        <time>2018-12-12T12:50:30Z</time>
      </trkpt>
      <trkpt lat="43.47861" lon="5.45348">
        <ele>320</ele>
        <time>2018-12-12T12:50:38Z</time>
      </trkpt>
      <trkpt lat="43.47867" lon="5.45356">
        <ele>319</ele>
        <time>2018-12-12T12:50:45Z</time>
      </trkpt>
      <trkpt lat="43.47872" lon="5.45364">
        <ele>319</ele>
        <time>2018-12-12T12:50:52Z</time>
      </trkpt>
      <trkpt lat="43.4788" lon="5.4537">
        <ele>320</ele>
        <time>2018-12-12T12:51:01Z</time>
      </trkpt>
      <trkpt lat="43.47886" lon="5.45378">
        <ele>320</ele>
        <time>2018-12-12T12:51:10Z</time>
      </trkpt>
      <trkpt lat="43.47892" lon="5.45384">
        <ele>323</ele>
        <time>2018-12-12T12:51:17Z</time>
      </trkpt>
      <trkpt lat="43.47898" lon="5.45391">
        <ele>321</ele>
        <time>2018-12-12T12:51:25Z</time>
      </trkpt>
      <trkpt lat="43.47905" lon="5.45398">
        <ele>322</ele>
        <time>2018-12-12T12:51:34Z</time>
      </trkpt>
      <trkpt lat="43.47911" lon="5.45405">
        <ele>322</ele>
        <time>2018-12-12T12:51:43Z</time>
      </trkpt>
      <trkpt lat="43.47918" lon="5.45413">
        <ele>322</ele>
        <time>2018-12-12T12:51:52Z</time>
      </trkpt>
      <trkpt lat="43.47923" lon="5.4542">
        <ele>322</ele>
        <time>2018-12-12T12:51:59Z</time>
      </trkpt>
      <trkpt lat="43.47929" lon="5.45428">
        <ele>323</ele>
        <time>2018-12-12T12:52:07Z</time>
      </trkpt>
      <trkpt lat="43.47934" lon="5.45437">
        <ele>324</ele>
        <time>2018-12-12T12:52:15Z</time>
      </trkpt>
      <trkpt lat="43.47938" lon="5.45445">
        <ele>325</ele>
        <time>2018-12-12T12:52:23Z</time>
      </trkpt>
      <trkpt lat="43.47944" lon="5.45455">
        <ele>325</ele>
        <time>2018-12-12T12:52:33Z</time>
      </trkpt>
      <trkpt lat="43.4795" lon="5.45464">
        <ele>324</ele>
        <time>2018-12-12T12:52:43Z</time>
      </trkpt>
      <trkpt lat="43.47955" lon="5.45473">
        <ele>326</ele>
        <time>2018-12-12T12:52:50Z</time>
      </trkpt>
      <trkpt lat="43.47962" lon="5.45481">
        <ele>327</ele>
        <time>2018-12-12T12:52:58Z</time>
      </trkpt>
      <trkpt lat="43.47967" lon="5.45487">
        <ele>327</ele>
        <time>2018-12-12T12:53:05Z</time>
      </trkpt>
      <trkpt lat="43.47972" lon="5.45494">
        <ele>328</ele>
        <time>2018-12-12T12:53:14Z</time>
      </trkpt>
      <trkpt lat="43.4798" lon="5.45502">
        <ele>329</ele>
        <time>2018-12-12T12:53:24Z</time>
      </trkpt>
      <trkpt lat="43.47986" lon="5.4551">
        <ele>330</ele>
        <time>2018-12-12T12:53:34Z</time>
      </trkpt>
      <trkpt lat="43.47992" lon="5.45517">
        <ele>330</ele>
        <time>2018-12-12T12:53:44Z</time>
      </trkpt>
      <trkpt lat="43.47999" lon="5.45524">
        <ele>332</ele>
        <time>2018-12-12T12:53:51Z</time>
      </trkpt>
      <trkpt lat="43.48005" lon="5.4553">
        <ele>333</ele>
        <time>2018-12-12T12:53:59Z</time>
      </trkpt>
      <trkpt lat="43.48009" lon="5.45539">
        <ele>333</ele>
        <time>2018-12-12T12:54:06Z</time>
      </trkpt>
      <trkpt lat="43.48015" lon="5.45548">
        <ele>332</ele>
        <time>2018-12-12T12:54:14Z</time>
      </trkpt>
      <trkpt lat="43.48019" lon="5.45557">
        <ele>333</ele>
        <time>2018-12-12T12:54:21Z</time>
      </trkpt>
      <trkpt lat="43.48021" lon="5.45567">
        <ele>334</ele>
        <time>2018-12-12T12:54:31Z</time>
      </trkpt>
      <trkpt lat="43.48025" lon="5.45577">
        <ele>334</ele>
        <time>2018-12-12T12:54:43Z</time>
      </trkpt>
      <trkpt lat="43.48031" lon="5.45587">
        <ele>335</ele>
        <time>2018-12-12T12:55:04Z</time>
      </trkpt>
      <trkpt lat="43.48039" lon="5.45591">
        <ele>336</ele>
        <time>2018-12-12T12:55:28Z</time>
      </trkpt>
      <trkpt lat="43.48047" lon="5.45596">
        <ele>338</ele>
        <time>2018-12-12T12:55:40Z</time>
      </trkpt>
      <trkpt lat="43.48055" lon="5.45599">
        <ele>339</ele>
        <time>2018-12-12T12:55:48Z</time>
      </trkpt>
      <trkpt lat="43.48062" lon="5.45606">
        <ele>340</ele>
        <time>2018-12-12T12:55:58Z</time>
      </trkpt>
      <trkpt lat="43.48069" lon="5.45612">
        <ele>342</ele>
        <time>2018-12-12T12:56:08Z</time>
      </trkpt>
      <trkpt lat="43.48077" lon="5.45615">
        <ele>341</ele>
        <time>2018-12-12T12:56:16Z</time>
      </trkpt>
      <trkpt lat="43.48086" lon="5.45617">
        <ele>340</ele>
        <time>2018-12-12T12:56:27Z</time>
      </trkpt>
      <trkpt lat="43.48094" lon="5.4562">
        <ele>339</ele>
        <time>2018-12-12T12:56:35Z</time>
      </trkpt>
      <trkpt lat="43.48101" lon="5.45625">
        <ele>339</ele>
        <time>2018-12-12T12:56:43Z</time>
      </trkpt>
      <trkpt lat="43.48106" lon="5.45633">
        <ele>339</ele>
        <time>2018-12-12T12:56:50Z</time>
      </trkpt>
      <trkpt lat="43.4811" lon="5.45643">
        <ele>339</ele>
        <time>2018-12-12T12:57:00Z</time>
      </trkpt>
      <trkpt lat="43.48118" lon="5.45648">
        <ele>338</ele>
        <time>2018-12-12T12:57:12Z</time>
      </trkpt>
      <trkpt lat="43.48125" lon="5.45654">
        <ele>338</ele>
        <time>2018-12-12T12:57:20Z</time>
      </trkpt>
      <trkpt lat="43.48132" lon="5.45659">
        <ele>336</ele>
        <time>2018-12-12T12:57:27Z</time>
      </trkpt>
      <trkpt lat="43.48141" lon="5.45662">
        <ele>336</ele>
        <time>2018-12-12T12:57:35Z</time>
      </trkpt>
      <trkpt lat="43.48149" lon="5.45664">
        <ele>337</ele>
        <time>2018-12-12T12:57:43Z</time>
      </trkpt>
      <trkpt lat="43.48156" lon="5.45669">
        <ele>338</ele>
        <time>2018-12-12T12:57:51Z</time>
      </trkpt>
      <trkpt lat="43.48163" lon="5.45673">
        <ele>338</ele>
        <time>2018-12-12T12:57:59Z</time>
      </trkpt>
      <trkpt lat="43.4817" lon="5.4568">
        <ele>337</ele>
        <time>2018-12-12T12:58:07Z</time>
      </trkpt>
      <trkpt lat="43.48177" lon="5.45683">
        <ele>337</ele>
        <time>2018-12-12T12:58:15Z</time>
      </trkpt>
      <trkpt lat="43.48186" lon="5.45686">
        <ele>336</ele>
        <time>2018-12-12T12:58:24Z</time>
      </trkpt>
      <trkpt lat="43.48194" lon="5.45689">
        <ele>337</ele>
        <time>2018-12-12T12:58:33Z</time>
      </trkpt>
      <trkpt lat="43.48201" lon="5.45692">
        <ele>337</ele>
        <time>2018-12-12T12:58:40Z</time>
      </trkpt>
      <trkpt lat="43.48208" lon="5.45694">
        <ele>336</ele>
        <time>2018-12-12T12:58:47Z</time>
      </trkpt>
      <trkpt lat="43.48217" lon="5.45693">
        <ele>337</ele>
        <time>2018-12-12T12:58:55Z</time>
      </trkpt>
      <trkpt lat="43.48223" lon="5.45694">
        <ele>337</ele>
        <time>2018-12-12T12:59:00Z</time>
      </trkpt>
      <trkpt lat="43.48231" lon="5.45698">
        <ele>334</ele>
        <time>2018-12-12T12:59:08Z</time>
      </trkpt>
      <trkpt lat="43.48237" lon="5.45703">
        <ele>333</ele>
        <time>2018-12-12T12:59:15Z</time>
      </trkpt>
      <trkpt lat="43.48245" lon="5.45708">
        <ele>332</ele>
        <time>2018-12-12T12:59:23Z</time>
      </trkpt>
      <trkpt lat="43.48252" lon="5.45711">
        <ele>333</ele>
        <time>2018-12-12T12:59:29Z</time>
      </trkpt>
      <trkpt lat="43.48259" lon="5.45713">
        <ele>334</ele>
        <time>2018-12-12T12:59:36Z</time>
      </trkpt>
      <trkpt lat="43.48266" lon="5.4572">
        <ele>334</ele>
        <time>2018-12-12T12:59:44Z</time>
      </trkpt>
      <trkpt lat="43.4827" lon="5.45731">
        <ele>333</ele>
        <time>2018-12-12T12:59:53Z</time>
      </trkpt>
      <trkpt lat="43.48272" lon="5.45742">
        <ele>335</ele>
        <time>2018-12-12T13:00:03Z</time>
      </trkpt>
      <trkpt lat="43.48278" lon="5.4575">
        <ele>335</ele>
        <time>2018-12-12T13:00:17Z</time>
      </trkpt>
      <trkpt lat="43.48282" lon="5.45761">
        <ele>336</ele>
        <time>2018-12-12T13:00:27Z</time>
      </trkpt>
      <trkpt lat="43.48286" lon="5.45771">
        <ele>337</ele>
        <time>2018-12-12T13:00:39Z</time>
      </trkpt>
      <trkpt lat="43.48289" lon="5.45783">
        <ele>339</ele>
        <time>2018-12-12T13:00:51Z</time>
      </trkpt>
      <trkpt lat="43.48293" lon="5.45791">
        <ele>339</ele>
        <time>2018-12-12T13:01:02Z</time>
      </trkpt>
      <trkpt lat="43.48295" lon="5.45802">
        <ele>340</ele>
        <time>2018-12-12T13:01:08Z</time>
      </trkpt>
      <trkpt lat="43.48297" lon="5.45814">
        <ele>339</ele>
        <time>2018-12-12T13:01:19Z</time>
      </trkpt>
      <trkpt lat="43.48297" lon="5.45826">
        <ele>339</ele>
        <time>2018-12-12T13:01:30Z</time>
      </trkpt>
      <trkpt lat="43.48298" lon="5.45835">
        <ele>340</ele>
        <time>2018-12-12T13:01:38Z</time>
      </trkpt>
      <trkpt lat="43.48299" lon="5.45846">
        <ele>342</ele>
        <time>2018-12-12T13:01:45Z</time>
      </trkpt>
      <trkpt lat="43.48299" lon="5.45857">
        <ele>346</ele>
        <time>2018-12-12T13:02:09Z</time>
      </trkpt>
      <trkpt lat="43.483" lon="5.45868">
        <ele>344</ele>
        <time>2018-12-12T13:02:15Z</time>
      </trkpt>
      <trkpt lat="43.48301" lon="5.45879">
        <ele>345</ele>
        <time>2018-12-12T13:02:21Z</time>
      </trkpt>
      <trkpt lat="43.48301" lon="5.45888">
        <ele>344</ele>
        <time>2018-12-12T13:02:27Z</time>
      </trkpt>
      <trkpt lat="43.48303" lon="5.459">
        <ele>344</ele>
        <time>2018-12-12T13:02:34Z</time>
      </trkpt>
      <trkpt lat="43.48305" lon="5.45911">
        <ele>344</ele>
        <time>2018-12-12T13:02:41Z</time>
      </trkpt>
      <trkpt lat="43.48309" lon="5.45922">
        <ele>344</ele>
        <time>2018-12-12T13:02:48Z</time>
      </trkpt>
      <trkpt lat="43.48311" lon="5.45934">
        <ele>344</ele>
        <time>2018-12-12T13:02:56Z</time>
      </trkpt>
      <trkpt lat="43.48315" lon="5.45944">
        <ele>343</ele>
        <time>2018-12-12T13:03:08Z</time>
      </trkpt>
      <trkpt lat="43.48318" lon="5.45955">
        <ele>345</ele>
        <time>2018-12-12T13:03:18Z</time>
      </trkpt>
      <trkpt lat="43.48318" lon="5.45965">
        <ele>344</ele>
        <time>2018-12-12T13:03:28Z</time>
      </trkpt>
      <trkpt lat="43.48319" lon="5.45976">
        <ele>343</ele>
        <time>2018-12-12T13:03:36Z</time>
      </trkpt>
      <trkpt lat="43.4832" lon="5.45987">
        <ele>343</ele>
        <time>2018-12-12T13:03:43Z</time>
      </trkpt>
      <trkpt lat="43.48322" lon="5.45999">
        <ele>345</ele>
        <time>2018-12-12T13:03:51Z</time>
      </trkpt>
      <trkpt lat="43.48323" lon="5.46011">
        <ele>345</ele>
        <time>2018-12-12T13:03:59Z</time>
      </trkpt>
      <trkpt lat="43.48325" lon="5.46022">
        <ele>345</ele>
        <time>2018-12-12T13:04:08Z</time>
      </trkpt>
      <trkpt lat="43.48326" lon="5.46033">
        <ele>347</ele>
        <time>2018-12-12T13:04:16Z</time>
      </trkpt>
      <trkpt lat="43.48328" lon="5.46045">
        <ele>347</ele>
        <time>2018-12-12T13:04:24Z</time>
      </trkpt>
      <trkpt lat="43.48332" lon="5.46055">
        <ele>347</ele>
        <time>2018-12-12T13:04:32Z</time>
      </trkpt>
      <trkpt lat="43.48335" lon="5.46066">
        <ele>346</ele>
        <time>2018-12-12T13:04:40Z</time>
      </trkpt>
      <trkpt lat="43.48339" lon="5.46074">
        <ele>345</ele>
        <time>2018-12-12T13:04:49Z</time>
      </trkpt>
      <trkpt lat="43.48345" lon="5.46083">
        <ele>345</ele>
        <time>2018-12-12T13:04:58Z</time>
      </trkpt>
      <trkpt lat="43.4835" lon="5.46091">
        <ele>346</ele>
        <time>2018-12-12T13:05:04Z</time>
      </trkpt>
      <trkpt lat="43.48356" lon="5.46098">
        <ele>345</ele>
        <time>2018-12-12T13:05:12Z</time>
      </trkpt>
      <trkpt lat="43.48362" lon="5.46107">
        <ele>346</ele>
        <time>2018-12-12T13:05:20Z</time>
      </trkpt>
      <trkpt lat="43.48368" lon="5.46116">
        <ele>347</ele>
        <time>2018-12-12T13:05:28Z</time>
      </trkpt>
      <trkpt lat="43.48375" lon="5.46122">
        <ele>346</ele>
        <time>2018-12-12T13:05:37Z</time>
      </trkpt>
      <trkpt lat="43.48381" lon="5.46127">
        <ele>345</ele>
        <time>2018-12-12T13:05:43Z</time>
      </trkpt>
      <trkpt lat="43.48389" lon="5.4613">
        <ele>345</ele>
        <time>2018-12-12T13:05:50Z</time>
      </trkpt>
      <trkpt lat="43.48396" lon="5.46134">
        <ele>344</ele>
        <time>2018-12-12T13:05:57Z</time>
      </trkpt>
      <trkpt lat="43.48404" lon="5.46137">
        <ele>344</ele>
        <time>2018-12-12T13:06:04Z</time>
      </trkpt>
      <trkpt lat="43.48412" lon="5.46139">
        <ele>344</ele>
        <time>2018-12-12T13:06:11Z</time>
      </trkpt>
      <trkpt lat="43.48419" lon="5.46141">
        <ele>344</ele>
        <time>2018-12-12T13:06:17Z</time>
      </trkpt>
      <trkpt lat="43.48426" lon="5.46143">
        <ele>343</ele>
        <time>2018-12-12T13:06:24Z</time>
      </trkpt>
      <trkpt lat="43.48435" lon="5.46146">
        <ele>343</ele>
        <time>2018-12-12T13:06:33Z</time>
      </trkpt>
      <trkpt lat="43.48442" lon="5.4615">
        <ele>344</ele>
        <time>2018-12-12T13:06:42Z</time>
      </trkpt>
      <trkpt lat="43.48451" lon="5.46153">
        <ele>345</ele>
        <time>2018-12-12T13:06:50Z</time>
      </trkpt>
      <trkpt lat="43.48459" lon="5.46155">
        <ele>345</ele>
        <time>2018-12-12T13:07:00Z</time>
      </trkpt>
      <trkpt lat="43.48466" lon="5.46162">
        <ele>346</ele>
        <time>2018-12-12T13:07:09Z</time>
      </trkpt>
      <trkpt lat="43.48471" lon="5.46169">
        <ele>346</ele>
        <time>2018-12-12T13:07:16Z</time>
      </trkpt>
      <trkpt lat="43.48475" lon="5.46179">
        <ele>345</ele>
        <time>2018-12-12T13:07:24Z</time>
      </trkpt>
      <trkpt lat="43.48477" lon="5.46191">
        <ele>347</ele>
        <time>2018-12-12T13:07:33Z</time>
      </trkpt>
      <trkpt lat="43.4848" lon="5.46202">
        <ele>348</ele>
        <time>2018-12-12T13:07:41Z</time>
      </trkpt>
      <trkpt lat="43.48484" lon="5.46213">
        <ele>348</ele>
        <time>2018-12-12T13:07:50Z</time>
      </trkpt>
      <trkpt lat="43.48486" lon="5.46223">
        <ele>347</ele>
        <time>2018-12-12T13:07:58Z</time>
      </trkpt>
      <trkpt lat="43.4849" lon="5.46233">
        <ele>347</ele>
        <time>2018-12-12T13:08:08Z</time>
      </trkpt>
      <trkpt lat="43.48494" lon="5.46243">
        <ele>348</ele>
        <time>2018-12-12T13:08:18Z</time>
      </trkpt>
      <trkpt lat="43.48499" lon="5.46253">
        <ele>347</ele>
        <time>2018-12-12T13:08:26Z</time>
      </trkpt>
      <trkpt lat="43.48502" lon="5.46262">
        <ele>348</ele>
        <time>2018-12-12T13:08:34Z</time>
      </trkpt>
      <trkpt lat="43.48509" lon="5.4627">
        <ele>349</ele>
        <time>2018-12-12T13:08:42Z</time>
      </trkpt>
      <trkpt lat="43.48516" lon="5.46276">
        <ele>349</ele>
        <time>2018-12-12T13:08:52Z</time>
      </trkpt>
      <trkpt lat="43.48522" lon="5.46281">
        <ele>351</ele>
        <time>2018-12-12T13:09:01Z</time>
      </trkpt>
      <trkpt lat="43.4853" lon="5.46287">
        <ele>351</ele>
        <time>2018-12-12T13:09:09Z</time>
      </trkpt>
      <trkpt lat="43.48535" lon="5.46296">
        <ele>352</ele>
        <time>2018-12-12T13:09:25Z</time>
      </trkpt>
      <trkpt lat="43.48542" lon="5.46303">
        <ele>355</ele>
        <time>2018-12-12T13:09:52Z</time>
      </trkpt>
      <trkpt lat="43.4855" lon="5.46306">
        <ele>356</ele>
        <time>2018-12-12T13:10:04Z</time>
      </trkpt>
      <trkpt lat="43.48557" lon="5.46313">
        <ele>357</ele>
        <time>2018-12-12T13:10:14Z</time>
      </trkpt>
      <trkpt lat="43.48563" lon="5.46322">
        <ele>356</ele>
        <time>2018-12-12T13:10:24Z</time>
      </trkpt>
      <trkpt lat="43.48569" lon="5.4633">
        <ele>354</ele>
        <time>2018-12-12T13:10:33Z</time>
      </trkpt>
      <trkpt lat="43.48573" lon="5.46341">
        <ele>355</ele>
        <time>2018-12-12T13:10:42Z</time>
      </trkpt>
      <trkpt lat="43.4858" lon="5.46347">
        <ele>357</ele>
        <time>2018-12-12T13:10:59Z</time>
      </trkpt>
      <trkpt lat="43.48588" lon="5.46348">
        <ele>356</ele>
        <time>2018-12-12T13:11:09Z</time>
      </trkpt>
      <trkpt lat="43.48596" lon="5.46348">
        <ele>354</ele>
        <time>2018-12-12T13:11:19Z</time>
      </trkpt>
      <trkpt lat="43.48605" lon="5.46348">
        <ele>354</ele>
        <time>2018-12-12T13:11:29Z</time>
      </trkpt>
      <trkpt lat="43.48613" lon="5.46348">
        <ele>355</ele>
        <time>2018-12-12T13:11:42Z</time>
      </trkpt>
      <trkpt lat="43.48621" lon="5.46348">
        <ele>355</ele>
        <time>2018-12-12T13:11:51Z</time>
      </trkpt>
      <trkpt lat="43.48629" lon="5.46346">
        <ele>353</ele>
        <time>2018-12-12T13:11:59Z</time>
      </trkpt>
      <trkpt lat="43.48637" lon="5.46344">
        <ele>352</ele>
        <time>2018-12-12T13:12:07Z</time>
      </trkpt>
      <trkpt lat="43.48645" lon="5.46341">
        <ele>350</ele>
        <time>2018-12-12T13:12:28Z</time>
      </trkpt>
      <trkpt lat="43.48654" lon="5.46342">
        <ele>349</ele>
        <time>2018-12-12T13:12:53Z</time>
      </trkpt>
      <trkpt lat="43.48662" lon="5.46346">
        <ele>350</ele>
        <time>2018-12-12T13:13:13Z</time>
      </trkpt>
      <trkpt lat="43.4867" lon="5.46351">
        <ele>349</ele>
        <time>2018-12-12T13:13:23Z</time>
      </trkpt>
      <trkpt lat="43.48678" lon="5.46355">
        <ele>347</ele>
        <time>2018-12-12T13:13:32Z</time>
      </trkpt>
      <trkpt lat="43.48686" lon="5.4636">
        <ele>347</ele>
        <time>2018-12-12T13:13:41Z</time>
      </trkpt>
      <trkpt lat="43.48693" lon="5.46363">
        <ele>347</ele>
        <time>2018-12-12T13:13:49Z</time>
      </trkpt>
      <trkpt lat="43.48701" lon="5.46367">
        <ele>346</ele>
        <time>2018-12-12T13:13:58Z</time>
      </trkpt>
      <trkpt lat="43.48707" lon="5.46373">
        <ele>346</ele>
        <time>2018-12-12T13:14:06Z</time>
      </trkpt>
      <trkpt lat="43.48713" lon="5.46381">
        <ele>346</ele>
        <time>2018-12-12T13:14:16Z</time>
      </trkpt>
      <trkpt lat="43.4872" lon="5.46387">
        <ele>348</ele>
        <time>2018-12-12T13:14:26Z</time>
      </trkpt>
      <trkpt lat="43.48725" lon="5.46397">
        <ele>349</ele>
        <time>2018-12-12T13:14:36Z</time>
      </trkpt>
      <trkpt lat="43.48729" lon="5.46406">
        <ele>350</ele>
        <time>2018-12-12T13:14:50Z</time>
      </trkpt>
      <trkpt lat="43.48737" lon="5.46409">
        <ele>349</ele>
        <time>2018-12-12T13:15:00Z</time>
      </trkpt>
      <trkpt lat="43.48745" lon="5.4641">
        <ele>350</ele>
        <time>2018-12-12T13:15:08Z</time>
      </trkpt>
      <trkpt lat="43.48753" lon="5.46414">
        <ele>350</ele>
        <time>2018-12-12T13:15:20Z</time>
      </trkpt>
      <trkpt lat="43.48762" lon="5.46419">
        <ele>350</ele>
        <time>2018-12-12T13:15:34Z</time>
      </trkpt>
      <trkpt lat="43.4877" lon="5.46418">
        <ele>352</ele>
        <time>2018-12-12T13:15:47Z</time>
      </trkpt>
      <trkpt lat="43.48778" lon="5.46417">
        <ele>352</ele>
        <time>2018-12-12T13:15:54Z</time>
      </trkpt>
      <trkpt lat="43.48787" lon="5.46416">
        <ele>353</ele>
        <time>2018-12-12T13:16:04Z</time>
      </trkpt>
      <trkpt lat="43.48795" lon="5.46413">
        <ele>354</ele>
        <time>2018-12-12T13:16:15Z</time>
      </trkpt>
      <trkpt lat="43.48802" lon="5.46412">
        <ele>355</ele>
        <time>2018-12-12T13:16:22Z</time>
      </trkpt>
      <trkpt lat="43.4881" lon="5.46418">
        <ele>353</ele>
        <time>2018-12-12T13:16:38Z</time>
      </trkpt>
      <trkpt lat="43.48815" lon="5.46428">
        <ele>353</ele>
        <time>2018-12-12T13:16:51Z</time>
      </trkpt>
      <trkpt lat="43.48823" lon="5.46425">
        <ele>351</ele>
        <time>2018-12-12T13:17:03Z</time>
      </trkpt>
      <trkpt lat="43.48829" lon="5.46419">
        <ele>350</ele>
        <time>2018-12-12T13:17:11Z</time>
      </trkpt>
      <trkpt lat="43.48837" lon="5.46414">
        <ele>348</ele>
        <time>2018-12-12T13:17:20Z</time>
      </trkpt>
      <trkpt lat="43.48843" lon="5.46408">
        <ele>348</ele>
        <time>2018-12-12T13:17:27Z</time>
      </trkpt>
      <trkpt lat="43.4885" lon="5.46401">
        <ele>347</ele>
        <time>2018-12-12T13:17:36Z</time>
      </trkpt>
      <trkpt lat="43.48858" lon="5.46395">
        <ele>346</ele>
        <time>2018-12-12T13:17:45Z</time>
      </trkpt>
      <trkpt lat="43.48866" lon="5.46393">
        <ele>348</ele>
        <time>2018-12-12T13:17:56Z</time>
      </trkpt>
      <trkpt lat="43.48873" lon="5.46396">
        <ele>348</ele>
        <time>2018-12-12T13:18:08Z</time>
      </trkpt>
      <trkpt lat="43.48882" lon="5.46399">
        <ele>346</ele>
        <time>2018-12-12T13:18:19Z</time>
      </trkpt>
      <trkpt lat="43.4889" lon="5.464">
        <ele>346</ele>
        <time>2018-12-12T13:18:29Z</time>
      </trkpt>
      <trkpt lat="43.48898" lon="5.46402">
        <ele>347</ele>
        <time>2018-12-12T13:18:41Z</time>
      </trkpt>
      <trkpt lat="43.48905" lon="5.4641">
        <ele>348</ele>
        <time>2018-12-12T13:18:54Z</time>
      </trkpt>
      <trkpt lat="43.48912" lon="5.46416">
        <ele>349</ele>
        <time>2018-12-12T13:19:09Z</time>
      </trkpt>
      <trkpt lat="43.48921" lon="5.46418">
        <ele>349</ele>
        <time>2018-12-12T13:19:19Z</time>
      </trkpt>
      <trkpt lat="43.48928" lon="5.46418">
        <ele>349</ele>
        <time>2018-12-12T13:19:26Z</time>
      </trkpt>
      <trkpt lat="43.48936" lon="5.46421">
        <ele>351</ele>
        <time>2018-12-12T13:19:36Z</time>
      </trkpt>
      <trkpt lat="43.48944" lon="5.46424">
        <ele>351</ele>
        <time>2018-12-12T13:19:52Z</time>
      </trkpt>
      <trkpt lat="43.48953" lon="5.46425">
        <ele>351</ele>
        <time>2018-12-12T13:20:03Z</time>
      </trkpt>
      <trkpt lat="43.48961" lon="5.46424">
        <ele>352</ele>
        <time>2018-12-12T13:20:13Z</time>
      </trkpt>
      <trkpt lat="43.48969" lon="5.46423">
        <ele>352</ele>
        <time>2018-12-12T13:20:22Z</time>
      </trkpt>
      <trkpt lat="43.48976" lon="5.46423">
        <ele>352</ele>
        <time>2018-12-12T13:20:30Z</time>
      </trkpt>
      <trkpt lat="43.48984" lon="5.46429">
        <ele>352</ele>
        <time>2018-12-12T13:20:42Z</time>
      </trkpt>
      <trkpt lat="43.4899" lon="5.46436">
        <ele>353</ele>
        <time>2018-12-12T13:20:51Z</time>
      </trkpt>
      <trkpt lat="43.48996" lon="5.46445">
        <ele>351</ele>
        <time>2018-12-12T13:20:58Z</time>
      </trkpt>
      <trkpt lat="43.49002" lon="5.46451">
        <ele>348</ele>
        <time>2018-12-12T13:21:06Z</time>
      </trkpt>
      <trkpt lat="43.49011" lon="5.46452">
        <ele>350</ele>
        <time>2018-12-12T13:21:17Z</time>
      </trkpt>
      <trkpt lat="43.49019" lon="5.46451">
        <ele>350</ele>
        <time>2018-12-12T13:21:27Z</time>
      </trkpt>
      <trkpt lat="43.49027" lon="5.46455">
        <ele>349</ele>
        <time>2018-12-12T13:21:37Z</time>
      </trkpt>
      <trkpt lat="43.49033" lon="5.46463">
        <ele>351</ele>
        <time>2018-12-12T13:21:47Z</time>
      </trkpt>
      <trkpt lat="43.49039" lon="5.4647">
        <ele>350</ele>
        <time>2018-12-12T13:21:55Z</time>
      </trkpt>
      <trkpt lat="43.49046" lon="5.46476">
        <ele>351</ele>
        <time>2018-12-12T13:22:03Z</time>
      </trkpt>
      <trkpt lat="43.49055" lon="5.46479">
        <ele>349</ele>
        <time>2018-12-12T13:22:13Z</time>
      </trkpt>
      <trkpt lat="43.49063" lon="5.46479">
        <ele>349</ele>
        <time>2018-12-12T13:22:23Z</time>
      </trkpt>
      <trkpt lat="43.49071" lon="5.46479">
        <ele>348</ele>
        <time>2018-12-12T13:22:33Z</time>
      </trkpt>
      <trkpt lat="43.4908" lon="5.46476">
        <ele>347</ele>
        <time>2018-12-12T13:22:43Z</time>
      </trkpt>
      <trkpt lat="43.49088" lon="5.46472">
        <ele>347</ele>
        <time>2018-12-12T13:22:52Z</time>
      </trkpt>
      <trkpt lat="43.49095" lon="5.46472">
        <ele>345</ele>
        <time>2018-12-12T13:23:00Z</time>
      </trkpt>
      <trkpt lat="43.49103" lon="5.46468">
        <ele>344</ele>
        <time>2018-12-12T13:23:09Z</time>
      </trkpt>
      <trkpt lat="43.49112" lon="5.46465">
        <ele>341</ele>
        <time>2018-12-12T13:23:18Z</time>
      </trkpt>
      <trkpt lat="43.4912" lon="5.46461">
        <ele>340</ele>
        <time>2018-12-12T13:23:27Z</time>
      </trkpt>
      <trkpt lat="43.49127" lon="5.4646">
        <ele>340</ele>
        <time>2018-12-12T13:23:34Z</time>
      </trkpt>
      <trkpt lat="43.49136" lon="5.46462">
        <ele>341</ele>
        <time>2018-12-12T13:23:43Z</time>
      </trkpt>
      <trkpt lat="43.49144" lon="5.46459">
        <ele>341</ele>
        <time>2018-12-12T13:23:54Z</time>
      </trkpt>
      <trkpt lat="43.49152" lon="5.46455">
        <ele>341</ele>
        <time>2018-12-12T13:24:06Z</time>
      </trkpt>
      <trkpt lat="43.49159" lon="5.46449">
        <ele>338</ele>
        <time>2018-12-12T13:24:17Z</time>
      </trkpt>
      <trkpt lat="43.49167" lon="5.46445">
        <ele>336</ele>
        <time>2018-12-12T13:24:47Z</time>
      </trkpt>
      <trkpt lat="43.49176" lon="5.46444">
        <ele>336</ele>
        <time>2018-12-12T13:25:01Z</time>
      </trkpt>
      <trkpt lat="43.49183" lon="5.46438">
        <ele>335</ele>
        <time>2018-12-12T13:25:12Z</time>
      </trkpt>
      <trkpt lat="43.4919" lon="5.46431">
        <ele>333</ele>
        <time>2018-12-12T13:25:23Z</time>
      </trkpt>
      <trkpt lat="43.49198" lon="5.46426">
        <ele>331</ele>
        <time>2018-12-12T13:25:45Z</time>
      </trkpt>
      <trkpt lat="43.49206" lon="5.46424">
        <ele>331</ele>
        <time>2018-12-12T13:25:54Z</time>
      </trkpt>
      <trkpt lat="43.49214" lon="5.46421">
        <ele>330</ele>
        <time>2018-12-12T13:26:08Z</time>
      </trkpt>
      <trkpt lat="43.49221" lon="5.46417">
        <ele>331</ele>
        <time>2018-12-12T13:26:16Z</time>
      </trkpt>
      <trkpt lat="43.49229" lon="5.46413">
        <ele>331</ele>
        <time>2018-12-12T13:26:28Z</time>
      </trkpt>
      <trkpt lat="43.49237" lon="5.46413">
        <ele>331</ele>
        <time>2018-12-12T13:26:41Z</time>
      </trkpt>
      <trkpt lat="43.49245" lon="5.46409">
        <ele>330</ele>
        <time>2018-12-12T13:26:50Z</time>
      </trkpt>
      <trkpt lat="43.49253" lon="5.46405">
        <ele>331</ele>
        <time>2018-12-12T13:26:58Z</time>
      </trkpt>
      <trkpt lat="43.49261" lon="5.46402">
        <ele>332</ele>
        <time>2018-12-12T13:27:06Z</time>
      </trkpt>
      <trkpt lat="43.49269" lon="5.46399">
        <ele>334</ele>
        <time>2018-12-12T13:27:14Z</time>
      </trkpt>
      <trkpt lat="43.49276" lon="5.46392">
        <ele>334</ele>
        <time>2018-12-12T13:27:24Z</time>
      </trkpt>
      <trkpt lat="43.49283" lon="5.46386">
        <ele>335</ele>
        <time>2018-12-12T13:27:34Z</time>
      </trkpt>
      <trkpt lat="43.49289" lon="5.46378">
        <ele>335</ele>
        <time>2018-12-12T13:27:47Z</time>
      </trkpt>
      <trkpt lat="43.49296" lon="5.46371">
        <ele>334</ele>
        <time>2018-12-12T13:28:00Z</time>
      </trkpt>
      <trkpt lat="43.49298" lon="5.4636">
        <ele>336</ele>
        <time>2018-12-12T13:28:12Z</time>
      </trkpt>
      <trkpt lat="43.49302" lon="5.4635">
        <ele>337</ele>
        <time>2018-12-12T13:28:20Z</time>
      </trkpt>
      <trkpt lat="43.49304" lon="5.4634">
        <ele>338</ele>
        <time>2018-12-12T13:28:30Z</time>
      </trkpt>
      <trkpt lat="43.49307" lon="5.46329">
        <ele>339</ele>
        <time>2018-12-12T13:28:39Z</time>
      </trkpt>
      <trkpt lat="43.49311" lon="5.46319">
        <ele>338</ele>
        <time>2018-12-12T13:28:48Z</time>
      </trkpt>
      <trkpt lat="43.49316" lon="5.46309">
        <ele>336</ele>
        <time>2018-12-12T13:28:55Z</time>
      </trkpt>
      <trkpt lat="43.4932" lon="5.46298">
        <ele>339</ele>
        <time>2018-12-12T13:29:07Z</time>
      </trkpt>
      <trkpt lat="43.49324" lon="5.4629">
        <ele>340</ele>
        <time>2018-12-12T13:29:15Z</time>
      </trkpt>
      <trkpt lat="43.49329" lon="5.4628">
        <ele>341</ele>
        <time>2018-12-12T13:29:23Z</time>
      </trkpt>
      <trkpt lat="43.49334" lon="5.4627">
        <ele>342</ele>
        <time>2018-12-12T13:29:36Z</time>
      </trkpt>
      <trkpt lat="43.49341" lon="5.46265">
        <ele>342</ele>
        <time>2018-12-12T13:29:46Z</time>
      </trkpt>
      <trkpt lat="43.49347" lon="5.46258">
        <ele>343</ele>
        <time>2018-12-12T13:29:58Z</time>
      </trkpt>
      <trkpt lat="43.49355" lon="5.46254">
        <ele>346</ele>
        <time>2018-12-12T13:30:35Z</time>
      </trkpt>
      <trkpt lat="43.49364" lon="5.46252">
        <ele>348</ele>
        <time>2018-12-12T13:31:27Z</time>
      </trkpt>
      <trkpt lat="43.49372" lon="5.4625">
        <ele>348</ele>
        <time>2018-12-12T13:32:25Z</time>
      </trkpt>
      <trkpt lat="43.4938" lon="5.46245">
        <ele>346</ele>
        <time>2018-12-12T13:32:37Z</time>
      </trkpt>
      <trkpt lat="43.49385" lon="5.46239">
        <ele>346</ele>
        <time>2018-12-12T13:32:46Z</time>
      </trkpt>
      <trkpt lat="43.49392" lon="5.46236">
        <ele>344</ele>
        <time>2018-12-12T13:32:59Z</time>
      </trkpt>
      <trkpt lat="43.49398" lon="5.46228">
        <ele>345</ele>
        <time>2018-12-12T13:33:08Z</time>
      </trkpt>
      <trkpt lat="43.49405" lon="5.4623">
        <ele>345</ele>
        <time>2018-12-12T13:33:17Z</time>
      </trkpt>
      <trkpt lat="43.49414" lon="5.46232">
        <ele>343</ele>
        <time>2018-12-12T13:33:27Z</time>
      </trkpt>
      <trkpt lat="43.49421" lon="5.46227">
        <ele>342</ele>
        <time>2018-12-12T13:33:35Z</time>
      </trkpt>
      <trkpt lat="43.49428" lon="5.46224">
        <ele>342</ele>
        <time>2018-12-12T13:33:42Z</time>
      </trkpt>
      <trkpt lat="43.49436" lon="5.4622">
        <ele>340</ele>
        <time>2018-12-12T13:33:50Z</time>
      </trkpt>
      <trkpt lat="43.49444" lon="5.46217">
        <ele>340</ele>
        <time>2018-12-12T13:33:59Z</time>
      </trkpt>
      <trkpt lat="43.4945" lon="5.46213">
        <ele>339</ele>
        <time>2018-12-12T13:34:06Z</time>
      </trkpt>
      <trkpt lat="43.49457" lon="5.4621">
        <ele>337</ele>
        <time>2018-12-12T13:34:12Z</time>
      </trkpt>
      <trkpt lat="43.49465" lon="5.46207">
        <ele>337</ele>
        <time>2018-12-12T13:34:22Z</time>
      </trkpt>
      <trkpt lat="43.49474" lon="5.46205">
        <ele>336</ele>
        <time>2018-12-12T13:34:33Z</time>
      </trkpt>
      <trkpt lat="43.49482" lon="5.46205">
        <ele>336</ele>
        <time>2018-12-12T13:34:46Z</time>
      </trkpt>
      <trkpt lat="43.4949" lon="5.46209">
        <ele>336</ele>
        <time>2018-12-12T13:34:55Z</time>
      </trkpt>
      <trkpt lat="43.49499" lon="5.46211">
        <ele>336</ele>
        <time>2018-12-12T13:35:04Z</time>
      </trkpt>
      <trkpt lat="43.49506" lon="5.46211">
        <ele>335</ele>
        <time>2018-12-12T13:35:13Z</time>
      </trkpt>
      <trkpt lat="43.49515" lon="5.4621">
        <ele>334</ele>
        <time>2018-12-12T13:35:23Z</time>
      </trkpt>
      <trkpt lat="43.49523" lon="5.46208">
        <ele>332</ele>
        <time>2018-12-12T13:35:33Z</time>
      </trkpt>
      <trkpt lat="43.49531" lon="5.46209">
        <ele>329</ele>
        <time>2018-12-12T13:35:43Z</time>
      </trkpt>
      <trkpt lat="43.49537" lon="5.46205">
        <ele>327</ele>
        <time>2018-12-12T13:35:59Z</time>
      </trkpt>
      <trkpt lat="43.49544" lon="5.46199">
        <ele>330</ele>
        <time>2018-12-12T13:36:09Z</time>
      </trkpt>
      <trkpt lat="43.49553" lon="5.46197">
        <ele>329</ele>
        <time>2018-12-12T13:36:16Z</time>
      </trkpt>
      <trkpt lat="43.49561" lon="5.46195">
        <ele>328</ele>
        <time>2018-12-12T13:36:24Z</time>
      </trkpt>
      <trkpt lat="43.49569" lon="5.46193">
        <ele>327</ele>
        <time>2018-12-12T13:36:47Z</time>
      </trkpt>
      <trkpt lat="43.49578" lon="5.46192">
        <ele>326</ele>
        <time>2018-12-12T13:38:33Z</time>
      </trkpt>
      <trkpt lat="43.49582" lon="5.46203">
        <ele>319</ele>
        <time>2018-12-12T13:40:02Z</time>
      </trkpt>
      <trkpt lat="43.49587" lon="5.46213">
        <ele>320</ele>
        <time>2018-12-12T13:40:13Z</time>
      </trkpt>
      <trkpt lat="43.49591" lon="5.46223">
        <ele>324</ele>
        <time>2018-12-12T13:40:26Z</time>
      </trkpt>
      <trkpt lat="43.49593" lon="5.46235">
        <ele>327</ele>
        <time>2018-12-12T13:41:03Z</time>
      </trkpt>
      <trkpt lat="43.49597" lon="5.46246">
        <ele>331</ele>
        <time>2018-12-12T13:41:25Z</time>
      </trkpt>
      <trkpt lat="43.49597" lon="5.46258">
        <ele>333</ele>
        <time>2018-12-12T13:41:42Z</time>
      </trkpt>
      <trkpt lat="43.49597" lon="5.46269">
        <ele>331</ele>
        <time>2018-12-12T13:41:56Z</time>
      </trkpt>
      <trkpt lat="43.496" lon="5.4628">
        <ele>338</ele>
        <time>2018-12-12T13:42:18Z</time>
      </trkpt>
      <trkpt lat="43.496" lon="5.4629">
        <ele>339</ele>
        <time>2018-12-12T13:42:27Z</time>
      </trkpt>
      <trkpt lat="43.49607" lon="5.46298">
        <ele>341</ele>
        <time>2018-12-12T13:42:46Z</time>
      </trkpt>
      <trkpt lat="43.49614" lon="5.46295">
        <ele>342</ele>
        <time>2018-12-12T13:42:53Z</time>
      </trkpt>
      <trkpt lat="43.49621" lon="5.46295">
        <ele>340</ele>
        <time>2018-12-12T13:42:59Z</time>
      </trkpt>
      <trkpt lat="43.49629" lon="5.46292">
        <ele>340</ele>
        <time>2018-12-12T13:43:06Z</time>
      </trkpt>
      <trkpt lat="43.49638" lon="5.46292">
        <ele>341</ele>
        <time>2018-12-12T13:43:15Z</time>
      </trkpt>
      <trkpt lat="43.49647" lon="5.46295">
        <ele>342</ele>
        <time>2018-12-12T13:43:26Z</time>
      </trkpt>
      <trkpt lat="43.49655" lon="5.46291">
        <ele>338</ele>
        <time>2018-12-12T13:43:41Z</time>
      </trkpt>
      <trkpt lat="43.49662" lon="5.46284">
        <ele>339</ele>
        <time>2018-12-12T13:44:01Z</time>
      </trkpt>
      <trkpt lat="43.4967" lon="5.46277">
        <ele>340</ele>
        <time>2018-12-12T13:46:33Z</time>
      </trkpt>
      <trkpt lat="43.49674" lon="5.46269">
        <ele>340</ele>
        <time>2018-12-12T13:46:44Z</time>
      </trkpt>
      <trkpt lat="43.49681" lon="5.46262">
        <ele>339</ele>
        <time>2018-12-12T13:46:53Z</time>
      </trkpt>
      <trkpt lat="43.49689" lon="5.46257">
        <ele>339</ele>
        <time>2018-12-12T13:47:04Z</time>
      </trkpt>
      <trkpt lat="43.49693" lon="5.46247">
        <ele>340</ele>
        <time>2018-12-12T13:47:18Z</time>
      </trkpt>
      <trkpt lat="43.49701" lon="5.46242">
        <ele>340</ele>
        <time>2018-12-12T13:47:32Z</time>
      </trkpt>
      <trkpt lat="43.49709" lon="5.46239">
        <ele>339</ele>
        <time>2018-12-12T13:47:45Z</time>
      </trkpt>
      <trkpt lat="43.49718" lon="5.4624">
        <ele>337</ele>
        <time>2018-12-12T13:48:06Z</time>
      </trkpt>
      <trkpt lat="43.49726" lon="5.46245">
        <ele>337</ele>
        <time>2018-12-12T13:48:21Z</time>
      </trkpt>
      <trkpt lat="43.49732" lon="5.46253">
        <ele>333</ele>
        <time>2018-12-12T13:48:43Z</time>
      </trkpt>
      <trkpt lat="43.4974" lon="5.46253">
        <ele>331</ele>
        <time>2018-12-12T13:48:55Z</time>
      </trkpt>
      <trkpt lat="43.49749" lon="5.46251">
        <ele>329</ele>
        <time>2018-12-12T13:49:09Z</time>
      </trkpt>
      <trkpt lat="43.49757" lon="5.4625">
        <ele>327</ele>
        <time>2018-12-12T13:49:25Z</time>
      </trkpt>
      <trkpt lat="43.49764" lon="5.46247">
        <ele>325</ele>
        <time>2018-12-12T13:49:41Z</time>
      </trkpt>
      <trkpt lat="43.49773" lon="5.46246">
        <ele>323</ele>
        <time>2018-12-12T13:49:56Z</time>
      </trkpt>
      <trkpt lat="43.4978" lon="5.46249">
        <ele>321</ele>
        <time>2018-12-12T13:50:13Z</time>
      </trkpt>
      <trkpt lat="43.49789" lon="5.4625">
        <ele>319</ele>
        <time>2018-12-12T13:50:30Z</time>
      </trkpt>
      <trkpt lat="43.49797" lon="5.46253">
        <ele>317</ele>
        <time>2018-12-12T13:50:46Z</time>
      </trkpt>
      <trkpt lat="43.49803" lon="5.46261">
        <ele>317</ele>
        <time>2018-12-12T13:50:55Z</time>
      </trkpt>
      <trkpt lat="43.49806" lon="5.46272">
        <ele>316</ele>
        <time>2018-12-12T13:51:02Z</time>
      </trkpt>
      <trkpt lat="43.4981" lon="5.46281">
        <ele>315</ele>
        <time>2018-12-12T13:51:15Z</time>
      </trkpt>
      <trkpt lat="43.49813" lon="5.46292">
        <ele>313</ele>
        <time>2018-12-12T13:51:27Z</time>
      </trkpt>
      <trkpt lat="43.49817" lon="5.46303">
        <ele>310</ele>
        <time>2018-12-12T13:51:42Z</time>
      </trkpt>
      <trkpt lat="43.49821" lon="5.46312">
        <ele>306</ele>
        <time>2018-12-12T13:52:04Z</time>
      </trkpt>
      <trkpt lat="43.49824" lon="5.46324">
        <ele>304</ele>
        <time>2018-12-12T13:52:27Z</time>
      </trkpt>
      <trkpt lat="43.49823" lon="5.46336">
        <ele>301</ele>
        <time>2018-12-12T13:53:00Z</time>
      </trkpt>
      <trkpt lat="43.49829" lon="5.46345">
        <ele>297</ele>
        <time>2018-12-12T13:53:42Z</time>
      </trkpt>
      <trkpt lat="43.49836" lon="5.46352">
        <ele>296</ele>
        <time>2018-12-12T13:54:15Z</time>
      </trkpt>
      <trkpt lat="43.49844" lon="5.46356">
        <ele>292</ele>
        <time>2018-12-12T13:54:41Z</time>
      </trkpt>
      <trkpt lat="43.4985" lon="5.46365">
        <ele>289</ele>
        <time>2018-12-12T13:55:17Z</time>
      </trkpt>
      <trkpt lat="43.49857" lon="5.46371">
        <ele>285</ele>
        <time>2018-12-12T13:56:01Z</time>
      </trkpt>
      <trkpt lat="43.49862" lon="5.4638">
        <ele>282</ele>
        <time>2018-12-12T13:56:37Z</time>
      </trkpt>
      <trkpt lat="43.49868" lon="5.4639">
        <ele>273</ele>
        <time>2018-12-12T13:57:28Z</time>
      </trkpt>
      <trkpt lat="43.49876" lon="5.46391">
        <ele>273</ele>
        <time>2018-12-12T13:57:51Z</time>
      </trkpt>
      <trkpt lat="43.49885" lon="5.46389">
        <ele>270</ele>
        <time>2018-12-12T13:58:20Z</time>
      </trkpt>
      <trkpt lat="43.49893" lon="5.46386">
        <ele>269</ele>
        <time>2018-12-12T13:58:39Z</time>
      </trkpt>
      <trkpt lat="43.49898" lon="5.46377">
        <ele>263</ele>
        <time>2018-12-12T13:58:53Z</time>
      </trkpt>
      <trkpt lat="43.49905" lon="5.46374">
        <ele>262</ele>
        <time>2018-12-12T13:59:30Z</time>
      </trkpt>
      <trkpt lat="43.49913" lon="5.46374">
        <ele>262</ele>
        <time>2018-12-12T13:59:41Z</time>
      </trkpt>
      <trkpt lat="43.49921" lon="5.46369">
        <ele>258</ele>
        <time>2018-12-12T14:00:01Z</time>
      </trkpt>
      <trkpt lat="43.49929" lon="5.46366">
        <ele>259</ele>
        <time>2018-12-12T14:00:19Z</time>
      </trkpt>
      <trkpt lat="43.49937" lon="5.46364">
        <ele>258</ele>
        <time>2018-12-12T14:00:43Z</time>
      </trkpt>
      <trkpt lat="43.49946" lon="5.46364">
        <ele>251</ele>
        <time>2018-12-12T14:02:13Z</time>
      </trkpt>
      <trkpt lat="43.49954" lon="5.46363">
        <ele>246</ele>
        <time>2018-12-12T14:02:51Z</time>
      </trkpt>
      <trkpt lat="43.49963" lon="5.4636">
        <ele>247</ele>
        <time>2018-12-12T14:03:05Z</time>
      </trkpt>
      <trkpt lat="43.49972" lon="5.46362">
        <ele>248</ele>
        <time>2018-12-12T14:03:18Z</time>
      </trkpt>
      <trkpt lat="43.49978" lon="5.46367">
        <ele>247</ele>
        <time>2018-12-12T14:03:26Z</time>
      </trkpt>
      <trkpt lat="43.49985" lon="5.4637">
        <ele>247</ele>
        <time>2018-12-12T14:03:35Z</time>
      </trkpt>
      <trkpt lat="43.49993" lon="5.46372">
        <ele>247</ele>
        <time>2018-12-12T14:03:43Z</time>
      </trkpt>
      <trkpt lat="43.50001" lon="5.4637">
        <ele>244</ele>
        <time>2018-12-12T14:04:03Z</time>
      </trkpt>
      <trkpt lat="43.5001" lon="5.46372">
        <ele>246</ele>
        <time>2018-12-12T14:04:15Z</time>
      </trkpt>
      <trkpt lat="43.50017" lon="5.46377">
        <ele>245</ele>
        <time>2018-12-12T14:04:23Z</time>
      </trkpt>
      <trkpt lat="43.50025" lon="5.46381">
        <ele>246</ele>
        <time>2018-12-12T14:04:43Z</time>
      </trkpt>
      <trkpt lat="43.50034" lon="5.4638">
        <ele>246</ele>
        <time>2018-12-12T14:04:57Z</time>
      </trkpt>
      <trkpt lat="43.50042" lon="5.46382">
        <ele>245</ele>
        <time>2018-12-12T14:05:08Z</time>
      </trkpt>
      <trkpt lat="43.5005" lon="5.46381">
        <ele>244</ele>
        <time>2018-12-12T14:05:19Z</time>
      </trkpt>
      <trkpt lat="43.50059" lon="5.46383">
        <ele>242</ele>
        <time>2018-12-12T14:05:28Z</time>
      </trkpt>
      <trkpt lat="43.50068" lon="5.46381">
        <ele>242</ele>
        <time>2018-12-12T14:05:41Z</time>
      </trkpt>
      <trkpt lat="43.50076" lon="5.46377">
        <ele>242</ele>
        <time>2018-12-12T14:05:51Z</time>
      </trkpt>
      <trkpt lat="43.50082" lon="5.46372">
        <ele>242</ele>
        <time>2018-12-12T14:05:57Z</time>
      </trkpt>
      <trkpt lat="43.50088" lon="5.46366">
        <ele>241</ele>
        <time>2018-12-12T14:06:05Z</time>
      </trkpt>
      <trkpt lat="43.50095" lon="5.4636">
        <ele>241</ele>
        <time>2018-12-12T14:06:14Z</time>
      </trkpt>
      <trkpt lat="43.50103" lon="5.46355">
        <ele>240</ele>
        <time>2018-12-12T14:06:23Z</time>
      </trkpt>
      <trkpt lat="43.5011" lon="5.46349">
        <ele>239</ele>
        <time>2018-12-12T14:06:31Z</time>
      </trkpt>
      <trkpt lat="43.50118" lon="5.46345">
        <ele>238</ele>
        <time>2018-12-12T14:06:38Z</time>
      </trkpt>
      <trkpt lat="43.50126" lon="5.46341">
        <ele>238</ele>
        <time>2018-12-12T14:06:46Z</time>
      </trkpt>
      <trkpt lat="43.50133" lon="5.46339">
        <ele>238</ele>
        <time>2018-12-12T14:06:51Z</time>
      </trkpt>
      <trkpt lat="43.50141" lon="5.4634">
        <ele>239</ele>
        <time>2018-12-12T14:06:57Z</time>
      </trkpt>
      <trkpt lat="43.5015" lon="5.46339">
        <ele>239</ele>
        <time>2018-12-12T14:07:04Z</time>
      </trkpt>
      <trkpt lat="43.50158" lon="5.4634">
        <ele>242</ele>
        <time>2018-12-12T14:07:13Z</time>
      </trkpt>
      <trkpt lat="43.50165" lon="5.4634">
        <ele>242</ele>
        <time>2018-12-12T14:07:18Z</time>
      </trkpt>
      <trkpt lat="43.50173" lon="5.4634">
        <ele>243</ele>
        <time>2018-12-12T14:07:25Z</time>
      </trkpt>
      <trkpt lat="43.50182" lon="5.46338">
        <ele>241</ele>
        <time>2018-12-12T14:07:33Z</time>
      </trkpt>
      <trkpt lat="43.5019" lon="5.46337">
        <ele>242</ele>
        <time>2018-12-12T14:07:40Z</time>
      </trkpt>
      <trkpt lat="43.50198" lon="5.46338">
        <ele>242</ele>
        <time>2018-12-12T14:07:47Z</time>
      </trkpt>
      <trkpt lat="43.50207" lon="5.46341">
        <ele>243</ele>
        <time>2018-12-12T14:07:56Z</time>
      </trkpt>
      <trkpt lat="43.50213" lon="5.46346">
        <ele>244</ele>
        <time>2018-12-12T14:08:03Z</time>
      </trkpt>
      <trkpt lat="43.50221" lon="5.46349">
        <ele>244</ele>
        <time>2018-12-12T14:08:12Z</time>
      </trkpt>
      <trkpt lat="43.50227" lon="5.46351">
        <ele>242</ele>
        <time>2018-12-12T14:08:17Z</time>
      </trkpt>
      <trkpt lat="43.50235" lon="5.46354">
        <ele>241</ele>
        <time>2018-12-12T14:08:24Z</time>
      </trkpt>
      <trkpt lat="43.50243" lon="5.46357">
        <ele>239</ele>
        <time>2018-12-12T14:08:31Z</time>
      </trkpt>
      <trkpt lat="43.5025" lon="5.46361">
        <ele>239</ele>
        <time>2018-12-12T14:08:39Z</time>
      </trkpt>
      <trkpt lat="43.50258" lon="5.46363">
        <ele>239</ele>
        <time>2018-12-12T14:08:45Z</time>
      </trkpt>
      <trkpt lat="43.50266" lon="5.46365">
        <ele>240</ele>
        <time>2018-12-12T14:08:54Z</time>
      </trkpt>
      <trkpt lat="43.50273" lon="5.46368">
        <ele>241</ele>
        <time>2018-12-12T14:09:02Z</time>
      </trkpt>
      <trkpt lat="43.50281" lon="5.46372">
        <ele>241</ele>
        <time>2018-12-12T14:09:10Z</time>
      </trkpt>
      <trkpt lat="43.50289" lon="5.46377">
        <ele>239</ele>
        <time>2018-12-12T14:09:30Z</time>
      </trkpt>
      <trkpt lat="43.50297" lon="5.4638">
        <ele>240</ele>
        <time>2018-12-12T14:09:37Z</time>
      </trkpt>
      <trkpt lat="43.50304" lon="5.46382">
        <ele>241</ele>
        <time>2018-12-12T14:09:43Z</time>
      </trkpt>
      <trkpt lat="43.50311" lon="5.46387">
        <ele>241</ele>
        <time>2018-12-12T14:09:50Z</time>
      </trkpt>
      <trkpt lat="43.50317" lon="5.46391">
        <ele>240</ele>
        <time>2018-12-12T14:09:56Z</time>
      </trkpt>
      <trkpt lat="43.50324" lon="5.46393">
        <ele>239</ele>
        <time>2018-12-12T14:10:03Z</time>
      </trkpt>
      <trkpt lat="43.50331" lon="5.46395">
        <ele>240</ele>
        <time>2018-12-12T14:10:08Z</time>
      </trkpt>
      <trkpt lat="43.5034" lon="5.46397">
        <ele>239</ele>
        <time>2018-12-12T14:10:16Z</time>
      </trkpt>
      <trkpt lat="43.50348" lon="5.464">
        <ele>241</ele>
        <time>2018-12-12T14:10:25Z</time>
      </trkpt>
      <trkpt lat="43.50356" lon="5.46404">
        <ele>241</ele>
        <time>2018-12-12T14:10:33Z</time>
      </trkpt>
      <trkpt lat="43.50364" lon="5.46409">
        <ele>242</ele>
        <time>2018-12-12T14:10:39Z</time>
      </trkpt>
      <trkpt lat="43.50372" lon="5.4641">
        <ele>242</ele>
        <time>2018-12-12T14:10:45Z</time>
      </trkpt>
      <trkpt lat="43.5038" lon="5.46411">
        <ele>241</ele>
        <time>2018-12-12T14:10:58Z</time>
      </trkpt>
      <trkpt lat="43.50386" lon="5.46413">
        <ele>240</ele>
        <time>2018-12-12T14:11:04Z</time>
      </trkpt>
      <trkpt lat="43.50394" lon="5.46417">
        <ele>240</ele>
        <time>2018-12-12T14:11:11Z</time>
      </trkpt>
      <trkpt lat="43.50402" lon="5.46419">
        <ele>241</ele>
        <time>2018-12-12T14:11:22Z</time>
      </trkpt>
      <trkpt lat="43.50411" lon="5.46419">
        <ele>240</ele>
        <time>2018-12-12T14:11:35Z</time>
      </trkpt>
      <trkpt lat="43.50418" lon="5.46413">
        <ele>239</ele>
        <time>2018-12-12T14:11:43Z</time>
      </trkpt>
      <trkpt lat="43.50425" lon="5.46407">
        <ele>237</ele>
        <time>2018-12-12T14:11:51Z</time>
      </trkpt>
      <trkpt lat="43.5043" lon="5.464">
        <ele>236</ele>
        <time>2018-12-12T14:11:58Z</time>
      </trkpt>
      <trkpt lat="43.50437" lon="5.46393">
        <ele>238</ele>
        <time>2018-12-12T14:12:08Z</time>
      </trkpt>
      <trkpt lat="43.50445" lon="5.4639">
        <ele>240</ele>
        <time>2018-12-12T14:12:20Z</time>
      </trkpt>
      <trkpt lat="43.5045" lon="5.46381">
        <ele>242</ele>
        <time>2018-12-12T14:12:29Z</time>
      </trkpt>
      <trkpt lat="43.50455" lon="5.46373">
        <ele>240</ele>
        <time>2018-12-12T14:12:36Z</time>
      </trkpt>
      <trkpt lat="43.50458" lon="5.46363">
        <ele>241</ele>
        <time>2018-12-12T14:12:43Z</time>
      </trkpt>
      <trkpt lat="43.50462" lon="5.46353">
        <ele>241</ele>
        <time>2018-12-12T14:12:51Z</time>
      </trkpt>
      <trkpt lat="43.50466" lon="5.46344">
        <ele>241</ele>
        <time>2018-12-12T14:12:58Z</time>
      </trkpt>
      <trkpt lat="43.50471" lon="5.46335">
        <ele>242</ele>
        <time>2018-12-12T14:13:08Z</time>
      </trkpt>
      <trkpt lat="43.50474" lon="5.46325">
        <ele>241</ele>
        <time>2018-12-12T14:13:14Z</time>
      </trkpt>
      <trkpt lat="43.50477" lon="5.46314">
        <ele>241</ele>
        <time>2018-12-12T14:13:26Z</time>
      </trkpt>
      <trkpt lat="43.50483" lon="5.46305">
        <ele>243</ele>
        <time>2018-12-12T14:13:40Z</time>
      </trkpt>
      <trkpt lat="43.50488" lon="5.46297">
        <ele>240</ele>
        <time>2018-12-12T14:13:46Z</time>
      </trkpt>
      <trkpt lat="43.50494" lon="5.46289">
        <ele>238</ele>
        <time>2018-12-12T14:13:52Z</time>
      </trkpt>
      <trkpt lat="43.50501" lon="5.46284">
        <ele>236</ele>
        <time>2018-12-12T14:14:01Z</time>
      </trkpt>
      <trkpt lat="43.50506" lon="5.46276">
        <ele>235</ele>
        <time>2018-12-12T14:14:09Z</time>
      </trkpt>
      <trkpt lat="43.50512" lon="5.46268">
        <ele>236</ele>
        <time>2018-12-12T14:14:20Z</time>
      </trkpt>
      <trkpt lat="43.50519" lon="5.46261">
        <ele>236</ele>
        <time>2018-12-12T14:14:29Z</time>
      </trkpt>
      <trkpt lat="43.50525" lon="5.46257">
        <ele>235</ele>
        <time>2018-12-12T14:14:37Z</time>
      </trkpt>
      <trkpt lat="43.50531" lon="5.46252">
        <ele>235</ele>
        <time>2018-12-12T14:14:44Z</time>
      </trkpt>
      <trkpt lat="43.50536" lon="5.46243">
        <ele>236</ele>
        <time>2018-12-12T14:14:52Z</time>
      </trkpt>
      <trkpt lat="43.50543" lon="5.46238">
        <ele>235</ele>
        <time>2018-12-12T14:14:59Z</time>
      </trkpt>
      <trkpt lat="43.5055" lon="5.46233">
        <ele>233</ele>
        <time>2018-12-12T14:15:09Z</time>
      </trkpt>
      <trkpt lat="43.50555" lon="5.46224">
        <ele>231</ele>
        <time>2018-12-12T14:15:18Z</time>
      </trkpt>
      <trkpt lat="43.5056" lon="5.46214">
        <ele>231</ele>
        <time>2018-12-12T14:15:25Z</time>
      </trkpt>
      <trkpt lat="43.50566" lon="5.46207">
        <ele>231</ele>
        <time>2018-12-12T14:15:31Z</time>
      </trkpt>
      <trkpt lat="43.50574" lon="5.46201">
        <ele>230</ele>
        <time>2018-12-12T14:15:40Z</time>
      </trkpt>
      <trkpt lat="43.50581" lon="5.46196">
        <ele>232</ele>
        <time>2018-12-12T14:15:51Z</time>
      </trkpt>
      <trkpt lat="43.50588" lon="5.46191">
        <ele>232</ele>
        <time>2018-12-12T14:16:00Z</time>
      </trkpt>
      <trkpt lat="43.50596" lon="5.46186">
        <ele>232</ele>
        <time>2018-12-12T14:16:10Z</time>
      </trkpt>
      <trkpt lat="43.50605" lon="5.46184">
        <ele>230</ele>
        <time>2018-12-12T14:16:21Z</time>
      </trkpt>
      <trkpt lat="43.50613" lon="5.46184">
        <ele>232</ele>
        <time>2018-12-12T14:16:32Z</time>
      </trkpt>
      <trkpt lat="43.50618" lon="5.46176">
        <ele>231</ele>
        <time>2018-12-12T14:16:39Z</time>
      </trkpt>
      <trkpt lat="43.50626" lon="5.46173">
        <ele>229</ele>
        <time>2018-12-12T14:16:47Z</time>
      </trkpt>
      <trkpt lat="43.50634" lon="5.46169">
        <ele>230</ele>
        <time>2018-12-12T14:16:59Z</time>
      </trkpt>
      <trkpt lat="43.50642" lon="5.46164">
        <ele>229</ele>
        <time>2018-12-12T14:17:07Z</time>
      </trkpt>
      <trkpt lat="43.5065" lon="5.4616">
        <ele>227</ele>
        <time>2018-12-12T14:17:15Z</time>
      </trkpt>
      <trkpt lat="43.50657" lon="5.46159">
        <ele>222</ele>
        <time>2018-12-12T14:17:23Z</time>
      </trkpt>
      <trkpt lat="43.50661" lon="5.46151">
        <ele>220</ele>
        <time>2018-12-12T14:17:31Z</time>
      </trkpt>
      <trkpt lat="43.50667" lon="5.46143">
        <ele>220</ele>
        <time>2018-12-12T14:17:39Z</time>
      </trkpt>
      <trkpt lat="43.50674" lon="5.46137">
        <ele>220</ele>
        <time>2018-12-12T14:17:50Z</time>
      </trkpt>
      <trkpt lat="43.50681" lon="5.4613">
        <ele>217</ele>
        <time>2018-12-12T14:18:00Z</time>
      </trkpt>
      <trkpt lat="43.50685" lon="5.46121">
        <ele>215</ele>
        <time>2018-12-12T14:18:08Z</time>
      </trkpt>
      <trkpt lat="43.50687" lon="5.46111">
        <ele>215</ele>
        <time>2018-12-12T14:18:15Z</time>
      </trkpt>
      <trkpt lat="43.50692" lon="5.46101">
        <ele>212</ele>
        <time>2018-12-12T14:18:24Z</time>
      </trkpt>
      <trkpt lat="43.50697" lon="5.46094">
        <ele>211</ele>
        <time>2018-12-12T14:18:32Z</time>
      </trkpt>
      <trkpt lat="43.50704" lon="5.46086">
        <ele>210</ele>
        <time>2018-12-12T14:18:40Z</time>
      </trkpt>
      <trkpt lat="43.50709" lon="5.46081">
        <ele>209</ele>
        <time>2018-12-12T14:18:47Z</time>
      </trkpt>
      <trkpt lat="43.50717" lon="5.46075">
        <ele>208</ele>
        <time>2018-12-12T14:18:55Z</time>
      </trkpt>
      <trkpt lat="43.50722" lon="5.46067">
        <ele>209</ele>
        <time>2018-12-12T14:19:02Z</time>
      </trkpt>
      <trkpt lat="43.50727" lon="5.46057">
        <ele>206</ele>
        <time>2018-12-12T14:19:08Z</time>
      </trkpt>
      <trkpt lat="43.50733" lon="5.46049">
        <ele>206</ele>
        <time>2018-12-12T14:19:16Z</time>
      </trkpt>
      <trkpt lat="43.50737" lon="5.4604">
        <ele>204</ele>
        <time>2018-12-12T14:19:23Z</time>
      </trkpt>
      <trkpt lat="43.50743" lon="5.46033">
        <ele>205</ele>
        <time>2018-12-12T14:19:31Z</time>
      </trkpt>
      <trkpt lat="43.5075" lon="5.46025">
        <ele>205</ele>
        <time>2018-12-12T14:19:41Z</time>
      </trkpt>
      <trkpt lat="43.50755" lon="5.46017">
        <ele>206</ele>
        <time>2018-12-12T14:19:48Z</time>
      </trkpt>
      <trkpt lat="43.5076" lon="5.46007">
        <ele>207</ele>
        <time>2018-12-12T14:19:56Z</time>
      </trkpt>
      <trkpt lat="43.50768" lon="5.46008">
        <ele>206</ele>
        <time>2018-12-12T14:20:17Z</time>
      </trkpt>
      <trkpt lat="43.50776" lon="5.46012">
        <ele>206</ele>
        <time>2018-12-12T14:20:24Z</time>
      </trkpt>
      <trkpt lat="43.50784" lon="5.46014">
        <ele>205</ele>
        <time>2018-12-12T14:20:34Z</time>
      </trkpt>
      <trkpt lat="43.50792" lon="5.46018">
        <ele>204</ele>
        <time>2018-12-12T14:20:47Z</time>
      </trkpt>
      <trkpt lat="43.50799" lon="5.46025">
        <ele>204</ele>
        <time>2018-12-12T14:20:57Z</time>
      </trkpt>
      <trkpt lat="43.50804" lon="5.46033">
        <ele>206</ele>
        <time>2018-12-12T14:21:07Z</time>
      </trkpt>
      <trkpt lat="43.50811" lon="5.46035">
        <ele>206</ele>
        <time>2018-12-12T14:21:15Z</time>
      </trkpt>
      <trkpt lat="43.50816" lon="5.46045">
        <ele>204</ele>
        <time>2018-12-12T14:21:27Z</time>
      </trkpt>
      <trkpt lat="43.50824" lon="5.46048">
        <ele>203</ele>
        <time>2018-12-12T14:21:39Z</time>
      </trkpt>
      <trkpt lat="43.50829" lon="5.46057">
        <ele>204</ele>
        <time>2018-12-12T14:21:54Z</time>
      </trkpt>
      <trkpt lat="43.50834" lon="5.46067">
        <ele>201</ele>
        <time>2018-12-12T14:22:05Z</time>
      </trkpt>
      <trkpt lat="43.50834" lon="5.46078">
        <ele>197</ele>
        <time>2018-12-12T14:22:14Z</time>
      </trkpt>
      <trkpt lat="43.5083" lon="5.46086">
        <ele>196</ele>
        <time>2018-12-12T14:22:19Z</time>
      </trkpt>
      <trkpt lat="43.50825" lon="5.46097">
        <ele>198</ele>
        <time>2018-12-12T14:22:29Z</time>
      </trkpt>
      <trkpt lat="43.50824" lon="5.46107">
        <ele>197</ele>
        <time>2018-12-12T14:22:43Z</time>
      </trkpt>
      <trkpt lat="43.50821" lon="5.46116">
        <ele>197</ele>
        <time>2018-12-12T14:23:05Z</time>
      </trkpt>
      <trkpt lat="43.50823" lon="5.46126">
        <ele>199</ele>
        <time>2018-12-12T14:23:11Z</time>
      </trkpt>
      <trkpt lat="43.50822" lon="5.46138">
        <ele>197</ele>
        <time>2018-12-12T14:23:17Z</time>
      </trkpt>
      <trkpt lat="43.5082" lon="5.46149">
        <ele>196</ele>
        <time>2018-12-12T14:23:26Z</time>
      </trkpt>
      <trkpt lat="43.50816" lon="5.46158">
        <ele>195</ele>
        <time>2018-12-12T14:23:35Z</time>
      </trkpt>
      <trkpt lat="43.50811" lon="5.46167">
        <ele>194</ele>
        <time>2018-12-12T14:23:44Z</time>
      </trkpt>
      <trkpt lat="43.50804" lon="5.46173">
        <ele>192</ele>
        <time>2018-12-12T14:23:51Z</time>
      </trkpt>
      <trkpt lat="43.50798" lon="5.46177">
        <ele>191</ele>
        <time>2018-12-12T14:23:57Z</time>
      </trkpt>
      <trkpt lat="43.50793" lon="5.46187">
        <ele>192</ele>
        <time>2018-12-12T14:24:05Z</time>
      </trkpt>
      <trkpt lat="43.50789" lon="5.46194">
        <ele>190</ele>
        <time>2018-12-12T14:24:13Z</time>
      </trkpt>
      <trkpt lat="43.50785" lon="5.46206">
        <ele>191</ele>
        <time>2018-12-12T14:24:23Z</time>
      </trkpt>
      <trkpt lat="43.50786" lon="5.46216">
        <ele>191</ele>
        <time>2018-12-12T14:24:31Z</time>
      </trkpt>
      <trkpt lat="43.50781" lon="5.46226">
        <ele>194</ele>
        <time>2018-12-12T14:24:43Z</time>
      </trkpt>
      <trkpt lat="43.50777" lon="5.46236">
        <ele>192</ele>
        <time>2018-12-12T14:24:52Z</time>
      </trkpt>
      <trkpt lat="43.50772" lon="5.46246">
        <ele>191</ele>
        <time>2018-12-12T14:24:59Z</time>
      </trkpt>
      <trkpt lat="43.50766" lon="5.46254">
        <ele>192</ele>
        <time>2018-12-12T14:25:07Z</time>
      </trkpt>
      <trkpt lat="43.5076" lon="5.46262">
        <ele>193</ele>
        <time>2018-12-12T14:25:18Z</time>
      </trkpt>
      <trkpt lat="43.50754" lon="5.46269">
        <ele>193</ele>
        <time>2018-12-12T14:25:28Z</time>
      </trkpt>
      <trkpt lat="43.50748" lon="5.46277">
        <ele>191</ele>
        <time>2018-12-12T14:25:37Z</time>
      </trkpt>
      <trkpt lat="43.50741" lon="5.46284">
        <ele>190</ele>
        <time>2018-12-12T14:25:47Z</time>
      </trkpt>
      <trkpt lat="43.50735" lon="5.46293">
        <ele>192</ele>
        <time>2018-12-12T14:26:01Z</time>
      </trkpt>
      <trkpt lat="43.50732" lon="5.46303">
        <ele>194</ele>
        <time>2018-12-12T14:26:10Z</time>
      </trkpt>
      <trkpt lat="43.50727" lon="5.46312">
        <ele>196</ele>
        <time>2018-12-12T14:26:18Z</time>
      </trkpt>
      <trkpt lat="43.50724" lon="5.46323">
        <ele>196</ele>
        <time>2018-12-12T14:26:27Z</time>
      </trkpt>
      <trkpt lat="43.50718" lon="5.46332">
        <ele>195</ele>
        <time>2018-12-12T14:26:35Z</time>
      </trkpt>
      <trkpt lat="43.50718" lon="5.46343">
        <ele>196</ele>
        <time>2018-12-12T14:26:45Z</time>
      </trkpt>
      <trkpt lat="43.50713" lon="5.46353">
        <ele>198</ele>
        <time>2018-12-12T14:26:53Z</time>
      </trkpt>
      <trkpt lat="43.5071" lon="5.46364">
        <ele>197</ele>
        <time>2018-12-12T14:27:02Z</time>
      </trkpt>
      <trkpt lat="43.50707" lon="5.46374">
        <ele>195</ele>
        <time>2018-12-12T14:27:09Z</time>
      </trkpt>
      <trkpt lat="43.50706" lon="5.46384">
        <ele>194</ele>
        <time>2018-12-12T14:27:18Z</time>
      </trkpt>
      <trkpt lat="43.50706" lon="5.46395">
        <ele>194</ele>
        <time>2018-12-12T14:27:26Z</time>
      </trkpt>
      <trkpt lat="43.50703" lon="5.46406">
        <ele>195</ele>
        <time>2018-12-12T14:27:35Z</time>
      </trkpt>
      <trkpt lat="43.50702" lon="5.46416">
        <ele>193</ele>
        <time>2018-12-12T14:27:44Z</time>
      </trkpt>
      <trkpt lat="43.50699" lon="5.46427">
        <ele>195</ele>
        <time>2018-12-12T14:27:56Z</time>
      </trkpt>
      <trkpt lat="43.50697" lon="5.46437">
        <ele>195</ele>
        <time>2018-12-12T14:28:05Z</time>
      </trkpt>
      <trkpt lat="43.50696" lon="5.46447">
        <ele>195</ele>
        <time>2018-12-12T14:28:11Z</time>
      </trkpt>
      <trkpt lat="43.50694" lon="5.46458">
        <ele>194</ele>
        <time>2018-12-12T14:28:19Z</time>
      </trkpt>
      <trkpt lat="43.50693" lon="5.4647">
        <ele>196</ele>
        <time>2018-12-12T14:28:29Z</time>
      </trkpt>
      <trkpt lat="43.50691" lon="5.4648">
        <ele>197</ele>
        <time>2018-12-12T14:28:36Z</time>
      </trkpt>
      <trkpt lat="43.50693" lon="5.46489">
        <ele>197</ele>
        <time>2018-12-12T14:28:43Z</time>
      </trkpt>
      <trkpt lat="43.50693" lon="5.46499">
        <ele>197</ele>
        <time>2018-12-12T14:28:49Z</time>
      </trkpt>
      <trkpt lat="43.50693" lon="5.4651">
        <ele>194</ele>
        <time>2018-12-12T14:28:58Z</time>
      </trkpt>
      <trkpt lat="43.5069" lon="5.46522">
        <ele>196</ele>
        <time>2018-12-12T14:29:07Z</time>
      </trkpt>
      <trkpt lat="43.5069" lon="5.46533">
        <ele>195</ele>
        <time>2018-12-12T14:29:16Z</time>
      </trkpt>
      <trkpt lat="43.5069" lon="5.46544">
        <ele>194</ele>
        <time>2018-12-12T14:29:27Z</time>
      </trkpt>
      <trkpt lat="43.50692" lon="5.46555">
        <ele>196</ele>
        <time>2018-12-12T14:29:37Z</time>
      </trkpt>
      <trkpt lat="43.50693" lon="5.46565">
        <ele>196</ele>
        <time>2018-12-12T14:29:45Z</time>
      </trkpt>
      <trkpt lat="43.50695" lon="5.46574">
        <ele>197</ele>
        <time>2018-12-12T14:29:52Z</time>
      </trkpt>
      <trkpt lat="43.50697" lon="5.46586">
        <ele>196</ele>
        <time>2018-12-12T14:30:02Z</time>
      </trkpt>
      <trkpt lat="43.50699" lon="5.46596">
        <ele>195</ele>
        <time>2018-12-12T14:30:13Z</time>
      </trkpt>
      <trkpt lat="43.50699" lon="5.46607">
        <ele>196</ele>
        <time>2018-12-12T14:30:23Z</time>
      </trkpt>
      <trkpt lat="43.50696" lon="5.46618">
        <ele>199</ele>
        <time>2018-12-12T14:30:32Z</time>
      </trkpt>
      <trkpt lat="43.50697" lon="5.46629">
        <ele>198</ele>
        <time>2018-12-12T14:30:45Z</time>
      </trkpt>
      <trkpt lat="43.50697" lon="5.4664">
        <ele>198</ele>
        <time>2018-12-12T14:30:54Z</time>
      </trkpt>
      <trkpt lat="43.50695" lon="5.46652">
        <ele>198</ele>
        <time>2018-12-12T14:31:03Z</time>
      </trkpt>
      <trkpt lat="43.50696" lon="5.46662">
        <ele>196</ele>
        <time>2018-12-12T14:31:11Z</time>
      </trkpt>
      <trkpt lat="43.50696" lon="5.46673">
        <ele>197</ele>
        <time>2018-12-12T14:31:19Z</time>
      </trkpt>
      <trkpt lat="43.50693" lon="5.46683">
        <ele>197</ele>
        <time>2018-12-12T14:31:31Z</time>
      </trkpt>
      <trkpt lat="43.50695" lon="5.46693">
        <ele>198</ele>
        <time>2018-12-12T14:31:37Z</time>
      </trkpt>
      <trkpt lat="43.50698" lon="5.46704">
        <ele>197</ele>
        <time>2018-12-12T14:31:45Z</time>
      </trkpt>
      <trkpt lat="43.50702" lon="5.46714">
        <ele>197</ele>
        <time>2018-12-12T14:31:55Z</time>
      </trkpt>
      <trkpt lat="43.50705" lon="5.46724">
        <ele>197</ele>
        <time>2018-12-12T14:32:03Z</time>
      </trkpt>
      <trkpt lat="43.50708" lon="5.46735">
        <ele>196</ele>
        <time>2018-12-12T14:32:13Z</time>
      </trkpt>
      <trkpt lat="43.50713" lon="5.46744">
        <ele>197</ele>
        <time>2018-12-12T14:32:19Z</time>
      </trkpt>
      <trkpt lat="43.50718" lon="5.46753">
        <ele>196</ele>
        <time>2018-12-12T14:32:26Z</time>
      </trkpt>
      <trkpt lat="43.50721" lon="5.46764">
        <ele>194</ele>
        <time>2018-12-12T14:32:33Z</time>
      </trkpt>
      <trkpt lat="43.50725" lon="5.46774">
        <ele>194</ele>
        <time>2018-12-12T14:32:43Z</time>
      </trkpt>
      <trkpt lat="43.50729" lon="5.46785">
        <ele>197</ele>
        <time>2018-12-12T14:32:58Z</time>
      </trkpt>
      <trkpt lat="43.50735" lon="5.46794">
        <ele>195</ele>
        <time>2018-12-12T14:33:09Z</time>
      </trkpt>
      <trkpt lat="43.50741" lon="5.46801">
        <ele>194</ele>
        <time>2018-12-12T14:33:16Z</time>
      </trkpt>
      <trkpt lat="43.50747" lon="5.46807">
        <ele>194</ele>
        <time>2018-12-12T14:33:22Z</time>
      </trkpt>
      <trkpt lat="43.50756" lon="5.4681">
        <ele>191</ele>
        <time>2018-12-12T14:33:38Z</time>
      </trkpt>
      <trkpt lat="43.50764" lon="5.46809">
        <ele>190</ele>
        <time>2018-12-12T14:33:53Z</time>
      </trkpt>
      <trkpt lat="43.50771" lon="5.46803">
        <ele>194</ele>
        <time>2018-12-12T14:34:05Z</time>
      </trkpt>
      <trkpt lat="43.50777" lon="5.46798">
        <ele>193</ele>
        <time>2018-12-12T14:34:15Z</time>
      </trkpt>
      <trkpt lat="43.50785" lon="5.46792">
        <ele>192</ele>
        <time>2018-12-12T14:34:23Z</time>
      </trkpt>
      <trkpt lat="43.5079" lon="5.46783">
        <ele>190</ele>
        <time>2018-12-12T14:34:32Z</time>
      </trkpt>
      <trkpt lat="43.50798" lon="5.46781">
        <ele>192</ele>
        <time>2018-12-12T14:34:40Z</time>
      </trkpt>
      <trkpt lat="43.50804" lon="5.46786">
        <ele>192</ele>
        <time>2018-12-12T14:34:46Z</time>
      </trkpt>
      <trkpt lat="43.50811" lon="5.46792">
        <ele>193</ele>
        <time>2018-12-12T14:34:53Z</time>
      </trkpt>
      <trkpt lat="43.50819" lon="5.46788">
        <ele>191</ele>
        <time>2018-12-12T14:35:04Z</time>
      </trkpt>
      <trkpt lat="43.50826" lon="5.46781">
        <ele>190</ele>
        <time>2018-12-12T14:35:13Z</time>
      </trkpt>
      <trkpt lat="43.50831" lon="5.46773">
        <ele>189</ele>
        <time>2018-12-12T14:35:22Z</time>
      </trkpt>
      <trkpt lat="43.50838" lon="5.46768">
        <ele>192</ele>
        <time>2018-12-12T14:35:29Z</time>
      </trkpt>
      <trkpt lat="43.50847" lon="5.46765">
        <ele>191</ele>
        <time>2018-12-12T14:35:38Z</time>
      </trkpt>
      <trkpt lat="43.50855" lon="5.4676">
        <ele>192</ele>
        <time>2018-12-12T14:35:46Z</time>
      </trkpt>
      <trkpt lat="43.50862" lon="5.46757">
        <ele>190</ele>
        <time>2018-12-12T14:35:53Z</time>
      </trkpt>
      <trkpt lat="43.5087" lon="5.46754">
        <ele>191</ele>
        <time>2018-12-12T14:36:02Z</time>
      </trkpt>
      <trkpt lat="43.50874" lon="5.46745">
        <ele>192</ele>
        <time>2018-12-12T14:36:14Z</time>
      </trkpt>
      <trkpt lat="43.50873" lon="5.46733">
        <ele>190</ele>
        <time>2018-12-12T14:36:27Z</time>
      </trkpt>
      <trkpt lat="43.50878" lon="5.46723">
        <ele>189</ele>
        <time>2018-12-12T14:36:35Z</time>
      </trkpt>
      <trkpt lat="43.50879" lon="5.46713">
        <ele>191</ele>
        <time>2018-12-12T14:36:45Z</time>
      </trkpt>
      <trkpt lat="43.50876" lon="5.46702">
        <ele>192</ele>
        <time>2018-12-12T14:36:56Z</time>
      </trkpt>
      <trkpt lat="43.50873" lon="5.46691">
        <ele>193</ele>
        <time>2018-12-12T14:37:02Z</time>
      </trkpt>
      <trkpt lat="43.50874" lon="5.4668">
        <ele>193</ele>
        <time>2018-12-12T14:37:10Z</time>
      </trkpt>
      <trkpt lat="43.50874" lon="5.46672">
        <ele>194</ele>
        <time>2018-12-12T14:37:14Z</time>
      </trkpt>
      <trkpt lat="43.50875" lon="5.46661">
        <ele>195</ele>
        <time>2018-12-12T14:37:19Z</time>
      </trkpt>
      <trkpt lat="43.50879" lon="5.4665">
        <ele>197</ele>
        <time>2018-12-12T14:37:25Z</time>
      </trkpt>
      <trkpt lat="43.50886" lon="5.46645">
        <ele>195</ele>
        <time>2018-12-12T14:37:34Z</time>
      </trkpt>
      <trkpt lat="43.50885" lon="5.46634">
        <ele>195</ele>
        <time>2018-12-12T14:37:43Z</time>
      </trkpt>
      <trkpt lat="43.50887" lon="5.46623">
        <ele>196</ele>
        <time>2018-12-12T14:37:50Z</time>
      </trkpt>
      <trkpt lat="43.50886" lon="5.4662">
        <ele>195</ele>
        <time>2018-12-12T14:38:30Z</time>
      </trkpt>
      <trkpt lat="43.50886" lon="5.4662">
        <ele>195</ele>
        <time>2018-12-12T14:38:31Z</time>
      </trkpt>
    </trkseg>
  </trk>
</gpx>